Darstellungsparameter: Aktuell verwendete Einstellungen:
Skalierung der Graphiken ... ?
xyx+y,   Skalierungsfaktor:      Skalierung: Modus: x, Faktor: 1
Darstellungszeitraum ... ?
Vom - - bis: - -   Zeitraum: 06.06.2009 - 05.09.2009
Min/Max/Avg-Anzeige ... ?
Zeige MMA aktuell
Zeige MMA Monat
Zeige MMA alles
Zeige --A aktuell
Zeige --A Monat
Zeige --A alles
Keine MMA-Anzeige
MMA:
Keine MMA-Graphiken
MMA-Basis: 06.06.2009 - 05.09.2009
Quicknavigation für Darstellung... ?
Tage:      1T, 2T, 3T, 5T -1T -2T -3T -5T +1T +2T +3T +5T
Wochen: 1W, 2W, 3W -1W -2W -3W +1W +2W +3W
Monate: 1M, 3M, 6M -1M -3M -6M +1M +3M +6M
Jahre:    1J, 3J, 5J, 10J -1J -3J -5J -10J +1J +3J +5J +10J
Nutze für die Darstellung ... ?
Originaldaten oder Mittelwerte auf ...
Stundenbasis Tagesbasis Wochenbasis
Monatsbasis Jahresbasis      Datenbasis: Original-Daten
Darstellen als:
Statistik (Auto) Statistik J:M      Darstellung:
Zur Graphik,    zurück zur Übersicht aller Sensoren.
 
Tabellarische Datenbersicht: ?
 
Sensor: Nr:Datum:Temp:Feuchte:Taupunkt:
Aussen-T/F 1 06-06-2009 00:07:20 9.8 C 57 % 1.7 C
2 06-06-2009 00:19:20 9.7 C 58 % 1.85 C
3 06-06-2009 00:31:20 9.5 C 59 % 1.9 C
4 06-06-2009 00:43:20 9.1 C 60 % 1.76 C
5 06-06-2009 00:55:20 8.9 C 62 % 2.03 C
6 06-06-2009 01:07:20 8.8 C 62 % 1.93 C
7 06-06-2009 01:19:20 8.6 C 62 % 1.74 C
8 06-06-2009 01:31:20 8.6 C 63 % 1.97 C
9 06-06-2009 01:43:20 8.5 C 65 % 2.31 C
10 06-06-2009 01:55:20 8.3 C 65 % 2.12 C
11 06-06-2009 02:07:20 8.2 C 66 % 2.24 C
12 06-06-2009 02:19:20 8.1 C 66 % 2.14 C
13 06-06-2009 02:31:20 8.1 C 67 % 2.35 C
14 06-06-2009 02:43:20 8.1 C 68 % 2.56 C
15 06-06-2009 02:55:20 8.1 C 68 % 2.56 C
16 06-06-2009 03:07:20 8 C 70 % 2.87 C
17 06-06-2009 03:19:20 7.8 C 71 % 2.88 C
18 06-06-2009 03:31:20 7.6 C 72 % 2.88 C
19 06-06-2009 03:43:20 7.5 C 73 % 2.98 C
20 06-06-2009 03:55:20 7.4 C 73 % 2.89 C
21 06-06-2009 04:07:21 7.4 C 73 % 2.89 C
22 06-06-2009 04:19:21 7.4 C 73 % 2.89 C
23 06-06-2009 04:31:21 7.3 C 74 % 2.98 C
24 06-06-2009 04:43:21 7.1 C 74 % 2.79 C
25 06-06-2009 04:55:21 7.2 C 75 % 3.07 C
Sensor: Nr:Datum:Temp:Feuchte:Taupunkt:
Aussen-T/F 26 06-06-2009 05:07:21 7.4 C 75 % 3.27 C
27 06-06-2009 05:19:21 7.6 C 75 % 3.46 C
28 06-06-2009 05:31:21 7.8 C 74 % 3.46 C
29 06-06-2009 05:43:21 8 C 73 % 3.46 C
30 06-06-2009 05:55:21 8.1 C 73 % 3.56 C
31 06-06-2009 06:07:21 8.2 C 73 % 3.66 C
32 06-06-2009 06:19:21 8.4 C 73 % 3.85 C
33 06-06-2009 06:31:21 8.7 C 72 % 3.94 C
34 06-06-2009 06:43:21 8.7 C 70 % 3.54 C
35 06-06-2009 06:55:21 8.9 C 70 % 3.74 C
36 06-06-2009 07:07:21 8.9 C 70 % 3.74 C
37 06-06-2009 07:19:21 8.9 C 70 % 3.74 C
38 06-06-2009 07:31:21 8.6 C 73 % 4.04 C
39 06-06-2009 07:43:21 8.6 C 75 % 4.43 C
40 06-06-2009 07:55:21 8.6 C 77 % 4.8 C
41 06-06-2009 08:07:22 8.6 C 79 % 5.17 C
42 06-06-2009 08:19:22 8.6 C 81 % 5.53 C
43 06-06-2009 08:31:22 8.3 C 84 % 5.76 C
44 06-06-2009 08:43:22 8.3 C 87 % 6.27 C
45 06-06-2009 08:55:22 8.2 C 88 % 6.33 C
46 06-06-2009 09:07:19 8.5 C 89 % 6.79 C
47 06-06-2009 09:19:19 8.4 C 90 % 6.86 C
48 06-06-2009 09:31:20 8.7 C 90 % 7.15 C
49 06-06-2009 09:43:20 8.7 C 91 % 7.32 C
50 06-06-2009 09:55:19 8.9 C 91 % 7.51 C
Sensor: Nr:Datum:Temp:Feuchte:Taupunkt:
Aussen-T/F 51 06-06-2009 10:07:19 9.1 C 90 % 7.55 C
52 06-06-2009 10:19:19 9.1 C 90 % 7.55 C
53 06-06-2009 10:31:19 8.9 C 91 % 7.51 C
54 06-06-2009 10:43:19 9 C 90 % 7.45 C
55 06-06-2009 10:55:18 9 C 90 % 7.45 C
56 06-06-2009 11:07:19 9 C 90 % 7.45 C
57 06-06-2009 11:19:18 9 C 90 % 7.45 C
58 06-06-2009 11:31:18 9.2 C 91 % 7.81 C
59 06-06-2009 11:43:18 9.2 C 91 % 7.81 C
60 06-06-2009 11:55:18 9 C 91 % 7.61 C
61 06-06-2009 12:07:17 9.2 C 91 % 7.81 C
62 06-06-2009 12:19:18 9.4 C 92 % 8.17 C
63 06-06-2009 12:31:18 9.3 C 92 % 8.07 C
64 06-06-2009 12:43:18 9.3 C 92 % 8.07 C
65 06-06-2009 12:55:17 9.5 C 92 % 8.27 C
66 06-06-2009 13:07:18 9.6 C 92 % 8.37 C
67 06-06-2009 13:19:17 9.7 C 92 % 8.46 C
68 06-06-2009 13:31:17 9.7 C 93 % 8.62 C
69 06-06-2009 13:43:17 9.7 C 93 % 8.62 C
70 06-06-2009 13:55:17 9.6 C 93 % 8.53 C
71 06-06-2009 14:07:17 9.8 C 93 % 8.72 C
72 06-06-2009 14:19:16 9.8 C 93 % 8.72 C
73 06-06-2009 14:31:16 9.8 C 93 % 8.72 C
74 06-06-2009 14:43:16 9.6 C 92 % 8.37 C
75 06-06-2009 14:55:16 9.5 C 92 % 8.27 C
Sensor: Nr:Datum:Temp:Feuchte:Taupunkt:
Aussen-T/F 76 06-06-2009 15:07:16 9.5 C 92 % 8.27 C
77 06-06-2009 15:19:15 9.4 C 92 % 8.17 C
78 06-06-2009 15:31:16 9.5 C 92 % 8.27 C
79 06-06-2009 15:43:16 9.7 C 93 % 8.62 C
80 06-06-2009 15:55:15 9.8 C 93 % 8.72 C
81 06-06-2009 16:07:15 10.1 C 92 % 8.86 C
82 06-06-2009 16:19:16 10.1 C 92 % 8.86 C
83 06-06-2009 16:31:15 9.9 C 93 % 8.82 C
84 06-06-2009 16:43:15 10 C 92 % 8.76 C
85 06-06-2009 16:55:15 9.9 C 93 % 8.82 C
86 06-06-2009 17:07:15 9.9 C 92 % 8.66 C
87 06-06-2009 17:19:15 9.9 C 92 % 8.66 C
88 06-06-2009 17:31:14 10.1 C 91 % 8.7 C
89 06-06-2009 17:43:14 10.3 C 91 % 8.9 C
90 06-06-2009 17:55:15 10.4 C 90 % 8.83 C
91 06-06-2009 18:07:14 10.5 C 90 % 8.93 C
92 06-06-2009 18:19:14 10.9 C 90 % 9.33 C
93 06-06-2009 18:31:02 10.7 C 88 % 8.8 C
94 06-06-2009 18:43:02 10.8 C 88 % 8.89 C
95 06-06-2009 18:55:01 10.7 C 86 % 8.46 C
96 06-06-2009 19:07:02 10.8 C 86 % 8.56 C
97 06-06-2009 19:19:01 10.9 C 85 % 8.48 C
98 06-06-2009 19:31:01 11.1 C 85 % 8.68 C
99 06-06-2009 19:43:01 11 C 85 % 8.58 C
100 06-06-2009 19:55:01 10.9 C 87 % 8.82 C
Sensor: Nr:Datum:Temp:Feuchte:Taupunkt:
Aussen-T/F 101 06-06-2009 20:07:01 10.5 C 86 % 8.26 C
102 06-06-2009 20:19:00 10.4 C 86 % 8.16 C
103 06-06-2009 20:31:00 10.4 C 87 % 8.33 C
104 06-06-2009 20:43:00 10.4 C 87 % 8.33 C
105 06-06-2009 20:55:00 10.3 C 87 % 8.23 C
106 06-06-2009 21:07:00 10.3 C 88 % 8.4 C
107 06-06-2009 21:18:59 10.2 C 88 % 8.3 C
108 06-06-2009 21:31:00 10.2 C 88 % 8.3 C
109 06-06-2009 21:43:00 10.1 C 88 % 8.21 C
110 06-06-2009 21:55:59 9.8 C 89 % 8.08 C
111 06-06-2009 22:07:59 9.5 C 89 % 7.78 C
112 06-06-2009 22:19:00 9.4 C 90 % 7.85 C
113 06-06-2009 22:31:59 9.4 C 91 % 8.01 C
114 06-06-2009 22:43:59 9.5 C 91 % 8.11 C
115 06-06-2009 22:55:59 9.6 C 92 % 8.37 C
116 06-06-2009 23:07:59 9.5 C 92 % 8.27 C
117 06-06-2009 23:19:59 9.5 C 92 % 8.27 C
118 06-06-2009 23:31:58 9.2 C 91 % 7.81 C
119 06-06-2009 23:43:58 8.8 C 92 % 7.57 C
120 06-06-2009 23:55:59 8.5 C 92 % 7.28 C
121 07-06-2009 00:07:59 8.5 C 92 % 7.28 C
122 07-06-2009 00:19:59 8.3 C 92 % 7.08 C
123 07-06-2009 00:31:58 8.1 C 92 % 6.88 C
124 07-06-2009 00:43:58 7.9 C 93 % 6.84 C
125 07-06-2009 00:55:58 8 C 92 % 6.78 C
Sensor: Nr:Datum:Temp:Feuchte:Taupunkt:
Aussen-T/F 126 07-06-2009 01:07:57 8 C 93 % 6.94 C
127 07-06-2009 01:19:58 8 C 93 % 6.94 C
128 07-06-2009 01:31:58 7.9 C 94 % 7 C
129 07-06-2009 01:43:58 7.9 C 94 % 7 C
130 07-06-2009 01:55:57 8.1 C 93 % 7.04 C
131 07-06-2009 02:07:58 8.2 C 94 % 7.29 C
132 07-06-2009 02:19:57 8.4 C 94 % 7.49 C
133 07-06-2009 02:31:57 8.4 C 94 % 7.49 C
134 07-06-2009 02:43:57 8.4 C 94 % 7.49 C
135 07-06-2009 02:56:59 8.4 C 94 % 7.49 C
136 07-06-2009 03:08:59 8.5 C 95 % 7.75 C
137 07-06-2009 03:20:59 8.5 C 95 % 7.75 C
138 07-06-2009 03:32:58 8.5 C 95 % 7.75 C
139 07-06-2009 03:44:58 8.4 C 95 % 7.65 C
140 07-06-2009 03:56:58 8.4 C 95 % 7.65 C
141 07-06-2009 04:08:58 8.5 C 95 % 7.75 C
142 07-06-2009 04:20:58 8.5 C 95 % 7.75 C
143 07-06-2009 04:32:58 8.5 C 95 % 7.75 C
144 07-06-2009 04:44:57 8.5 C 95 % 7.75 C
145 07-06-2009 04:56:57 8.5 C 95 % 7.75 C
146 07-06-2009 05:08:58 8.6 C 95 % 7.85 C
147 07-06-2009 05:20:58 8.6 C 95 % 7.85 C
148 07-06-2009 05:32:57 8.6 C 95 % 7.85 C
149 07-06-2009 05:44:57 8.7 C 95 % 7.94 C
150 07-06-2009 05:56:57 8.8 C 95 % 8.04 C
Sensor: Nr:Datum:Temp:Feuchte:Taupunkt:
Aussen-T/F 151 07-06-2009 06:08:57 8.9 C 95 % 8.14 C
152 07-06-2009 06:20:57 9.1 C 94 % 8.19 C
153 07-06-2009 06:32:57 9.3 C 94 % 8.39 C
154 07-06-2009 06:44:57 9.5 C 94 % 8.58 C
155 07-06-2009 06:56:57 9.5 C 94 % 8.58 C
156 07-06-2009 07:08:57 9.6 C 94 % 8.68 C
157 07-06-2009 07:20:56 10 C 93 % 8.92 C
158 07-06-2009 07:32:57 10.2 C 92 % 8.96 C
159 07-06-2009 07:44:01 10.3 C 88 % 8.4 C
160 07-06-2009 07:56:01 10.7 C 86 % 8.46 C
161 07-06-2009 08:08:01 11 C 80 % 7.69 C
162 07-06-2009 08:20:01 11.4 C 78 % 7.71 C
163 07-06-2009 08:32:01 11.7 C 75 % 7.42 C
164 07-06-2009 08:44:01 11.9 C 71 % 6.82 C
165 07-06-2009 08:56:01 12.4 C 67 % 6.45 C
166 07-06-2009 09:08:01 13.1 C 65 % 6.68 C
167 07-06-2009 09:20:01 13.6 C 62 % 6.47 C
168 07-06-2009 09:32:00 14 C 62 % 6.84 C
169 07-06-2009 09:44:00 14.1 C 62 % 6.94 C
170 07-06-2009 09:56:00 14.3 C 62 % 7.13 C
171 07-06-2009 10:08:00 14.4 C 60 % 6.74 C
172 07-06-2009 10:20:59 14.9 C 61 % 7.45 C
173 07-06-2009 10:32:00 15.5 C 60 % 7.78 C
174 07-06-2009 10:44:00 15.9 C 57 % 7.4 C
175 07-06-2009 10:56:59 16.4 C 54 % 7.08 C
Sensor: Nr:Datum:Temp:Feuchte:Taupunkt:
Aussen-T/F 176 07-06-2009 11:08:59 16.9 C 55 % 7.81 C
177 07-06-2009 11:20:00 17.2 C 54 % 7.82 C
178 07-06-2009 11:32:59 17 C 54 % 7.63 C
179 07-06-2009 11:44:59 16.1 C 57 % 7.59 C
180 07-06-2009 11:56:59 17.5 C 53 % 7.82 C
181 07-06-2009 12:08:59 17.1 C 51 % 6.89 C
182 07-06-2009 12:20:59 17.7 C 51 % 7.45 C
183 07-06-2009 12:32:59 17.3 C 53 % 7.64 C
184 07-06-2009 12:44:58 17.1 C 57 % 8.52 C
185 07-06-2009 12:56:58 16.8 C 62 % 9.49 C
186 07-06-2009 13:08:59 16.6 C 60 % 8.81 C
187 07-06-2009 13:20:59 16.4 C 63 % 9.35 C
188 07-06-2009 13:32:59 17.4 C 60 % 9.56 C
189 07-06-2009 13:44:58 19.3 C 49 % 8.33 C
190 07-06-2009 13:56:58 19.2 C 48 % 7.93 C
191 07-06-2009 14:08:57 19.4 C 50 % 8.72 C
192 07-06-2009 14:20:58 18.9 C 51 % 8.55 C
193 07-06-2009 14:32:58 18.9 C 52 % 8.84 C
194 07-06-2009 14:44:57 18.7 C 54 % 9.21 C
195 07-06-2009 14:56:57 19.1 C 53 % 9.3 C
196 07-06-2009 15:08:58 19.1 C 51 % 8.73 C
197 07-06-2009 15:20:57 17.3 C 61 % 9.71 C
198 07-06-2009 15:32:58 16 C 75 % 11.57 C
199 07-06-2009 15:44:57 15.5 C 78 % 11.68 C
200 07-06-2009 15:56:57 15.1 C 81 % 11.87 C
Sensor: Nr:Datum:Temp:Feuchte:Taupunkt:
Aussen-T/F 201 07-06-2009 16:08:57 14.8 C 84 % 12.12 C
202 07-06-2009 16:20:56 15.6 C 87 % 13.45 C
203 07-06-2009 16:32:57 16 C 86 % 13.66 C
204 07-06-2009 16:44:56 16.3 C 83 % 13.41 C
205 07-06-2009 16:56:56 17.2 C 79 % 13.53 C
206 07-06-2009 17:08:56 17.6 C 72 % 12.5 C
207 07-06-2009 17:20:56 18.9 C 67 % 12.64 C
208 07-06-2009 17:32:56 19.5 C 60 % 11.53 C
209 07-06-2009 17:44:56 18.4 C 62 % 10.99 C
210 07-06-2009 17:56:56 18.3 C 63 % 11.14 C
211 07-06-2009 18:08:55 18.8 C 58 % 10.37 C
212 07-06-2009 18:20:56 17.3 C 51 % 7.08 C
213 07-06-2009 18:32:55 17 C 59 % 8.94 C
214 07-06-2009 18:44:55 18 C 54 % 8.56 C
215 07-06-2009 18:56:55 19.2 C 47 % 7.63 C
216 07-06-2009 19:08:55 20.4 C 43 % 7.41 C
217 07-06-2009 19:20:55 20.4 C 41 % 6.72 C
218 07-06-2009 19:32:55 20.3 C 40 % 6.27 C
219 07-06-2009 19:44:55 19.8 C 43 % 6.87 C
220 07-06-2009 19:56:55 20.3 C 42 % 6.98 C
221 07-06-2009 20:08:54 20.3 C 42 % 6.98 C
222 07-06-2009 20:20:55 20 C 41 % 6.36 C
223 07-06-2009 20:32:54 18.7 C 43 % 5.88 C
224 07-06-2009 20:44:54 17.6 C 47 % 6.17 C
225 07-06-2009 20:56:55 16.6 C 50 % 6.15 C
Sensor: Nr:Datum:Temp:Feuchte:Taupunkt:
Aussen-T/F 226 07-06-2009 21:08:53 16.1 C 51 % 5.97 C
227 07-06-2009 21:20:54 15.8 C 56 % 7.05 C
228 07-06-2009 21:32:54 15.2 C 60 % 7.5 C
229 07-06-2009 21:44:53 14.7 C 63 % 7.74 C
230 07-06-2009 21:56:53 14.1 C 64 % 7.4 C
231 07-06-2009 22:09:55 13.5 C 63 % 6.6 C
232 07-06-2009 22:21:55 13 C 62 % 5.9 C
233 07-06-2009 22:33:55 12.7 C 63 % 5.85 C
234 07-06-2009 22:45:55 12.5 C 63 % 5.66 C
235 07-06-2009 22:57:55 12.3 C 63 % 5.47 C
236 07-06-2009 23:09:55 12 C 63 % 5.18 C
237 07-06-2009 23:21:55 11.8 C 65 % 5.44 C
238 07-06-2009 23:33:55 11.6 C 67 % 5.69 C
239 07-06-2009 23:45:55 11.5 C 68 % 5.81 C
240 07-06-2009 23:57:55 11.3 C 69 % 5.83 C
241 08-06-2009 00:09:55 11.2 C 70 % 5.94 C
242 08-06-2009 00:21:55 11.3 C 70 % 6.03 C
243 08-06-2009 00:33:55 10.8 C 72 % 5.96 C
244 08-06-2009 00:45:55 10.6 C 74 % 6.17 C
245 08-06-2009 00:57:56 10.7 C 73 % 6.07 C
246 08-06-2009 01:09:56 10.7 C 72 % 5.87 C
247 08-06-2009 01:21:56 10.4 C 73 % 5.78 C
248 08-06-2009 01:33:56 10.1 C 75 % 5.88 C
249 08-06-2009 01:45:56 10.2 C 73 % 5.58 C
250 08-06-2009 01:57:56 10.6 C 70 % 5.36 C
Sensor: Nr:Datum:Temp:Feuchte:Taupunkt:
Aussen-T/F 251 08-06-2009 02:09:56 11.4 C 64 % 4.84 C
252 08-06-2009 02:21:56 11.7 C 64 % 5.13 C
253 08-06-2009 02:33:56 11.6 C 65 % 5.25 C
254 08-06-2009 02:45:56 11.6 C 65 % 5.25 C
255 08-06-2009 02:57:56 11.8 C 65 % 5.44 C
256 08-06-2009 03:09:56 11 C 74 % 6.55 C
257 08-06-2009 03:21:56 10.9 C 78 % 7.22 C
258 08-06-2009 03:33:56 11.2 C 77 % 7.32 C
259 08-06-2009 03:45:56 11.1 C 76 % 7.04 C
260 08-06-2009 03:57:56 11 C 76 % 6.94 C
261 08-06-2009 04:09:56 11.1 C 77 % 7.23 C
262 08-06-2009 04:21:56 11.1 C 77 % 7.23 C
263 08-06-2009 04:33:56 11.1 C 77 % 7.23 C
264 08-06-2009 04:45:56 11.1 C 77 % 7.23 C
265 08-06-2009 04:57:57 11.1 C 78 % 7.41 C
266 08-06-2009 05:09:57 11.2 C 78 % 7.51 C
267 08-06-2009 05:21:57 11.2 C 77 % 7.32 C
268 08-06-2009 05:33:57 11.2 C 78 % 7.51 C
269 08-06-2009 05:45:57 11.3 C 78 % 7.61 C
270 08-06-2009 05:57:57 11.5 C 75 % 7.23 C
271 08-06-2009 06:09:57 11.5 C 76 % 7.42 C
272 08-06-2009 06:21:57 11.5 C 76 % 7.42 C
273 08-06-2009 06:33:57 11.5 C 76 % 7.42 C
274 08-06-2009 06:45:55 11.5 C 78 % 7.8 C
275 08-06-2009 06:57:55 11.5 C 77 % 7.61 C
Sensor: Nr:Datum:Temp:Feuchte:Taupunkt:
Aussen-T/F 276 08-06-2009 07:09:54 11.8 C 76 % 7.71 C
277 08-06-2009 07:21:54 12 C 75 % 7.71 C
278 08-06-2009 07:33:54 12.3 C 76 % 8.2 C
279 08-06-2009 07:45:54 12.2 C 74 % 7.71 C
280 08-06-2009 07:57:54 12.3 C 72 % 7.4 C
281 08-06-2009 08:09:53 12.5 C 70 % 7.18 C
282 08-06-2009 08:21:54 12.7 C 68 % 6.95 C
283 08-06-2009 08:33:54 12.9 C 65 % 6.49 C
284 08-06-2009 08:45:53 13.2 C 65 % 6.77 C
285 08-06-2009 08:57:53 13.5 C 63 % 6.6 C
286 08-06-2009 09:09:53 13.8 C 60 % 6.18 C
287 08-06-2009 09:21:53 14.1 C 58 % 5.97 C
288 08-06-2009 09:33:53 14.6 C 55 % 5.67 C
289 08-06-2009 09:45:53 14.8 C 54 % 5.59 C
290 08-06-2009 09:57:53 15 C 52 % 5.24 C
291 08-06-2009 10:09:53 15.6 C 51 % 5.51 C
292 08-06-2009 10:21:52 15.9 C 47 % 4.61 C
293 08-06-2009 10:33:52 16.4 C 46 % 4.76 C
294 08-06-2009 10:45:52 16.5 C 44 % 4.22 C
295 08-06-2009 10:57:52 16.6 C 43 % 3.98 C
296 08-06-2009 11:09:52 17.7 C 43 % 4.98 C
297 08-06-2009 11:21:51 17.3 C 39 % 3.23 C
298 08-06-2009 11:33:52 17 C 42 % 4.01 C
299 08-06-2009 11:45:51 17.6 C 41 % 4.21 C
300 08-06-2009 11:57:51 18.1 C 39 % 3.94 C
Sensor: Nr:Datum:Temp:Feuchte:Taupunkt:
Aussen-T/F 301 08-06-2009 12:09:52 17.6 C 40 % 3.86 C
302 08-06-2009 12:21:51 20 C 36 % 4.49 C
303 08-06-2009 12:33:51 18.6 C 37 % 3.64 C
304 08-06-2009 12:45:51 20.2 C 35 % 4.26 C
305 08-06-2009 12:57:51 19.6 C 34 % 3.33 C
306 08-06-2009 13:09:51 21.6 C 25 % 0.75 C
307 08-06-2009 13:21:50 21.5 C 29 % 2.74 C
308 08-06-2009 13:33:51 20.9 C 28 % 1.73 C
309 08-06-2009 13:45:51 20.3 C 30 % 2.18 C
310 08-06-2009 13:57:51 21.4 C 27 % 1.65 C
311 08-06-2009 14:09:50 21.7 C 23 % -0.31 C
312 08-06-2009 14:21:50 21.5 C 25 % 0.67 C
313 08-06-2009 14:33:50 21.9 C 26 % 1.55 C
314 08-06-2009 14:45:50 21.7 C 26 % 1.38 C
315 08-06-2009 14:57:50 22.1 C 25 % 1.17 C
316 08-06-2009 15:09:49 22.9 C 25 % 1.85 C
317 08-06-2009 15:21:50 23 C 21 % -0.48 C
318 08-06-2009 15:33:50 22.7 C 21 % -0.72 C
319 08-06-2009 15:45:49 23.8 C 22 % 0.83 C
320 08-06-2009 15:57:49 23.3 C 21 % -0.23 C
321 08-06-2009 16:09:50 23.7 C 21 % 0.1 C
322 08-06-2009 16:21:49 24.7 C 20 % 0.26 C
323 08-06-2009 16:33:49 23.5 C 22 % 0.58 C
324 08-06-2009 16:45:49 23.2 C 22 % 0.33 C
325 08-06-2009 16:57:49 23.9 C 22 % 0.91 C
Sensor: Nr:Datum:Temp:Feuchte:Taupunkt:
Aussen-T/F 326 08-06-2009 17:09:49 23.8 C 22 % 0.83 C
327 08-06-2009 17:21:48 24.4 C 22 % 1.33 C
328 08-06-2009 17:33:48 24.3 C 23 % 1.86 C
329 08-06-2009 17:45:48 25.1 C 21 % 1.26 C
330 08-06-2009 17:57:48 24.1 C 22 % 1.08 C
331 08-06-2009 18:09:48 23.9 C 25 % 2.69 C
332 08-06-2009 18:21:48 23.7 C 28 % 4.13 C
333 08-06-2009 18:33:48 23.5 C 32 % 5.87 C
334 08-06-2009 18:45:48 22.8 C 36 % 6.96 C
335 08-06-2009 18:57:48 22.1 C 38 % 7.13 C
336 08-06-2009 19:09:47 21.6 C 40 % 7.43 C
337 08-06-2009 19:21:48 21 C 39 % 6.53 C
338 08-06-2009 19:33:47 20.8 C 42 % 7.43 C
339 08-06-2009 19:45:47 20.6 C 42 % 7.25 C
340 08-06-2009 19:57:48 20.4 C 43 % 7.41 C
341 08-06-2009 20:09:47 20.1 C 45 % 7.81 C
342 08-06-2009 20:21:47 19.8 C 47 % 8.17 C
343 08-06-2009 20:33:47 19.3 C 48 % 8.03 C
344 08-06-2009 20:45:47 18.8 C 50 % 8.17 C
345 08-06-2009 20:57:47 18.5 C 50 % 7.89 C
346 08-06-2009 21:09:47 18.2 C 50 % 7.62 C
347 08-06-2009 21:21:46 17.9 C 51 % 7.63 C
348 08-06-2009 21:33:46 17.6 C 54 % 8.19 C
349 08-06-2009 21:45:46 16.7 C 61 % 9.15 C
350 08-06-2009 21:57:46 16.6 C 63 % 9.53 C
Sensor: Nr:Datum:Temp:Feuchte:Taupunkt:
Aussen-T/F 351 08-06-2009 22:09:46 16.4 C 63 % 9.35 C
352 08-06-2009 22:21:46 16.6 C 62 % 9.3 C
353 08-06-2009 22:33:45 16.5 C 61 % 8.96 C
354 08-06-2009 22:46:46 16.4 C 61 % 8.87 C
355 08-06-2009 22:58:46 16.3 C 61 % 8.77 C
356 08-06-2009 23:10:46 16.4 C 61 % 8.87 C
357 08-06-2009 23:22:46 16.4 C 60 % 8.62 C
358 08-06-2009 23:34:46 16.5 C 60 % 8.72 C
359 08-06-2009 23:46:46 16.3 C 64 % 9.48 C
360 08-06-2009 23:58:46 16 C 66 % 9.66 C
361 09-06-2009 00:10:46 15.8 C 70 % 10.34 C
362 09-06-2009 00:22:46 15.4 C 73 % 10.59 C
363 09-06-2009 00:34:46 15.4 C 76 % 11.19 C
364 09-06-2009 00:46:46 15 C 78 % 11.2 C
365 09-06-2009 00:58:46 14.8 C 79 % 11.2 C
366 09-06-2009 01:10:46 14.6 C 81 % 11.38 C
367 09-06-2009 01:22:47 14.5 C 81 % 11.28 C
368 09-06-2009 01:34:47 14.6 C 82 % 11.56 C
369 09-06-2009 01:46:47 14.5 C 83 % 11.65 C
370 09-06-2009 01:58:47 14.6 C 82 % 11.56 C
371 09-06-2009 02:10:47 14.6 C 81 % 11.38 C
372 09-06-2009 02:22:47 14.7 C 81 % 11.48 C
373 09-06-2009 02:34:47 14.6 C 80 % 11.19 C
374 09-06-2009 02:46:47 14.3 C 81 % 11.09 C
375 09-06-2009 02:58:47 14.3 C 81 % 11.09 C
Sensor: Nr:Datum:Temp:Feuchte:Taupunkt:
Aussen-T/F 376 09-06-2009 03:10:47 14.4 C 81 % 11.18 C
377 09-06-2009 03:22:47 14.5 C 81 % 11.28 C
378 09-06-2009 03:34:47 14.5 C 81 % 11.28 C
379 09-06-2009 03:46:47 14.4 C 80 % 11 C
380 09-06-2009 03:58:47 14.4 C 80 % 11 C
381 09-06-2009 04:10:47 14.4 C 80 % 11 C
382 09-06-2009 04:22:47 14.4 C 81 % 11.18 C
383 09-06-2009 04:34:47 14.5 C 80 % 11.09 C
384 09-06-2009 04:46:47 14.6 C 79 % 11 C
385 09-06-2009 04:58:47 14.6 C 79 % 11 C
386 09-06-2009 05:10:48 14.5 C 79 % 10.91 C
387 09-06-2009 05:22:48 14.2 C 81 % 10.99 C
388 09-06-2009 05:34:48 14.1 C 83 % 11.26 C
389 09-06-2009 05:46:48 14 C 84 % 11.34 C
390 09-06-2009 05:58:48 14.1 C 85 % 11.62 C
391 09-06-2009 06:10:48 14 C 86 % 11.7 C
392 09-06-2009 06:22:48 14.1 C 87 % 11.97 C
393 09-06-2009 06:34:48 14.1 C 87 % 11.97 C
394 09-06-2009 06:46:48 14.1 C 87 % 11.97 C
395 09-06-2009 06:58:48 14.2 C 87 % 12.07 C
396 09-06-2009 07:10:48 14.3 C 85 % 11.81 C
397 09-06-2009 07:22:46 14.6 C 84 % 11.93 C
398 09-06-2009 07:34:01 14.8 C 84 % 12.12 C
399 09-06-2009 07:46:01 15 C 83 % 12.14 C
400 09-06-2009 07:58:01 15 C 80 % 11.58 C
Sensor: Nr:Datum:Temp:Feuchte:Taupunkt:
Aussen-T/F 401 09-06-2009 08:10:01 15.2 C 73 % 10.4 C
402 09-06-2009 08:22:01 15.2 C 71 % 9.98 C
403 09-06-2009 08:34:01 15.2 C 70 % 9.77 C
404 09-06-2009 08:46:01 15.3 C 73 % 10.49 C
405 09-06-2009 08:58:01 15.4 C 73 % 10.59 C
406 09-06-2009 09:10:00 15.4 C 73 % 10.59 C
407 09-06-2009 09:22:01 15.5 C 73 % 10.69 C
408 09-06-2009 09:34:00 15.9 C 70 % 10.44 C
409 09-06-2009 09:46:00 16.5 C 68 % 10.58 C
410 09-06-2009 09:58:01 16.8 C 62 % 9.49 C
411 09-06-2009 10:10:00 16.8 C 61 % 9.24 C
412 09-06-2009 10:22:00 16.9 C 60 % 9.09 C
413 09-06-2009 10:34:00 17.7 C 59 % 9.59 C
414 09-06-2009 10:45:59 18.1 C 54 % 8.65 C
415 09-06-2009 10:57:59 18.6 C 51 % 8.27 C
416 09-06-2009 11:10:00 18.5 C 50 % 7.89 C
417 09-06-2009 11:22:59 19.4 C 46 % 7.49 C
418 09-06-2009 11:34:59 20.1 C 43 % 7.14 C
419 09-06-2009 11:46:59 19.9 C 43 % 6.96 C
420 09-06-2009 11:58:59 20.8 C 39 % 6.35 C
421 09-06-2009 12:10:59 21.5 C 37 % 6.21 C
422 09-06-2009 12:22:59 21.9 C 37 % 6.56 C
423 09-06-2009 12:34:58 21.1 C 38 % 6.24 C
424 09-06-2009 12:46:59 22.5 C 35 % 6.29 C
425 09-06-2009 12:58:59 22.9 C 31 % 4.89 C
Sensor: Nr:Datum:Temp:Feuchte:Taupunkt:
Aussen-T/F 426 09-06-2009 13:10:58 23.3 C 31 % 5.24 C
427 09-06-2009 13:22:58 21.5 C 37 % 6.21 C
428 09-06-2009 13:34:58 21.5 C 36 % 5.81 C
429 09-06-2009 13:46:58 23.7 C 30 % 5.11 C
430 09-06-2009 13:58:59 22.3 C 33 % 5.26 C
431 09-06-2009 14:10:57 23.6 C 31 % 5.5 C
432 09-06-2009 14:22:57 24.2 C 30 % 5.54 C
433 09-06-2009 14:34:58 24.9 C 29 % 5.66 C
434 09-06-2009 14:46:01 23.8 C 31 % 5.67 C
435 09-06-2009 14:58:01 21.6 C 41 % 7.79 C
436 09-06-2009 15:10:01 19.3 C 52 % 9.21 C
437 09-06-2009 15:22:01 19.9 C 67 % 13.59 C
438 09-06-2009 15:34:01 21.9 C 56 % 12.73 C
439 09-06-2009 15:46:01 23.2 C 45 % 10.62 C
440 09-06-2009 15:58:01 21.7 C 55 % 12.27 C
441 09-06-2009 16:10:01 22.3 C 46 % 10.13 C
442 09-06-2009 16:22:00 23.9 C 38 % 8.73 C
443 09-06-2009 16:34:00 24.5 C 32 % 6.74 C
444 09-06-2009 16:46:00 24.8 C 30 % 6.06 C
445 09-06-2009 16:58:00 24.9 C 31 % 6.62 C
446 09-06-2009 17:10:00 26.1 C 29 % 6.69 C
447 09-06-2009 17:22:59 25.5 C 31 % 7.14 C
448 09-06-2009 17:34:00 25.3 C 30 % 6.49 C
449 09-06-2009 17:46:00 25.4 C 30 % 6.58 C
450 09-06-2009 17:58:00 24.4 C 32 % 6.65 C
Sensor: Nr:Datum:Temp:Feuchte:Taupunkt:
Aussen-T/F 451 09-06-2009 18:10:59 23.3 C 36 % 7.4 C
452 09-06-2009 18:22:00 21.9 C 40 % 7.7 C
453 09-06-2009 18:34:59 20 C 41 % 6.36 C
454 09-06-2009 18:46:59 19.2 C 45 % 6.99 C
455 09-06-2009 18:58:59 20.5 C 44 % 7.84 C
456 09-06-2009 19:10:59 20.4 C 43 % 7.41 C
457 09-06-2009 19:22:59 19.9 C 46 % 7.95 C
458 09-06-2009 19:34:59 19.7 C 48 % 8.39 C
459 09-06-2009 19:46:58 17.5 C 60 % 9.66 C
460 09-06-2009 19:58:58 16.5 C 72 % 11.44 C
461 09-06-2009 20:10:59 17.9 C 66 % 11.46 C
462 09-06-2009 20:22:58 18.9 C 58 % 10.46 C
463 09-06-2009 20:34:58 19.7 C 53 % 9.86 C
464 09-06-2009 20:46:58 19.3 C 54 % 9.77 C
465 09-06-2009 20:58:58 18.8 C 53 % 9.03 C
466 09-06-2009 21:10:58 18.4 C 56 % 9.47 C
467 09-06-2009 21:22:57 17.9 C 62 % 10.52 C
468 09-06-2009 21:34:58 17.2 C 61 % 9.62 C
469 09-06-2009 21:46:57 16.7 C 64 % 9.86 C
470 09-06-2009 21:58:57 16.3 C 66 % 9.94 C
471 09-06-2009 22:10:57 16 C 68 % 10.1 C
472 09-06-2009 22:23:58 15.7 C 70 % 10.25 C
473 09-06-2009 22:35:58 15.6 C 71 % 10.37 C
474 09-06-2009 22:47:58 15.8 C 69 % 10.13 C
475 09-06-2009 22:59:58 15.6 C 69 % 9.94 C
Sensor: Nr:Datum:Temp:Feuchte:Taupunkt:
Aussen-T/F 476 09-06-2009 23:11:58 15.4 C 71 % 10.17 C
477 09-06-2009 23:23:58 15.2 C 72 % 10.19 C
478 09-06-2009 23:35:58 15 C 72 % 10 C
479 09-06-2009 23:47:58 14.5 C 74 % 9.93 C
480 09-06-2009 23:59:58 14.4 C 75 % 10.03 C
481 10-06-2009 00:11:58 14.4 C 76 % 10.23 C
482 10-06-2009 00:23:58 14 C 75 % 9.64 C
483 10-06-2009 00:35:59 14 C 76 % 9.84 C
484 10-06-2009 00:47:59 13.8 C 78 % 10.03 C
485 10-06-2009 00:59:59 13.8 C 78 % 10.03 C
486 10-06-2009 01:11:59 14 C 77 % 10.04 C
487 10-06-2009 01:23:59 14.4 C 76 % 10.23 C
488 10-06-2009 01:35:59 14.9 C 73 % 10.11 C
489 10-06-2009 01:47:59 15.4 C 68 % 9.53 C
490 10-06-2009 01:59:59 15.6 C 67 % 9.5 C
491 10-06-2009 02:11:59 15.4 C 67 % 9.31 C
492 10-06-2009 02:23:59 15.4 C 67 % 9.31 C
493 10-06-2009 02:35:59 15.5 C 67 % 9.41 C
494 10-06-2009 02:47:59 15.4 C 67 % 9.31 C
495 10-06-2009 02:59:59 15.1 C 68 % 9.24 C
496 10-06-2009 03:11:59 14.9 C 71 % 9.69 C
497 10-06-2009 03:23:59 15 C 70 % 9.58 C
498 10-06-2009 03:35:59 14.8 C 71 % 9.6 C
499 10-06-2009 03:47:59 14.8 C 72 % 9.81 C
500 10-06-2009 03:58:59 14.7 C 72 % 9.71 C
Sensor: Nr:Datum:Temp:Feuchte:Taupunkt:
Aussen-T/F 501 10-06-2009 04:10:59 14.5 C 72 % 9.52 C
502 10-06-2009 04:22:59 14.4 C 73 % 9.63 C
503 10-06-2009 04:35:00 14.4 C 73 % 9.63 C
504 10-06-2009 04:47:00 14.6 C 73 % 9.82 C
505 10-06-2009 04:59:00 14.4 C 73 % 9.63 C
506 10-06-2009 05:11:00 14.4 C 74 % 9.83 C
507 10-06-2009 05:23:00 14.4 C 75 % 10.03 C
508 10-06-2009 05:35:00 14.4 C 75 % 10.03 C
509 10-06-2009 05:47:00 14.4 C 75 % 10.03 C
510 10-06-2009 05:59:00 14.5 C 74 % 9.93 C
511 10-06-2009 06:11:00 14.4 C 74 % 9.83 C
512 10-06-2009 06:23:00 14.5 C 74 % 9.93 C
513 10-06-2009 06:35:00 14.8 C 74 % 10.22 C
514 10-06-2009 06:47:00 14.9 C 73 % 10.11 C
515 10-06-2009 06:59:00 15.1 C 71 % 9.89 C
516 10-06-2009 07:11:59 15.2 C 70 % 9.77 C
517 10-06-2009 07:23:58 15.4 C 70 % 9.96 C
518 10-06-2009 07:35:58 15.6 C 69 % 9.94 C
519 10-06-2009 07:47:58 15.8 C 69 % 10.13 C
520 10-06-2009 07:59:58 16.1 C 67 % 9.98 C
521 10-06-2009 08:11:58 16.2 C 65 % 9.62 C
522 10-06-2009 08:23:57 16.5 C 65 % 9.9 C
523 10-06-2009 08:35:58 16.7 C 64 % 9.86 C
524 10-06-2009 08:47:57 16.8 C 64 % 9.96 C
525 10-06-2009 08:59:57 16.7 C 64 % 9.86 C
Sensor: Nr:Datum:Temp:Feuchte:Taupunkt:
Aussen-T/F 526 10-06-2009 09:11:57 17.1 C 61 % 9.53 C
527 10-06-2009 09:23:58 16.9 C 62 % 9.58 C
528 10-06-2009 09:35:57 16.5 C 65 % 9.9 C
529 10-06-2009 09:47:57 15.6 C 72 % 10.57 C
530 10-06-2009 09:59:57 15.2 C 75 % 10.8 C
531 10-06-2009 10:11:56 14.9 C 79 % 11.29 C
532 10-06-2009 10:23:57 14.6 C 80 % 11.19 C
533 10-06-2009 10:35:56 15 C 81 % 11.77 C
534 10-06-2009 10:47:56 15.3 C 80 % 11.87 C
535 10-06-2009 10:59:57 15.7 C 77 % 11.68 C
536 10-06-2009 11:11:56 16.2 C 74 % 11.56 C
537 10-06-2009 11:23:56 16.9 C 72 % 11.82 C
538 10-06-2009 11:35:56 17.3 C 68 % 11.34 C
539 10-06-2009 11:47:56 18.3 C 63 % 11.14 C
540 10-06-2009 11:59:56 18.4 C 62 % 10.99 C
541 10-06-2009 12:11:56 19 C 58 % 10.56 C
542 10-06-2009 12:23:55 19.9 C 52 % 9.76 C
543 10-06-2009 12:35:55 20.1 C 47 % 8.45 C
544 10-06-2009 12:47:55 20.3 C 45 % 7.99 C
545 10-06-2009 12:59:55 19.4 C 47 % 7.81 C
546 10-06-2009 13:11:55 19.5 C 49 % 8.51 C
547 10-06-2009 13:23:55 22.8 C 38 % 7.75 C
548 10-06-2009 13:35:55 23.4 C 35 % 7.08 C
549 10-06-2009 13:47:55 21.6 C 34 % 5.08 C
550 10-06-2009 13:59:55 22.7 C 33 % 5.61 C
Sensor: Nr:Datum:Temp:Feuchte:Taupunkt:
Aussen-T/F 551 10-06-2009 14:11:54 22.1 C 34 % 5.52 C
552 10-06-2009 14:23:54 22 C 32 % 4.56 C
553 10-06-2009 14:35:54 22 C 34 % 5.43 C
554 10-06-2009 14:47:54 22.3 C 32 % 4.82 C
555 10-06-2009 14:59:55 22.6 C 32 % 5.08 C
556 10-06-2009 15:11:53 22.5 C 29 % 3.6 C
557 10-06-2009 15:23:54 23.5 C 29 % 4.45 C
558 10-06-2009 15:35:54 23.4 C 27 % 3.35 C
559 10-06-2009 15:47:53 23.3 C 26 % 2.74 C
560 10-06-2009 15:59:53 23.5 C 26 % 2.91 C
561 10-06-2009 16:11:54 23.4 C 23 % 1.11 C
562 10-06-2009 16:23:53 22.8 C 25 % 1.77 C
563 10-06-2009 16:35:53 23.1 C 25 % 2.02 C
564 10-06-2009 16:47:53 24.1 C 25 % 2.86 C
565 10-06-2009 16:59:53 23.2 C 25 % 2.1 C
566 10-06-2009 17:11:53 23.2 C 22 % 0.33 C
567 10-06-2009 17:23:53 23.8 C 23 % 1.44 C
568 10-06-2009 17:35:52 22.2 C 25 % 1.26 C
569 10-06-2009 17:47:53 22.3 C 26 % 1.89 C
570 10-06-2009 17:59:53 21.9 C 27 % 2.08 C
571 10-06-2009 18:11:52 21.5 C 29 % 2.74 C
572 10-06-2009 18:23:52 19.4 C 45 % 7.17 C
573 10-06-2009 18:35:52 17.7 C 60 % 9.84 C
574 10-06-2009 18:47:52 18.5 C 57 % 9.83 C
575 10-06-2009 18:59:53 18.7 C 56 % 9.75 C
Sensor: Nr:Datum:Temp:Feuchte:Taupunkt:
Aussen-T/F 576 10-06-2009 19:11:51 18.5 C 55 % 9.3 C
577 10-06-2009 19:23:51 18.4 C 55 % 9.2 C
578 10-06-2009 19:35:52 18.3 C 56 % 9.38 C
579 10-06-2009 19:47:51 17.2 C 61 % 9.62 C
580 10-06-2009 19:59:51 15.8 C 70 % 10.34 C
581 10-06-2009 20:11:51 15.6 C 74 % 10.99 C
582 10-06-2009 20:23:51 15.5 C 72 % 10.48 C
583 10-06-2009 20:35:51 15.6 C 71 % 10.37 C
584 10-06-2009 20:47:50 15.8 C 72 % 10.77 C
585 10-06-2009 20:59:50 15.4 C 73 % 10.59 C
586 10-06-2009 21:11:50 15.5 C 73 % 10.69 C
587 10-06-2009 21:23:51 15.6 C 73 % 10.78 C
588 10-06-2009 21:35:50 15.6 C 70 % 10.15 C
589 10-06-2009 21:47:50 15.8 C 68 % 9.91 C
590 10-06-2009 21:59:50 15.5 C 69 % 9.84 C
591 10-06-2009 22:11:50 14.5 C 79 % 10.91 C
592 10-06-2009 22:24:50 14.3 C 82 % 11.27 C
593 10-06-2009 22:36:50 14.1 C 84 % 11.44 C
594 10-06-2009 22:48:50 14.2 C 85 % 11.72 C
595 10-06-2009 23:00:50 14.2 C 86 % 11.89 C
596 10-06-2009 23:12:51 14.2 C 87 % 12.07 C
597 10-06-2009 23:24:51 14 C 87 % 11.87 C
598 10-06-2009 23:36:51 14.1 C 87 % 11.97 C
599 10-06-2009 23:48:51 14.4 C 85 % 11.91 C
600 11-06-2009 00:00:51 14.5 C 84 % 11.83 C
Sensor: Nr:Datum:Temp:Feuchte:Taupunkt:
Aussen-T/F 601 11-06-2009 00:12:51 14.2 C 83 % 11.36 C
602 11-06-2009 00:24:51 14.2 C 84 % 11.54 C
603 11-06-2009 00:36:51 14.1 C 84 % 11.44 C
604 11-06-2009 00:48:51 14 C 85 % 11.52 C
605 11-06-2009 01:00:51 13.8 C 86 % 11.5 C
606 11-06-2009 01:12:51 13.9 C 87 % 11.77 C
607 11-06-2009 01:24:51 13.9 C 89 % 12.12 C
608 11-06-2009 01:36:51 13.9 C 90 % 12.29 C
609 11-06-2009 01:48:51 13.9 C 91 % 12.46 C
610 11-06-2009 02:00:51 14 C 91 % 12.56 C
611 11-06-2009 02:12:51 13.9 C 92 % 12.62 C
612 11-06-2009 02:24:51 13.9 C 92 % 12.62 C
613 11-06-2009 02:36:51 14 C 92 % 12.72 C
614 11-06-2009 02:48:51 14 C 92 % 12.72 C
615 11-06-2009 03:00:52 14 C 92 % 12.72 C
616 11-06-2009 03:12:52 14.1 C 93 % 12.99 C
617 11-06-2009 03:24:52 14.2 C 93 % 13.08 C
618 11-06-2009 03:36:52 14.2 C 93 % 13.08 C
619 11-06-2009 03:48:52 14 C 93 % 12.89 C
620 11-06-2009 04:00:52 14 C 93 % 12.89 C
621 11-06-2009 04:12:52 14 C 94 % 13.05 C
622 11-06-2009 04:24:52 14 C 94 % 13.05 C
623 11-06-2009 04:36:52 14.1 C 94 % 13.15 C
624 11-06-2009 04:48:52 14.2 C 94 % 13.25 C
625 11-06-2009 05:00:52 14.2 C 94 % 13.25 C
Sensor: Nr:Datum:Temp:Feuchte:Taupunkt:
Aussen-T/F 626 11-06-2009 05:12:52 14.2 C 94 % 13.25 C
627 11-06-2009 05:24:52 14.4 C 93 % 13.28 C
628 11-06-2009 05:36:52 14.6 C 90 % 12.98 C
629 11-06-2009 05:48:52 14.5 C 89 % 12.71 C
630 11-06-2009 06:00:52 14.6 C 89 % 12.81 C
631 11-06-2009 06:12:52 14.2 C 89 % 12.41 C
632 11-06-2009 06:24:52 14.2 C 89 % 12.41 C
633 11-06-2009 06:36:52 14.3 C 89 % 12.51 C
634 11-06-2009 06:48:53 14.4 C 89 % 12.61 C
635 11-06-2009 07:00:53 14.4 C 87 % 12.27 C
636 11-06-2009 07:12:53 14.5 C 87 % 12.36 C
637 11-06-2009 07:24:53 14.5 C 88 % 12.54 C
638 11-06-2009 07:36:53 14.8 C 87 % 12.66 C
639 11-06-2009 07:48:53 14.7 C 82 % 11.66 C
640 11-06-2009 08:00:53 14.7 C 81 % 11.48 C
641 11-06-2009 08:12:53 14.7 C 76 % 10.52 C
642 11-06-2009 08:24:53 14.7 C 76 % 10.52 C
643 11-06-2009 08:36:50 14.8 C 75 % 10.42 C
644 11-06-2009 08:48:49 14.9 C 70 % 9.48 C
645 11-06-2009 09:00:50 15 C 68 % 9.15 C
646 11-06-2009 09:12:50 15 C 65 % 8.48 C
647 11-06-2009 09:24:49 15.3 C 63 % 8.31 C
648 11-06-2009 09:36:49 15.1 C 60 % 7.4 C
649 11-06-2009 09:48:02 15 C 61 % 7.55 C
650 11-06-2009 10:00:02 15 C 61 % 7.55 C
Sensor: Nr:Datum:Temp:Feuchte:Taupunkt:
Aussen-T/F 651 11-06-2009 10:12:01 14.9 C 63 % 7.93 C
652 11-06-2009 10:24:02 15.1 C 61 % 7.64 C
653 11-06-2009 10:36:01 15.5 C 59 % 7.53 C
654 11-06-2009 10:48:01 15.7 C 59 % 7.72 C
655 11-06-2009 11:00:01 15.2 C 62 % 7.98 C
656 11-06-2009 11:12:01 15.3 C 60 % 7.59 C
657 11-06-2009 11:24:01 15.5 C 57 % 7.03 C
658 11-06-2009 11:36:01 15.4 C 55 % 6.42 C
659 11-06-2009 11:48:01 15.3 C 54 % 6.06 C
660 11-06-2009 12:00:01 15.2 C 52 % 5.42 C
661 11-06-2009 12:12:01 15.2 C 51 % 5.14 C
662 11-06-2009 12:24:00 15.3 C 50 % 4.95 C
663 11-06-2009 12:36:00 15.4 C 50 % 5.04 C
664 11-06-2009 12:48:00 15.3 C 51 % 5.23 C
665 11-06-2009 13:00:00 15.2 C 51 % 5.14 C
666 11-06-2009 13:12:00 15.3 C 51 % 5.23 C
667 11-06-2009 13:24:59 15.4 C 53 % 5.88 C
668 11-06-2009 13:36:00 15.2 C 53 % 5.69 C
669 11-06-2009 13:48:59 15.4 C 53 % 5.88 C
670 11-06-2009 14:00:59 15.5 C 58 % 7.28 C
671 11-06-2009 14:12:59 15.8 C 58 % 7.56 C
672 11-06-2009 14:24:00 17.3 C 52 % 7.36 C
673 11-06-2009 14:36:59 16.9 C 49 % 6.13 C
674 11-06-2009 14:48:59 16.2 C 54 % 6.89 C
675 11-06-2009 15:00:58 16.4 C 53 % 6.81 C
Sensor: Nr:Datum:Temp:Feuchte:Taupunkt:
Aussen-T/F 676 11-06-2009 15:12:58 16.3 C 55 % 7.25 C
677 11-06-2009 15:24:59 16.8 C 52 % 6.9 C
678 11-06-2009 15:36:59 16.8 C 51 % 6.62 C
679 11-06-2009 15:48:58 17.5 C 50 % 6.97 C
680 11-06-2009 16:00:59 16.7 C 55 % 7.62 C
681 11-06-2009 16:12:59 16.4 C 58 % 8.12 C
682 11-06-2009 16:24:58 17.3 C 55 % 8.18 C
683 11-06-2009 16:36:58 16.6 C 54 % 7.26 C
684 11-06-2009 16:48:58 16 C 58 % 7.75 C
685 11-06-2009 17:00:58 16.2 C 56 % 7.42 C
686 11-06-2009 17:12:59 16.4 C 56 % 7.61 C
687 11-06-2009 17:24:57 16.4 C 60 % 8.62 C
688 11-06-2009 17:36:57 18.3 C 55 % 9.11 C
689 11-06-2009 17:48:57 17.5 C 54 % 8.1 C
690 11-06-2009 18:00:57 16 C 61 % 8.49 C
691 11-06-2009 18:12:57 14.4 C 73 % 9.63 C
692 11-06-2009 18:24:57 13.2 C 80 % 9.83 C
693 11-06-2009 18:36:57 13.3 C 84 % 10.66 C
694 11-06-2009 18:48:57 14.2 C 85 % 11.72 C
695 11-06-2009 19:00:56 14.2 C 85 % 11.72 C
696 11-06-2009 19:12:56 15.3 C 83 % 12.43 C
697 11-06-2009 19:24:56 16 C 77 % 11.97 C
698 11-06-2009 19:36:57 16 C 78 % 12.17 C
699 11-06-2009 19:48:56 14.9 C 79 % 11.29 C
700 11-06-2009 20:00:07 14.4 C 80 % 11 C
Sensor: Nr:Datum:Temp:Feuchte:Taupunkt:
Aussen-T/F 701 11-06-2009 20:12:07 13.4 C 83 % 10.57 C
702 11-06-2009 20:24:07 11.9 C 82 % 8.93 C
703 11-06-2009 20:36:07 11.9 C 83 % 9.11 C
704 11-06-2009 20:48:56 12.3 C 82 % 9.32 C
705 11-06-2009 21:00:56 12.5 C 82 % 9.51 C
706 11-06-2009 21:12:56 12.5 C 80 % 9.15 C
707 11-06-2009 21:24:56 12.6 C 80 % 9.25 C
708 11-06-2009 21:36:56 12.5 C 80 % 9.15 C
709 11-06-2009 21:48:56 12.3 C 81 % 9.14 C
710 11-06-2009 22:01:57 12.3 C 81 % 9.14 C
711 11-06-2009 22:13:57 12.4 C 81 % 9.23 C
712 11-06-2009 22:25:57 12.4 C 80 % 9.05 C
713 11-06-2009 22:37:57 12.5 C 79 % 8.96 C
714 11-06-2009 22:49:57 12.4 C 80 % 9.05 C
715 11-06-2009 23:01:57 12.4 C 80 % 9.05 C
716 11-06-2009 23:13:57 12.4 C 79 % 8.86 C
717 11-06-2009 23:25:57 12.1 C 79 % 8.57 C
718 11-06-2009 23:37:58 12 C 79 % 8.48 C
719 11-06-2009 23:49:58 12 C 78 % 8.29 C
720 12-06-2009 00:01:58 11.5 C 79 % 7.99 C
721 12-06-2009 00:13:58 11.4 C 79 % 7.89 C
722 12-06-2009 00:25:58 11.3 C 79 % 7.8 C
723 12-06-2009 00:37:58 11.5 C 79 % 7.99 C
724 12-06-2009 00:49:58 11.7 C 78 % 8 C
725 12-06-2009 01:01:58 11.6 C 79 % 8.09 C
Sensor: Nr:Datum:Temp:Feuchte:Taupunkt:
Aussen-T/F 726 12-06-2009 01:13:58 11.1 C 82 % 8.15 C
727 12-06-2009 01:25:58 10.8 C 85 % 8.38 C
728 12-06-2009 01:37:58 10.6 C 87 % 8.53 C
729 12-06-2009 01:49:58 10.5 C 88 % 8.6 C
730 12-06-2009 02:01:58 10.4 C 89 % 8.67 C
731 12-06-2009 02:13:58 10.3 C 89 % 8.57 C
732 12-06-2009 02:25:58 10.4 C 88 % 8.5 C
733 12-06-2009 02:37:58 10.3 C 86 % 8.06 C
734 12-06-2009 02:49:58 10.3 C 85 % 7.89 C
735 12-06-2009 03:01:58 10.4 C 84 % 7.82 C
736 12-06-2009 03:13:58 10.4 C 83 % 7.64 C
737 12-06-2009 03:25:59 10.2 C 83 % 7.45 C
738 12-06-2009 03:37:59 10 C 84 % 7.43 C
739 12-06-2009 03:49:59 9.9 C 85 % 7.5 C
740 12-06-2009 04:01:59 9.9 C 86 % 7.67 C
741 12-06-2009 04:13:59 10 C 85 % 7.6 C
742 12-06-2009 04:25:59 9.8 C 87 % 7.74 C
743 12-06-2009 04:37:59 9.6 C 87 % 7.55 C
744 12-06-2009 04:49:59 9.4 C 88 % 7.52 C
745 12-06-2009 05:01:59 9.5 C 89 % 7.78 C
746 12-06-2009 05:13:59 9.6 C 88 % 7.71 C
747 12-06-2009 05:25:59 9.2 C 88 % 7.32 C
748 12-06-2009 05:37:59 9.1 C 87 % 7.05 C
749 12-06-2009 05:49:59 9.1 C 87 % 7.05 C
750 12-06-2009 06:01:59 9.2 C 87 % 7.15 C
Sensor: Nr:Datum:Temp:Feuchte:Taupunkt:
Aussen-T/F 751 12-06-2009 06:13:59 9.1 C 87 % 7.05 C
752 12-06-2009 06:25:58 9.1 C 87 % 7.05 C
753 12-06-2009 06:37:57 9.2 C 87 % 7.15 C
754 12-06-2009 06:49:57 9.3 C 87 % 7.25 C
755 12-06-2009 07:01:57 9.7 C 85 % 7.3 C
756 12-06-2009 07:13:57 10 C 81 % 6.89 C
757 12-06-2009 07:25:57 10.1 C 80 % 6.81 C
758 12-06-2009 07:37:56 10.2 C 79 % 6.73 C
759 12-06-2009 07:49:56 10.4 C 79 % 6.92 C
760 12-06-2009 08:01:57 10.5 C 78 % 6.83 C
761 12-06-2009 08:13:57 10.8 C 78 % 7.12 C
762 12-06-2009 08:25:56 11 C 75 % 6.75 C
763 12-06-2009 08:37:56 11.2 C 74 % 6.74 C
764 12-06-2009 08:49:56 11.7 C 74 % 7.23 C
765 12-06-2009 09:01:56 12.1 C 73 % 7.41 C
766 12-06-2009 09:13:56 12.4 C 72 % 7.5 C
767 12-06-2009 09:25:56 12.9 C 72 % 7.98 C
768 12-06-2009 09:37:56 13.4 C 70 % 8.05 C
769 12-06-2009 09:49:55 14.1 C 66 % 7.85 C
770 12-06-2009 10:01:55 15.4 C 63 % 8.4 C
771 12-06-2009 10:13:55 16.9 C 56 % 8.07 C
772 12-06-2009 10:25:55 17.3 C 51 % 7.08 C
773 12-06-2009 10:37:55 17.5 C 48 % 6.38 C
774 12-06-2009 10:49:54 17.2 C 46 % 5.49 C
775 12-06-2009 11:01:55 16.8 C 46 % 5.13 C
Sensor: Nr:Datum:Temp:Feuchte:Taupunkt:
Aussen-T/F 776 12-06-2009 11:13:55 17.1 C 42 % 4.1 C
777 12-06-2009 11:25:55 17.9 C 36 % 2.63 C
778 12-06-2009 11:37:54 18.3 C 35 % 2.59 C
779 12-06-2009 11:49:55 18.7 C 35 % 2.94 C
780 12-06-2009 12:01:54 18.9 C 34 % 2.71 C
781 12-06-2009 12:13:54 17.4 C 40 % 3.68 C
782 12-06-2009 12:25:54 18.5 C 37 % 3.55 C
783 12-06-2009 12:37:53 20.4 C 30 % 2.26 C
784 12-06-2009 12:49:54 20.7 C 26 % 0.53 C
785 12-06-2009 13:01:53 18.1 C 33 % 1.59 C
786 12-06-2009 13:13:53 20.9 C 31 % 3.16 C
787 12-06-2009 13:25:53 23.3 C 22 % 0.41 C
788 12-06-2009 13:37:54 21.8 C 29 % 2.99 C
789 12-06-2009 13:49:53 20.6 C 30 % 2.44 C
790 12-06-2009 14:01:53 21 C 27 % 1.31 C
791 12-06-2009 14:13:53 21.2 C 25 % 0.41 C
792 12-06-2009 14:25:53 21.3 C 26 % 1.04 C
793 12-06-2009 14:37:53 21.3 C 28 % 2.07 C
794 12-06-2009 14:49:52 21 C 27 % 1.31 C
795 12-06-2009 15:01:52 20.7 C 31 % 2.98 C
796 12-06-2009 15:13:52 21.8 C 29 % 2.99 C
797 12-06-2009 15:25:52 21.6 C 27 % 1.82 C
798 12-06-2009 15:37:52 21.6 C 28 % 2.33 C
799 12-06-2009 15:49:52 21.5 C 28 % 2.24 C
800 12-06-2009 16:01:52 21.7 C 28 % 2.41 C
Sensor: Nr:Datum:Temp:Feuchte:Taupunkt:
Aussen-T/F 801 12-06-2009 16:13:52 21.4 C 28 % 2.16 C
802 12-06-2009 16:25:52 22.2 C 27 % 2.33 C
803 12-06-2009 16:37:51 23.1 C 26 % 2.57 C
804 12-06-2009 16:49:52 23.6 C 25 % 2.44 C
805 12-06-2009 17:01:51 22.7 C 25 % 1.68 C
806 12-06-2009 17:13:51 22.2 C 25 % 1.26 C
807 12-06-2009 17:25:51 21.6 C 27 % 1.82 C
808 12-06-2009 17:37:51 23 C 23 % 0.78 C
809 12-06-2009 17:49:51 22.7 C 25 % 1.68 C
810 12-06-2009 18:01:51 22.2 C 25 % 1.26 C
811 12-06-2009 18:13:51 21.8 C 26 % 1.46 C
812 12-06-2009 18:25:50 22.7 C 25 % 1.68 C
813 12-06-2009 18:37:51 22 C 26 % 1.63 C
814 12-06-2009 18:49:50 22.7 C 25 % 1.68 C
815 12-06-2009 19:01:50 22.7 C 25 % 1.68 C
816 12-06-2009 19:13:50 22.9 C 25 % 1.85 C
817 12-06-2009 19:25:50 23.1 C 25 % 2.02 C
818 12-06-2009 19:37:50 22.9 C 25 % 1.85 C
819 12-06-2009 19:49:49 22.1 C 25 % 1.17 C
820 12-06-2009 20:01:50 21.5 C 26 % 1.21 C
821 12-06-2009 20:13:50 21.5 C 27 % 1.73 C
822 12-06-2009 20:25:50 20.4 C 30 % 2.26 C
823 12-06-2009 20:37:49 20.2 C 30 % 2.09 C
824 12-06-2009 20:49:50 20 C 30 % 1.92 C
825 12-06-2009 21:01:48 19.7 C 32 % 2.56 C
Sensor: Nr:Datum:Temp:Feuchte:Taupunkt:
Aussen-T/F 826 12-06-2009 21:13:48 19 C 34 % 2.8 C
827 12-06-2009 21:25:49 18.2 C 34 % 2.1 C
828 12-06-2009 21:37:49 17.8 C 36 % 2.55 C
829 12-06-2009 21:49:48 17.3 C 37 % 2.49 C
830 12-06-2009 22:01:49 16.8 C 38 % 2.42 C
831 12-06-2009 22:13:49 16.5 C 39 % 2.51 C
832 12-06-2009 22:26:50 16.2 C 40 % 2.6 C
833 12-06-2009 22:38:50 15.8 C 41 % 2.59 C
834 12-06-2009 22:50:50 15.5 C 45 % 3.63 C
835 12-06-2009 23:02:50 15 C 47 % 3.79 C
836 12-06-2009 23:14:50 14.6 C 49 % 4.02 C
837 12-06-2009 23:26:50 14.3 C 51 % 4.31 C
838 12-06-2009 23:38:50 13.9 C 55 % 5.02 C
839 12-06-2009 23:50:50 13.4 C 57 % 5.07 C
840 13-06-2009 00:02:50 13.2 C 59 % 5.37 C
841 13-06-2009 00:14:50 13 C 60 % 5.43 C
842 13-06-2009 00:26:50 12.7 C 63 % 5.85 C
843 13-06-2009 00:38:50 12.4 C 63 % 5.56 C
844 13-06-2009 00:50:50 12.2 C 63 % 5.37 C
845 13-06-2009 01:02:50 12.1 C 64 % 5.51 C
846 13-06-2009 01:14:50 11.8 C 66 % 5.66 C
847 13-06-2009 01:26:50 11.5 C 67 % 5.59 C
848 13-06-2009 01:38:50 11.3 C 67 % 5.4 C
849 13-06-2009 01:50:51 11.1 C 66 % 5 C
850 13-06-2009 02:02:51 10.9 C 68 % 5.23 C
Sensor: Nr:Datum:Temp:Feuchte:Taupunkt:
Aussen-T/F 851 13-06-2009 02:14:51 10.7 C 69 % 5.25 C
852 13-06-2009 02:26:51 10.6 C 70 % 5.36 C
853 13-06-2009 02:38:51 10.3 C 72 % 5.48 C
854 13-06-2009 02:50:51 10.2 C 72 % 5.39 C
855 13-06-2009 03:02:51 9.9 C 74 % 5.49 C
856 13-06-2009 03:14:51 9.7 C 75 % 5.49 C
857 13-06-2009 03:26:51 9.5 C 76 % 5.49 C
858 13-06-2009 03:38:51 9.5 C 76 % 5.49 C
859 13-06-2009 03:50:51 9.2 C 78 % 5.57 C
860 13-06-2009 04:02:51 9 C 78 % 5.38 C
861 13-06-2009 04:14:51 8.9 C 80 % 5.64 C
862 13-06-2009 04:26:51 8.7 C 80 % 5.45 C
863 13-06-2009 04:38:51 8.6 C 80 % 5.35 C
864 13-06-2009 04:50:51 8.5 C 80 % 5.25 C
865 13-06-2009 05:02:51 8.4 C 80 % 5.16 C
866 13-06-2009 05:14:51 8.3 C 79 % 4.88 C
867 13-06-2009 05:26:51 8.2 C 80 % 4.96 C
868 13-06-2009 05:38:51 8.1 C 80 % 4.86 C
869 13-06-2009 05:50:51 8.1 C 81 % 5.04 C
870 13-06-2009 06:02:49 8.2 C 81 % 5.14 C
871 13-06-2009 06:14:50 8.3 C 82 % 5.41 C
872 13-06-2009 06:26:51 8.2 C 83 % 5.49 C
873 13-06-2009 06:38:49 8.4 C 83 % 5.69 C
874 13-06-2009 06:50:49 8.4 C 83 % 5.69 C
875 13-06-2009 07:02:49 8.6 C 83 % 5.88 C
Sensor: Nr:Datum:Temp:Feuchte:Taupunkt:
Aussen-T/F 876 13-06-2009 07:14:49 8.7 C 83 % 5.98 C
877 13-06-2009 07:26:49 8.8 C 82 % 5.9 C
878 13-06-2009 07:38:49 9.1 C 81 % 6.02 C
879 13-06-2009 07:50:49 9.3 C 80 % 6.03 C
880 13-06-2009 08:02:49 9.7 C 80 % 6.42 C
881 13-06-2009 08:14:48 10 C 75 % 5.78 C
882 13-06-2009 08:26:48 10.2 C 73 % 5.58 C
883 13-06-2009 08:38:48 10.6 C 73 % 5.97 C
884 13-06-2009 08:50:48 11.7 C 69 % 6.21 C
885 13-06-2009 09:02:47 12.5 C 64 % 5.88 C
886 13-06-2009 09:14:48 13.3 C 62 % 6.18 C
887 13-06-2009 09:26:48 14 C 58 % 5.88 C
888 13-06-2009 09:38:48 14.6 C 56 % 5.93 C
889 13-06-2009 09:50:47 15.2 C 54 % 5.96 C
890 13-06-2009 10:02:48 15.4 C 53 % 5.88 C
891 13-06-2009 10:14:47 15.7 C 52 % 5.88 C
892 13-06-2009 10:26:47 16.8 C 51 % 6.62 C
893 13-06-2009 10:38:47 17.3 C 46 % 5.58 C
894 13-06-2009 10:50:47 18.4 C 43 % 5.61 C
895 13-06-2009 11:02:47 18.9 C 42 % 5.72 C
896 13-06-2009 11:14:47 19.6 C 40 % 5.64 C
897 13-06-2009 11:26:47 19.9 C 37 % 4.79 C
898 13-06-2009 11:38:46 20.9 C 37 % 5.68 C
899 13-06-2009 11:50:47 20.4 C 35 % 4.44 C
900 13-06-2009 12:02:46 21.6 C 31 % 3.76 C
Sensor: Nr:Datum:Temp:Feuchte:Taupunkt:
Aussen-T/F 901 13-06-2009 12:14:46 21.3 C 31 % 3.5 C
902 13-06-2009 12:26:46 23.6 C 30 % 5.03 C
903 13-06-2009 12:38:46 24.2 C 28 % 4.55 C
904 13-06-2009 12:50:46 24.4 C 26 % 3.67 C
905 13-06-2009 13:02:45 25.3 C 26 % 4.43 C
906 13-06-2009 13:14:45 25 C 25 % 3.62 C
907 13-06-2009 13:26:45 25.5 C 24 % 3.47 C
908 13-06-2009 13:38:46 26.6 C 22 % 3.15 C
909 13-06-2009 13:50:45 27.1 C 22 % 3.57 C
910 13-06-2009 14:02:45 26.9 C 21 % 2.75 C
911 13-06-2009 14:14:45 25 C 25 % 3.62 C
912 13-06-2009 14:26:45 25.4 C 26 % 4.52 C
913 13-06-2009 14:38:45 25.4 C 26 % 4.52 C
914 13-06-2009 14:50:45 26.5 C 26 % 5.45 C
915 13-06-2009 15:02:44 25.8 C 25 % 4.3 C
916 13-06-2009 15:14:44 26 C 26 % 5.03 C
917 13-06-2009 15:26:44 26.7 C 25 % 5.06 C
918 13-06-2009 15:38:44 28.1 C 23 % 5.03 C
919 13-06-2009 15:50:44 28.8 C 22 % 4.98 C
920 13-06-2009 16:02:44 28.2 C 22 % 4.48 C
921 13-06-2009 16:14:44 28.4 C 22 % 4.65 C
922 13-06-2009 16:26:44 27.5 C 22 % 3.9 C
923 13-06-2009 16:38:44 27.9 C 25 % 6.07 C
924 13-06-2009 16:50:43 29.9 C 21 % 5.22 C
925 13-06-2009 17:02:44 30.5 C 20 % 5.01 C
Sensor: Nr:Datum:Temp:Feuchte:Taupunkt:
Aussen-T/F 926 13-06-2009 17:14:43 30.9 C 20 % 5.34 C
927 13-06-2009 17:26:43 30.1 C 20 % 4.69 C
928 13-06-2009 17:38:43 29.8 C 20 % 4.44 C
929 13-06-2009 17:50:43 28.8 C 22 % 4.98 C
930 13-06-2009 18:02:43 27.9 C 23 % 4.87 C
931 13-06-2009 18:14:43 28 C 22 % 4.32 C
932 13-06-2009 18:26:43 27.3 C 23 % 4.37 C
933 13-06-2009 18:38:42 27.5 C 23 % 4.53 C
934 13-06-2009 18:50:43 27.4 C 23 % 4.45 C
935 13-06-2009 19:02:42 27 C 24 % 4.72 C
936 13-06-2009 19:14:42 27.8 C 23 % 4.78 C
937 13-06-2009 19:26:42 27.7 C 24 % 5.31 C
938 13-06-2009 19:38:42 27.6 C 24 % 5.23 C
939 13-06-2009 19:50:42 26.9 C 25 % 5.22 C
940 13-06-2009 20:02:41 26.8 C 25 % 5.14 C
941 13-06-2009 20:14:42 26.1 C 26 % 5.11 C
942 13-06-2009 20:26:42 26.1 C 26 % 5.11 C
943 13-06-2009 20:38:42 25.5 C 28 % 5.67 C
944 13-06-2009 20:50:41 24.6 C 32 % 6.82 C
945 13-06-2009 21:02:42 23.7 C 36 % 7.75 C
946 13-06-2009 21:14:41 22.7 C 39 % 8.04 C
947 13-06-2009 21:26:41 21.6 C 40 % 7.43 C
948 13-06-2009 21:38:41 20.7 C 42 % 7.34 C
949 13-06-2009 21:50:40 19.8 C 44 % 7.21 C
950 13-06-2009 22:02:41 19.5 C 46 % 7.58 C
Sensor: Nr:Datum:Temp:Feuchte:Taupunkt:
Aussen-T/F 951 13-06-2009 22:14:40 19.1 C 46 % 7.22 C
952 13-06-2009 22:26:40 19.1 C 46 % 7.22 C
953 13-06-2009 22:38:41 18.9 C 46 % 7.04 C
954 13-06-2009 22:51:41 18.6 C 48 % 7.39 C
955 13-06-2009 23:03:41 18.2 C 48 % 7.02 C
956 13-06-2009 23:15:41 18.1 C 49 % 7.23 C
957 13-06-2009 23:27:41 17.9 C 51 % 7.63 C
958 13-06-2009 23:39:41 17.3 C 51 % 7.08 C
959 13-06-2009 23:51:41 17 C 52 % 7.08 C
960 14-06-2009 00:03:41 16.8 C 54 % 7.45 C
961 14-06-2009 00:15:41 16.5 C 55 % 7.44 C
962 14-06-2009 00:27:41 16.3 C 56 % 7.52 C
963 14-06-2009 00:39:41 16 C 59 % 8 C
964 14-06-2009 00:51:41 15.6 C 61 % 8.11 C
965 14-06-2009 01:03:41 15.6 C 60 % 7.87 C
966 14-06-2009 01:15:41 15.4 C 60 % 7.68 C
967 14-06-2009 01:27:41 15.2 C 60 % 7.5 C
968 14-06-2009 01:39:41 15 C 63 % 8.02 C
969 14-06-2009 01:51:41 14.8 C 64 % 8.06 C
970 14-06-2009 02:03:41 14.7 C 65 % 8.2 C
971 14-06-2009 02:15:41 14.6 C 66 % 8.33 C
972 14-06-2009 02:27:42 14.3 C 67 % 8.26 C
973 14-06-2009 02:39:42 14.1 C 69 % 8.5 C
974 14-06-2009 02:51:42 14 C 70 % 8.62 C
975 14-06-2009 03:03:42 13.9 C 71 % 8.73 C
Sensor: Nr:Datum:Temp:Feuchte:Taupunkt:
Aussen-T/F 976 14-06-2009 03:15:42 13.6 C 71 % 8.45 C
977 14-06-2009 03:27:42 13.6 C 71 % 8.45 C
978 14-06-2009 03:39:42 13.4 C 72 % 8.46 C
979 14-06-2009 03:51:42 13.4 C 72 % 8.46 C
980 14-06-2009 04:03:42 13.1 C 72 % 8.17 C
981 14-06-2009 04:15:42 12.9 C 73 % 8.18 C
982 14-06-2009 04:27:42 12.8 C 74 % 8.29 C
983 14-06-2009 04:39:42 12.7 C 75 % 8.39 C
984 14-06-2009 04:51:42 12.5 C 75 % 8.19 C
985 14-06-2009 05:03:42 12.4 C 76 % 8.29 C
986 14-06-2009 05:15:42 12.2 C 76 % 8.1 C
987 14-06-2009 05:27:42 12.2 C 77 % 8.29 C
988 14-06-2009 05:39:42 12.1 C 77 % 8.2 C
989 14-06-2009 05:51:42 12 C 78 % 8.29 C
990 14-06-2009 06:03:42 12 C 78 % 8.29 C
991 14-06-2009 06:15:43 12.4 C 78 % 8.68 C
992 14-06-2009 06:27:43 12.8 C 77 % 8.87 C
993 14-06-2009 06:39:43 13 C 76 % 8.87 C
994 14-06-2009 06:51:43 13.2 C 75 % 8.87 C
995 14-06-2009 07:03:43 13 C 75 % 8.68 C
996 14-06-2009 07:15:43 13 C 76 % 8.87 C
997 14-06-2009 07:27:43 13.1 C 76 % 8.97 C
998 14-06-2009 07:39:43 13.4 C 75 % 9.06 C
999 14-06-2009 07:51:43 13.4 C 75 % 9.06 C
1000 14-06-2009 08:03:41 13.6 C 74 % 9.06 C
Sensor: Nr:Datum:Temp:Feuchte:Taupunkt:
Aussen-T/F 1001 14-06-2009 08:15:41 13.6 C 74 % 9.06 C
1002 14-06-2009 08:27:41 13.8 C 72 % 8.85 C
1003 14-06-2009 08:39:41 14.2 C 70 % 8.81 C
1004 14-06-2009 08:51:40 14.8 C 70 % 9.39 C
1005 14-06-2009 09:03:41 15.3 C 68 % 9.43 C
1006 14-06-2009 09:15:41 15.9 C 66 % 9.56 C
1007 14-06-2009 09:27:41 16.7 C 65 % 10.09 C
1008 14-06-2009 09:39:41 17.6 C 62 % 10.24 C
1009 14-06-2009 09:51:40 18.3 C 58 % 9.9 C
1010 14-06-2009 10:03:40 19.4 C 56 % 10.4 C
1011 14-06-2009 10:15:40 20.1 C 53 % 10.23 C
1012 14-06-2009 10:27:40 20.8 C 50 % 10 C
1013 14-06-2009 10:39:39 21.6 C 46 % 9.49 C
1014 14-06-2009 10:51:40 21.7 C 44 % 8.92 C
1015 14-06-2009 11:03:39 22.5 C 42 % 8.96 C
1016 14-06-2009 11:15:39 23.7 C 41 % 9.68 C
1017 14-06-2009 11:27:39 24.8 C 39 % 9.91 C
1018 14-06-2009 11:39:40 25.5 C 36 % 9.34 C
1019 14-06-2009 11:51:39 26.1 C 31 % 7.66 C
1020 14-06-2009 12:03:39 26.8 C 30 % 7.78 C
1021 14-06-2009 12:15:39 26.4 C 29 % 6.94 C
1022 14-06-2009 12:27:39 27 C 30 % 7.96 C
1023 14-06-2009 12:39:39 26.1 C 29 % 6.69 C
1024 14-06-2009 12:51:38 27.9 C 27 % 7.18 C
1025 14-06-2009 13:03:39 27.5 C 27 % 6.84 C
Sensor: Nr:Datum:Temp:Feuchte:Taupunkt:
Aussen-T/F 1026 14-06-2009 13:15:38 28.3 C 27 % 7.52 C
1027 14-06-2009 13:27:38 28.2 C 27 % 7.44 C
1028 14-06-2009 13:39:38 28.2 C 27 % 7.44 C
1029 14-06-2009 13:51:37 27.8 C 26 % 6.55 C
1030 14-06-2009 14:03:38 28.7 C 27 % 7.86 C
1031 14-06-2009 14:15:38 28.9 C 27 % 8.03 C
1032 14-06-2009 14:27:38 28.3 C 28 % 8.06 C
1033 14-06-2009 14:39:37 28.6 C 27 % 7.78 C
1034 14-06-2009 14:51:38 28.6 C 27 % 7.78 C
1035 14-06-2009 15:03:37 29.1 C 26 % 7.65 C
1036 14-06-2009 15:15:37 29.6 C 25 % 7.5 C
1037 14-06-2009 15:27:37 29.6 C 25 % 7.5 C
1038 14-06-2009 15:39:36 30.2 C 25 % 8 C
1039 14-06-2009 15:51:37 30.3 C 23 % 6.87 C
1040 14-06-2009 16:03:36 30.4 C 23 % 6.95 C
1041 14-06-2009 16:15:36 30.3 C 23 % 6.87 C
1042 14-06-2009 16:27:36 30.9 C 22 % 6.72 C
1043 14-06-2009 16:39:37 31.5 C 22 % 7.22 C
1044 14-06-2009 16:51:36 30.8 C 21 % 5.96 C
1045 14-06-2009 17:03:36 31.2 C 20 % 5.59 C
1046 14-06-2009 17:15:36 31 C 21 % 6.13 C
1047 14-06-2009 17:27:36 31.2 C 20 % 5.59 C
1048 14-06-2009 17:39:36 30.7 C 23 % 7.2 C
1049 14-06-2009 17:51:35 26.2 C 36 % 9.96 C
1050 14-06-2009 18:03:36 24.8 C 47 % 12.73 C
Sensor: Nr:Datum:Temp:Feuchte:Taupunkt:
Aussen-T/F 1051 14-06-2009 18:15:35 26.4 C 39 % 11.34 C
1052 14-06-2009 18:27:35 27.9 C 37 % 11.87 C
1053 14-06-2009 18:39:35 27.2 C 37 % 11.25 C
1054 14-06-2009 18:51:35 25.1 C 47 % 13 C
1055 14-06-2009 19:03:35 24.6 C 53 % 14.39 C
1056 14-06-2009 19:15:35 22.4 C 71 % 16.88 C
1057 14-06-2009 19:27:35 22 C 81 % 18.59 C
1058 14-06-2009 19:39:34 22.4 C 81 % 18.98 C
1059 14-06-2009 19:51:35 22.3 C 79 % 18.48 C
1060 14-06-2009 20:03:34 21.8 C 78 % 17.79 C
1061 14-06-2009 20:15:34 21.6 C 78 % 17.6 C
1062 14-06-2009 20:27:34 21.2 C 77 % 17.01 C
1063 14-06-2009 20:39:34 20.7 C 80 % 17.13 C
1064 14-06-2009 20:51:34 20.6 C 83 % 17.61 C
1065 14-06-2009 21:03:34 20.4 C 84 % 17.61 C
1066 14-06-2009 21:15:33 20.4 C 85 % 17.79 C
1067 14-06-2009 21:27:33 20.4 C 85 % 17.79 C
1068 14-06-2009 21:39:33 20.1 C 85 % 17.5 C
1069 14-06-2009 21:51:33 20 C 84 % 17.21 C
1070 14-06-2009 22:03:33 19.9 C 84 % 17.12 C
1071 14-06-2009 22:16:34 19.8 C 83 % 16.83 C
1072 14-06-2009 22:28:34 19.8 C 83 % 16.83 C
1073 14-06-2009 22:40:34 19.8 C 83 % 16.83 C
1074 14-06-2009 22:52:34 19.7 C 82 % 16.54 C
1075 14-06-2009 23:04:34 19.1 C 83 % 16.15 C
Sensor: Nr:Datum:Temp:Feuchte:Taupunkt:
Aussen-T/F 1076 14-06-2009 23:16:34 18.9 C 85 % 16.32 C
1077 14-06-2009 23:28:34 18.7 C 86 % 16.31 C
1078 14-06-2009 23:40:34 18.7 C 87 % 16.49 C
1079 14-06-2009 23:52:34 18.5 C 86 % 16.11 C
1080 15-06-2009 00:04:34 18.4 C 86 % 16.02 C
1081 15-06-2009 00:16:34 18.3 C 86 % 15.92 C
1082 15-06-2009 00:28:34 18.2 C 86 % 15.82 C
1083 15-06-2009 00:40:34 18.3 C 87 % 16.1 C
1084 15-06-2009 00:52:34 18.3 C 86 % 15.92 C
1085 15-06-2009 01:04:34 17.9 C 86 % 15.53 C
1086 15-06-2009 01:16:34 17.7 C 86 % 15.33 C
1087 15-06-2009 01:28:34 17.5 C 86 % 15.13 C
1088 15-06-2009 01:40:35 17.3 C 86 % 14.94 C
1089 15-06-2009 01:52:35 17.3 C 87 % 15.12 C
1090 15-06-2009 02:04:35 17.2 C 87 % 15.02 C
1091 15-06-2009 02:16:35 17.1 C 87 % 14.92 C
1092 15-06-2009 02:28:35 17 C 87 % 14.82 C
1093 15-06-2009 02:40:35 16.9 C 87 % 14.72 C
1094 15-06-2009 02:52:35 16.9 C 87 % 14.72 C
1095 15-06-2009 03:04:35 17 C 87 % 14.82 C
1096 15-06-2009 03:16:35 17.1 C 87 % 14.92 C
1097 15-06-2009 03:28:35 17.1 C 87 % 14.92 C
1098 15-06-2009 03:40:35 17.2 C 86 % 14.84 C
1099 15-06-2009 03:52:35 17 C 85 % 14.46 C
1100 15-06-2009 04:04:35 16.8 C 86 % 14.45 C
Sensor: Nr:Datum:Temp:Feuchte:Taupunkt:
Aussen-T/F 1101 15-06-2009 04:16:35 16.8 C 87 % 14.62 C
1102 15-06-2009 04:28:35 16.6 C 87 % 14.43 C
1103 15-06-2009 04:40:35 16.4 C 87 % 14.23 C
1104 15-06-2009 04:52:35 16.3 C 87 % 14.13 C
1105 15-06-2009 05:04:35 16.3 C 88 % 14.31 C
1106 15-06-2009 05:16:35 16.4 C 89 % 14.58 C
1107 15-06-2009 05:28:36 16.5 C 89 % 14.68 C
1108 15-06-2009 05:40:36 16.6 C 89 % 14.78 C
1109 15-06-2009 05:52:36 16.6 C 89 % 14.78 C
1110 15-06-2009 06:04:36 16.8 C 88 % 14.8 C
1111 15-06-2009 06:16:36 16.5 C 88 % 14.51 C
1112 15-06-2009 06:28:36 16.8 C 88 % 14.8 C
1113 15-06-2009 06:40:36 16.9 C 87 % 14.72 C
1114 15-06-2009 06:52:36 17 C 86 % 14.64 C
1115 15-06-2009 07:04:36 17.2 C 85 % 14.66 C
1116 15-06-2009 07:16:34 16.8 C 86 % 14.45 C
1117 15-06-2009 07:28:34 17 C 85 % 14.46 C
1118 15-06-2009 07:40:34 17.3 C 85 % 14.76 C
1119 15-06-2009 07:52:33 17.5 C 84 % 14.77 C
1120 15-06-2009 08:04:34 17.8 C 84 % 15.06 C
1121 15-06-2009 08:16:33 17.8 C 84 % 15.06 C
1122 15-06-2009 08:28:33 17.9 C 85 % 15.34 C
1123 15-06-2009 08:40:33 18 C 84 % 15.26 C
1124 15-06-2009 08:52:33 18.1 C 84 % 15.35 C
1125 15-06-2009 09:04:32 18.5 C 83 % 15.56 C
Sensor: Nr:Datum:Temp:Feuchte:Taupunkt:
Aussen-T/F 1126 15-06-2009 09:16:33 18.5 C 82 % 15.37 C
1127 15-06-2009 09:28:34 18.5 C 81 % 15.18 C
1128 15-06-2009 09:40:32 18.5 C 81 % 15.18 C
1129 15-06-2009 09:52:32 18.3 C 81 % 14.98 C
1130 15-06-2009 10:04:32 18 C 81 % 14.69 C
1131 15-06-2009 10:16:32 17.9 C 84 % 15.16 C
1132 15-06-2009 10:28:32 17.9 C 85 % 15.34 C
1133 15-06-2009 10:40:32 17.8 C 86 % 15.43 C
1134 15-06-2009 10:52:32 17.6 C 86 % 15.23 C
1135 15-06-2009 11:04:32 17.2 C 87 % 15.02 C
1136 15-06-2009 11:16:31 17.2 C 88 % 15.2 C
1137 15-06-2009 11:28:31 17.3 C 89 % 15.47 C
1138 15-06-2009 11:40:31 17.3 C 89 % 15.47 C
1139 15-06-2009 11:52:31 17.3 C 90 % 15.64 C
1140 15-06-2009 12:04:31 17.5 C 91 % 16.01 C
1141 15-06-2009 12:16:31 17.5 C 91 % 16.01 C
1142 15-06-2009 12:28:31 17.5 C 91 % 16.01 C
1143 15-06-2009 12:40:30 17.8 C 92 % 16.48 C
1144 15-06-2009 12:52:31 18.1 C 91 % 16.61 C
1145 15-06-2009 13:04:30 18.3 C 91 % 16.81 C
1146 15-06-2009 13:16:30 17.9 C 92 % 16.58 C
1147 15-06-2009 13:28:30 18 C 91 % 16.51 C
1148 15-06-2009 13:40:30 18.3 C 91 % 16.81 C
1149 15-06-2009 13:52:30 18.4 C 91 % 16.9 C
1150 15-06-2009 14:04:30 18.2 C 91 % 16.71 C
Sensor: Nr:Datum:Temp:Feuchte:Taupunkt:
Aussen-T/F 1151 15-06-2009 14:16:30 17.9 C 92 % 16.58 C
1152 15-06-2009 14:28:30 17.9 C 92 % 16.58 C
1153 15-06-2009 14:40:30 17.8 C 93 % 16.65 C
1154 15-06-2009 14:52:29 17.6 C 93 % 16.45 C
1155 15-06-2009 15:04:29 17.8 C 93 % 16.65 C
1156 15-06-2009 15:16:29 17.9 C 93 % 16.75 C
1157 15-06-2009 15:28:29 17.9 C 93 % 16.75 C
1158 15-06-2009 15:40:29 17.1 C 93 % 15.96 C
1159 15-06-2009 15:52:28 16.8 C 94 % 15.83 C
1160 15-06-2009 16:04:29 16.4 C 94 % 15.43 C
1161 15-06-2009 16:16:29 16.2 C 94 % 15.23 C
1162 15-06-2009 16:28:29 16.2 C 94 % 15.23 C
1163 15-06-2009 16:40:28 16.1 C 94 % 15.13 C
1164 15-06-2009 16:52:29 16.2 C 94 % 15.23 C
1165 15-06-2009 17:04:28 15.8 C 94 % 14.84 C
1166 15-06-2009 17:16:28 16.1 C 93 % 14.97 C
1167 15-06-2009 17:28:28 16.4 C 93 % 15.27 C
1168 15-06-2009 17:40:28 16.8 C 93 % 15.66 C
1169 15-06-2009 17:52:28 16.6 C 93 % 15.46 C
1170 15-06-2009 18:04:28 16.6 C 92 % 15.3 C
1171 15-06-2009 18:16:27 16.4 C 92 % 15.1 C
1172 15-06-2009 18:28:27 16.3 C 92 % 15 C
1173 15-06-2009 18:40:28 16.2 C 92 % 14.9 C
1174 15-06-2009 18:52:27 15.7 C 90 % 14.06 C
1175 15-06-2009 19:04:27 15.8 C 88 % 13.82 C
Sensor: Nr:Datum:Temp:Feuchte:Taupunkt:
Aussen-T/F 1176 15-06-2009 19:16:26 15.7 C 88 % 13.72 C
1177 15-06-2009 19:28:26 15.5 C 89 % 13.7 C
1178 15-06-2009 19:40:27 15.4 C 90 % 13.77 C
1179 15-06-2009 19:52:26 15.2 C 91 % 13.74 C
1180 15-06-2009 20:04:26 15.1 C 92 % 13.81 C
1181 15-06-2009 20:16:27 15.2 C 92 % 13.91 C
1182 15-06-2009 20:28:27 15.2 C 93 % 14.08 C
1183 15-06-2009 20:40:26 15.1 C 93 % 13.98 C
1184 15-06-2009 20:52:26 14.9 C 94 % 13.94 C
1185 15-06-2009 21:04:26 14.7 C 93 % 13.58 C
1186 15-06-2009 21:16:26 14.8 C 93 % 13.68 C
1187 15-06-2009 21:28:26 14.9 C 94 % 13.94 C
1188 15-06-2009 21:40:26 14.8 C 94 % 13.84 C
1189 15-06-2009 21:52:25 14.8 C 94 % 13.84 C
1190 15-06-2009 22:04:25 14.8 C 94 % 13.84 C
1191 15-06-2009 22:17:26 14.6 C 94 % 13.65 C
1192 15-06-2009 22:29:26 14.7 C 93 % 13.58 C
1193 15-06-2009 22:41:26 14.4 C 92 % 13.12 C
1194 15-06-2009 22:53:26 14.1 C 91 % 12.65 C
1195 15-06-2009 23:05:26 14.1 C 91 % 12.65 C
1196 15-06-2009 23:17:26 14 C 90 % 12.39 C
1197 15-06-2009 23:29:26 13.8 C 91 % 12.36 C
1198 15-06-2009 23:41:26 13.7 C 91 % 12.26 C
1199 15-06-2009 23:53:26 13.6 C 91 % 12.16 C
1200 16-06-2009 00:05:26 13.5 C 91 % 12.06 C
Sensor: Nr:Datum:Temp:Feuchte:Taupunkt:
Aussen-T/F 1201 16-06-2009 00:17:26 13.4 C 91 % 11.96 C
1202 16-06-2009 00:29:26 13.2 C 91 % 11.76 C
1203 16-06-2009 00:41:26 13 C 92 % 11.73 C
1204 16-06-2009 00:53:26 12.8 C 92 % 11.53 C
1205 16-06-2009 01:05:27 12.8 C 93 % 11.7 C
1206 16-06-2009 01:17:27 12.7 C 93 % 11.6 C
1207 16-06-2009 01:29:27 12.5 C 93 % 11.4 C
1208 16-06-2009 01:41:27 12.3 C 93 % 11.2 C
1209 16-06-2009 01:53:27 12.1 C 93 % 11 C
1210 16-06-2009 02:05:27 12.1 C 93 % 11 C
1211 16-06-2009 02:17:27 12.1 C 93 % 11 C
1212 16-06-2009 02:29:27 12 C 94 % 11.07 C
1213 16-06-2009 02:41:27 12 C 94 % 11.07 C
1214 16-06-2009 02:53:27 12 C 94 % 11.07 C
1215 16-06-2009 03:05:27 12 C 94 % 11.07 C
1216 16-06-2009 03:17:27 12.1 C 94 % 11.16 C
1217 16-06-2009 03:29:27 12.1 C 94 % 11.16 C
1218 16-06-2009 03:41:27 12.1 C 95 % 11.32 C
1219 16-06-2009 03:53:27 11.8 C 95 % 11.03 C
1220 16-06-2009 04:05:27 11.8 C 95 % 11.03 C
1221 16-06-2009 04:17:27 12.1 C 95 % 11.32 C
1222 16-06-2009 04:29:27 12.1 C 95 % 11.32 C
1223 16-06-2009 04:41:27 12.1 C 95 % 11.32 C
1224 16-06-2009 04:53:28 12 C 95 % 11.22 C
1225 16-06-2009 05:05:28 12.1 C 95 % 11.32 C
Sensor: Nr:Datum:Temp:Feuchte:Taupunkt:
Aussen-T/F 1226 16-06-2009 05:17:28 12.2 C 95 % 11.42 C
1227 16-06-2009 05:29:28 12.4 C 95 % 11.62 C
1228 16-06-2009 05:41:28 12.4 C 95 % 11.62 C
1229 16-06-2009 05:53:28 12.4 C 95 % 11.62 C
1230 16-06-2009 06:05:28 12.4 C 95 % 11.62 C
1231 16-06-2009 06:17:28 12.4 C 95 % 11.62 C
1232 16-06-2009 06:29:28 12.4 C 95 % 11.62 C
1233 16-06-2009 06:41:28 12.3 C 95 % 11.52 C
1234 16-06-2009 06:53:26 12.3 C 95 % 11.52 C
1235 16-06-2009 07:05:26 12.3 C 95 % 11.52 C
1236 16-06-2009 07:17:26 12.4 C 95 % 11.62 C
1237 16-06-2009 07:29:26 12.5 C 95 % 11.72 C
1238 16-06-2009 07:41:26 12.6 C 95 % 11.82 C
1239 16-06-2009 07:53:25 12.6 C 95 % 11.82 C
1240 16-06-2009 08:05:26 12.8 C 95 % 12.02 C
1241 16-06-2009 08:17:25 12.7 C 95 % 11.92 C
1242 16-06-2009 08:29:25 12.9 C 95 % 12.12 C
1243 16-06-2009 08:41:25 13.2 C 95 % 12.42 C
1244 16-06-2009 08:53:25 13.2 C 95 % 12.42 C
1245 16-06-2009 09:05:25 13.6 C 95 % 12.81 C
1246 16-06-2009 09:17:25 13.5 C 95 % 12.72 C
1247 16-06-2009 09:29:25 14.1 C 94 % 13.15 C
1248 16-06-2009 09:41:24 14.5 C 92 % 13.22 C
1249 16-06-2009 09:53:25 14.4 C 89 % 12.61 C
1250 16-06-2009 10:05:24 14.7 C 84 % 12.03 C
Sensor: Nr:Datum:Temp:Feuchte:Taupunkt:
Aussen-T/F 1251 16-06-2009 10:17:24 15.2 C 79 % 11.59 C
1252 16-06-2009 10:29:24 16.5 C 75 % 12.06 C
1253 16-06-2009 10:41:24 16.1 C 73 % 11.26 C
1254 16-06-2009 10:53:24 16.6 C 72 % 11.54 C
1255 16-06-2009 11:05:23 17.7 C 65 % 11.04 C
1256 16-06-2009 11:17:23 17.5 C 63 % 10.38 C
1257 16-06-2009 11:29:23 18.1 C 61 % 10.47 C
1258 16-06-2009 11:41:24 18.7 C 54 % 9.21 C
1259 16-06-2009 11:53:23 19 C 52 % 8.93 C
1260 16-06-2009 12:05:23 19.8 C 43 % 6.87 C
1261 16-06-2009 12:17:23 20.2 C 43 % 7.23 C
1262 16-06-2009 12:29:23 20.8 C 40 % 6.72 C
1263 16-06-2009 12:41:23 21.4 C 36 % 5.73 C
1264 16-06-2009 12:53:22 20 C 39 % 5.64 C
1265 16-06-2009 13:05:23 21.6 C 35 % 5.5 C
1266 16-06-2009 13:17:23 21.7 C 34 % 5.17 C
1267 16-06-2009 13:29:23 21.5 C 35 % 5.41 C
1268 16-06-2009 13:41:22 23 C 29 % 4.03 C
1269 16-06-2009 13:53:23 23.6 C 28 % 4.04 C
1270 16-06-2009 14:05:22 22.8 C 28 % 3.36 C
1271 16-06-2009 14:17:22 22.3 C 30 % 3.9 C
1272 16-06-2009 14:29:23 22.3 C 30 % 3.9 C
1273 16-06-2009 14:41:21 22.3 C 31 % 4.37 C
1274 16-06-2009 14:53:22 20.7 C 33 % 3.87 C
1275 16-06-2009 15:05:21 19.9 C 37 % 4.79 C
Sensor: Nr:Datum:Temp:Feuchte:Taupunkt:
Aussen-T/F 1276 16-06-2009 15:17:21 20.3 C 39 % 5.9 C
1277 16-06-2009 15:29:21 21.6 C 37 % 6.3 C
1278 16-06-2009 15:41:22 20.7 C 34 % 4.29 C
1279 16-06-2009 15:53:21 18.8 C 58 % 10.37 C
1280 16-06-2009 16:05:21 20.1 C 71 % 14.68 C
1281 16-06-2009 16:17:20 22.4 C 67 % 15.97 C
1282 16-06-2009 16:29:20 21 C 48 % 9.58 C
1283 16-06-2009 16:41:21 20.4 C 44 % 7.75 C
1284 16-06-2009 16:53:20 20.7 C 37 % 5.5 C
1285 16-06-2009 17:05:20 20.3 C 40 % 6.27 C
1286 16-06-2009 17:17:20 19.6 C 43 % 6.69 C
1287 16-06-2009 17:29:20 19.6 C 51 % 9.2 C
1288 16-06-2009 17:41:20 20.1 C 51 % 9.66 C
1289 16-06-2009 17:53:19 20.9 C 47 % 9.17 C
1290 16-06-2009 18:05:20 23 C 41 % 9.05 C
1291 16-06-2009 18:17:20 23.7 C 38 % 8.55 C
1292 16-06-2009 18:29:20 23.3 C 39 % 8.58 C
1293 16-06-2009 18:41:19 24.7 C 35 % 8.22 C
1294 16-06-2009 18:53:20 22.1 C 37 % 6.74 C
1295 16-06-2009 19:05:19 20.8 C 44 % 8.11 C
1296 16-06-2009 19:17:19 22.3 C 40 % 8.06 C
1297 16-06-2009 19:29:19 20.2 C 44 % 7.57 C
1298 16-06-2009 19:41:18 20.5 C 45 % 8.17 C
1299 16-06-2009 19:53:19 20 C 44 % 7.39 C
1300 16-06-2009 20:05:19 20 C 46 % 8.04 C
Sensor: Nr:Datum:Temp:Feuchte:Taupunkt:
Aussen-T/F 1301 16-06-2009 20:17:18 20.6 C 44 % 7.93 C
1302 16-06-2009 20:29:18 20.1 C 44 % 7.48 C
1303 16-06-2009 20:41:19 19.6 C 45 % 7.35 C
1304 16-06-2009 20:53:18 19.5 C 47 % 7.9 C
1305 16-06-2009 21:05:18 19.3 C 49 % 8.33 C
1306 16-06-2009 21:17:18 18.9 C 53 % 9.12 C
1307 16-06-2009 21:29:19 18.2 C 56 % 9.29 C
1308 16-06-2009 21:41:17 17.3 C 60 % 9.47 C
1309 16-06-2009 21:53:18 16.7 C 63 % 9.63 C
1310 16-06-2009 22:05:17 16.1 C 65 % 9.53 C
1311 16-06-2009 22:17:17 15.7 C 67 % 9.6 C
1312 16-06-2009 22:29:17 15.2 C 69 % 9.56 C
1313 16-06-2009 22:42:17 15 C 71 % 9.79 C
1314 16-06-2009 22:54:17 14.9 C 74 % 10.31 C
1315 16-06-2009 23:06:17 14.8 C 74 % 10.22 C
1316 16-06-2009 23:18:17 14.6 C 75 % 10.22 C
1317 16-06-2009 23:30:17 14.5 C 76 % 10.32 C
1318 16-06-2009 23:42:17 14.3 C 77 % 10.33 C
1319 16-06-2009 23:54:17 14 C 78 % 10.23 C
1320 17-06-2009 00:06:17 13.7 C 79 % 10.13 C
1321 17-06-2009 00:18:18 13.7 C 80 % 10.32 C
1322 17-06-2009 00:30:18 13.6 C 81 % 10.4 C
1323 17-06-2009 00:42:18 13.4 C 81 % 10.21 C
1324 17-06-2009 00:54:18 13.3 C 81 % 10.11 C
1325 17-06-2009 01:06:18 13.1 C 81 % 9.92 C
Sensor: Nr:Datum:Temp:Feuchte:Taupunkt:
Aussen-T/F 1326 17-06-2009 01:18:18 12.9 C 82 % 9.9 C
1327 17-06-2009 01:30:18 12.8 C 82 % 9.81 C
1328 17-06-2009 01:42:18 12.6 C 83 % 9.79 C
1329 17-06-2009 01:54:18 12.5 C 85 % 10.05 C
1330 17-06-2009 02:06:18 12.2 C 85 % 9.76 C
1331 17-06-2009 02:18:18 11.9 C 87 % 9.81 C
1332 17-06-2009 02:30:18 11.8 C 87 % 9.71 C
1333 17-06-2009 02:42:18 11.6 C 87 % 9.51 C
1334 17-06-2009 02:54:18 11.5 C 87 % 9.41 C
1335 17-06-2009 03:06:18 11.5 C 87 % 9.41 C
1336 17-06-2009 03:18:18 11.4 C 87 % 9.32 C
1337 17-06-2009 03:30:18 11.8 C 88 % 9.88 C
1338 17-06-2009 03:42:18 12 C 87 % 9.91 C
1339 17-06-2009 03:54:18 12.2 C 86 % 9.93 C
1340 17-06-2009 04:06:18 12.2 C 85 % 9.76 C
1341 17-06-2009 04:18:19 12.2 C 85 % 9.76 C
1342 17-06-2009 04:30:19 12 C 84 % 9.38 C
1343 17-06-2009 04:42:19 11.9 C 85 % 9.46 C
1344 17-06-2009 04:54:19 11.9 C 85 % 9.46 C
1345 17-06-2009 05:06:19 12.1 C 84 % 9.48 C
1346 17-06-2009 05:18:19 11.8 C 85 % 9.36 C
1347 17-06-2009 05:30:19 11.8 C 85 % 9.36 C
1348 17-06-2009 05:42:19 11.6 C 86 % 9.34 C
1349 17-06-2009 05:54:19 11.5 C 86 % 9.24 C
1350 17-06-2009 06:06:19 11.3 C 87 % 9.22 C
Sensor: Nr:Datum:Temp:Feuchte:Taupunkt:
Aussen-T/F 1351 17-06-2009 06:18:19 11.3 C 88 % 9.39 C
1352 17-06-2009 06:30:19 11.4 C 88 % 9.49 C
1353 17-06-2009 06:42:19 11.2 C 87 % 9.12 C
1354 17-06-2009 06:54:19 11.3 C 87 % 9.22 C
1355 17-06-2009 07:06:17 11.5 C 88 % 9.58 C
1356 17-06-2009 07:18:18 11.7 C 87 % 9.61 C
1357 17-06-2009 07:30:18 11.9 C 85 % 9.46 C
1358 17-06-2009 07:42:18 12.3 C 84 % 9.68 C
1359 17-06-2009 07:54:17 12.5 C 83 % 9.69 C
1360 17-06-2009 08:06:17 13 C 81 % 9.82 C
1361 17-06-2009 08:18:17 13 C 80 % 9.63 C
1362 17-06-2009 08:30:16 13.4 C 80 % 10.02 C
1363 17-06-2009 08:42:16 14.2 C 78 % 10.42 C
1364 17-06-2009 08:54:17 14.1 C 75 % 9.74 C
1365 17-06-2009 09:06:16 14.1 C 75 % 9.74 C
1366 17-06-2009 09:18:16 15 C 73 % 10.2 C
1367 17-06-2009 09:30:17 15.6 C 71 % 10.37 C
1368 17-06-2009 09:42:17 15.9 C 70 % 10.44 C
1369 17-06-2009 09:54:16 15.8 C 73 % 10.97 C
1370 17-06-2009 10:06:15 16.9 C 72 % 11.82 C
1371 17-06-2009 10:18:16 17.4 C 67 % 11.21 C
1372 17-06-2009 10:30:16 18.2 C 63 % 11.05 C
1373 17-06-2009 10:42:16 18.3 C 59 % 10.16 C
1374 17-06-2009 10:54:15 19.6 C 55 % 10.32 C
1375 17-06-2009 11:06:16 19.8 C 52 % 9.67 C
Sensor: Nr:Datum:Temp:Feuchte:Taupunkt:
Aussen-T/F 1376 17-06-2009 11:18:15 20.9 C 50 % 10.1 C
1377 17-06-2009 11:30:15 22.2 C 46 % 10.04 C
1378 17-06-2009 11:42:15 21.7 C 43 % 8.58 C
1379 17-06-2009 11:54:15 22.6 C 40 % 8.33 C
1380 17-06-2009 12:06:15 24.1 C 35 % 7.69 C
1381 17-06-2009 12:18:15 25 C 28 % 5.24 C
1382 17-06-2009 12:30:14 23.9 C 34 % 7.1 C
1383 17-06-2009 12:42:14 25 C 30 % 6.23 C
1384 17-06-2009 12:54:15 25.4 C 30 % 6.58 C
1385 17-06-2009 13:06:14 25.7 C 27 % 5.31 C
1386 17-06-2009 13:18:14 28.5 C 24 % 5.98 C
1387 17-06-2009 13:30:13 28.9 C 20 % 3.7 C
1388 17-06-2009 13:42:13 29 C 20 % 3.79 C
1389 17-06-2009 13:54:14 28.8 C 20 % 3.62 C
1390 17-06-2009 14:06:13 28.1 C 22 % 4.4 C
1391 17-06-2009 14:18:13 27.3 C 25 % 5.56 C
1392 17-06-2009 14:30:14 27.8 C 25 % 5.98 C
1393 17-06-2009 14:42:14 27.2 C 23 % 4.28 C
1394 17-06-2009 14:54:13 28.6 C 22 % 4.81 C
1395 17-06-2009 15:06:13 28.8 C 20 % 3.62 C
1396 17-06-2009 15:18:13 27.3 C 22 % 3.74 C
1397 17-06-2009 15:30:13 28.1 C 21 % 3.74 C
1398 17-06-2009 15:42:13 29.9 C 20 % 4.52 C
1399 17-06-2009 15:54:12 29.2 C 20 % 3.95 C
1400 17-06-2009 16:06:13 29.2 C 20 % 3.95 C
Sensor: Nr:Datum:Temp:Feuchte:Taupunkt:
Aussen-T/F 1401 17-06-2009 16:18:13 29.7 C 20 % 4.36 C
1402 17-06-2009 16:30:12 30.4 C 20 % 4.93 C
1403 17-06-2009 16:42:12 30.3 C 20 % 4.85 C
1404 17-06-2009 16:54:13 30.6 C 20 % 5.1 C
1405 17-06-2009 17:06:12 30.8 C 20 % 5.26 C
1406 17-06-2009 17:18:12 30.9 C 20 % 5.34 C
1407 17-06-2009 17:30:11 31.1 C 20 % 5.51 C
1408 17-06-2009 17:42:11 30.8 C 20 % 5.26 C
1409 17-06-2009 17:54:12 30.6 C 20 % 5.1 C
1410 17-06-2009 18:06:11 30.7 C 20 % 5.18 C
1411 17-06-2009 18:18:11 30.6 C 20 % 5.1 C
1412 17-06-2009 18:30:12 30 C 20 % 4.61 C
1413 17-06-2009 18:42:12 29.1 C 22 % 5.23 C
1414 17-06-2009 18:54:11 29.8 C 21 % 5.14 C
1415 17-06-2009 19:06:11 28.7 C 27 % 7.86 C
1416 17-06-2009 19:18:10 27.6 C 29 % 7.97 C
1417 17-06-2009 19:30:11 26.8 C 32 % 8.73 C
1418 17-06-2009 19:42:11 25.9 C 35 % 9.27 C
1419 17-06-2009 19:54:10 25.3 C 36 % 9.16 C
1420 17-06-2009 20:06:10 24.5 C 38 % 9.26 C
1421 17-06-2009 20:18:10 24.3 C 39 % 9.47 C
1422 17-06-2009 20:30:10 24.2 C 40 % 9.75 C
1423 17-06-2009 20:42:10 24.1 C 39 % 9.29 C
1424 17-06-2009 20:54:09 23.5 C 41 % 9.5 C
1425 17-06-2009 21:06:10 22.8 C 44 % 9.92 C
Sensor: Nr:Datum:Temp:Feuchte:Taupunkt:
Aussen-T/F 1426 17-06-2009 21:18:09 22 C 45 % 9.53 C
1427 17-06-2009 21:30:09 21.4 C 46 % 9.31 C
1428 17-06-2009 21:42:09 20.8 C 47 % 9.08 C
1429 17-06-2009 21:54:09 20.4 C 48 % 9.03 C
1430 17-06-2009 22:06:09 20.2 C 47 % 8.54 C
1431 17-06-2009 22:18:09 20.3 C 45 % 7.99 C
1432 17-06-2009 22:31:10 20.4 C 43 % 7.41 C
1433 17-06-2009 22:43:10 20.4 C 44 % 7.75 C
1434 17-06-2009 22:55:10 19.9 C 48 % 8.57 C
1435 17-06-2009 23:07:10 19.6 C 49 % 8.6 C
1436 17-06-2009 23:19:10 19.5 C 46 % 7.58 C
1437 17-06-2009 23:31:10 19.2 C 48 % 7.93 C
1438 17-06-2009 23:43:10 18.8 C 52 % 8.75 C
1439 17-06-2009 23:55:10 18.4 C 53 % 8.66 C
1440 18-06-2009 00:07:10 18.2 C 53 % 8.47 C
1441 18-06-2009 00:19:10 17.9 C 55 % 8.74 C
1442 18-06-2009 00:31:10 17.6 C 56 % 8.73 C
1443 18-06-2009 00:43:10 17.4 C 57 % 8.8 C
1444 18-06-2009 00:55:10 17.1 C 57 % 8.52 C
1445 18-06-2009 01:07:10 16.9 C 58 % 8.59 C
1446 18-06-2009 01:19:10 16.7 C 60 % 8.9 C
1447 18-06-2009 01:31:10 16.6 C 61 % 9.06 C
1448 18-06-2009 01:43:10 16.4 C 63 % 9.35 C
1449 18-06-2009 01:55:10 16.2 C 65 % 9.62 C
1450 18-06-2009 02:07:10 16.2 C 65 % 9.62 C
Sensor: Nr:Datum:Temp:Feuchte:Taupunkt:
Aussen-T/F 1451 18-06-2009 02:19:10 15.9 C 67 % 9.79 C
1452 18-06-2009 02:31:11 15.7 C 68 % 9.82 C
1453 18-06-2009 02:43:11 15.4 C 71 % 10.17 C
1454 18-06-2009 02:55:11 15.4 C 71 % 10.17 C
1455 18-06-2009 03:07:11 15.1 C 73 % 10.3 C
1456 18-06-2009 03:19:11 15 C 74 % 10.41 C
1457 18-06-2009 03:31:11 14.8 C 75 % 10.42 C
1458 18-06-2009 03:43:11 14.7 C 75 % 10.32 C
1459 18-06-2009 03:55:11 14.5 C 77 % 10.52 C
1460 18-06-2009 04:07:11 14.4 C 78 % 10.62 C
1461 18-06-2009 04:19:11 14.5 C 78 % 10.71 C
1462 18-06-2009 04:31:11 14.3 C 78 % 10.52 C
1463 18-06-2009 04:43:11 13.8 C 79 % 10.22 C
1464 18-06-2009 04:55:11 13.7 C 81 % 10.5 C
1465 18-06-2009 05:07:11 13.5 C 83 % 10.67 C
1466 18-06-2009 05:19:11 13.4 C 83 % 10.57 C
1467 18-06-2009 05:31:11 13.5 C 83 % 10.67 C
1468 18-06-2009 05:43:11 13.7 C 81 % 10.5 C
1469 18-06-2009 05:55:11 13.7 C 81 % 10.5 C
1470 18-06-2009 06:07:12 13.5 C 81 % 10.31 C
1471 18-06-2009 06:19:12 13.7 C 82 % 10.69 C
1472 18-06-2009 06:31:12 14 C 80 % 10.61 C
1473 18-06-2009 06:43:12 14.3 C 79 % 10.71 C
1474 18-06-2009 06:55:12 14.6 C 77 % 10.62 C
1475 18-06-2009 07:07:10 14.9 C 76 % 10.71 C
Sensor: Nr:Datum:Temp:Feuchte:Taupunkt:
Aussen-T/F 1476 18-06-2009 07:19:09 15.5 C 75 % 11.09 C
1477 18-06-2009 07:31:10 16 C 72 % 10.96 C
1478 18-06-2009 07:43:10 16.2 C 71 % 10.94 C
1479 18-06-2009 07:55:09 16.4 C 71 % 11.13 C
1480 18-06-2009 08:07:09 16.7 C 71 % 11.42 C
1481 18-06-2009 08:19:10 16.9 C 71 % 11.61 C
1482 18-06-2009 08:31:09 16.9 C 71 % 11.61 C
1483 18-06-2009 08:43:09 17.2 C 70 % 11.68 C
1484 18-06-2009 08:55:09 17.5 C 69 % 11.75 C
1485 18-06-2009 09:07:09 18.1 C 67 % 11.88 C
1486 18-06-2009 09:19:08 18.4 C 66 % 11.94 C
1487 18-06-2009 09:31:08 18.4 C 66 % 11.94 C
1488 18-06-2009 09:43:08 18.7 C 66 % 12.22 C
1489 18-06-2009 09:55:08 18.9 C 65 % 12.18 C
1490 18-06-2009 10:07:08 19.4 C 63 % 12.18 C
1491 18-06-2009 10:19:08 19.6 C 62 % 12.13 C
1492 18-06-2009 10:31:08 19.7 C 62 % 12.22 C
1493 18-06-2009 10:43:08 20.1 C 60 % 12.1 C
1494 18-06-2009 10:55:08 21 C 57 % 12.16 C
1495 18-06-2009 11:07:07 21.9 C 56 % 12.73 C
1496 18-06-2009 11:19:08 22.5 C 50 % 11.56 C
1497 18-06-2009 11:31:07 22.9 C 45 % 10.34 C
1498 18-06-2009 11:43:07 23.4 C 45 % 10.8 C
1499 18-06-2009 11:55:07 22.9 C 46 % 10.67 C
1500 18-06-2009 12:07:08 22.8 C 48 % 11.22 C
Sensor: Nr:Datum:Temp:Feuchte:Taupunkt:
Aussen-T/F 1501 18-06-2009 12:19:07 23.8 C 45 % 11.16 C
1502 18-06-2009 12:31:07 23.3 C 45 % 10.71 C
1503 18-06-2009 12:43:07 22.8 C 49 % 11.53 C
1504 18-06-2009 12:55:06 22.7 C 51 % 12.05 C
1505 18-06-2009 13:07:07 22.1 C 50 % 11.2 C
1506 18-06-2009 13:19:06 21.7 C 56 % 12.54 C
1507 18-06-2009 13:31:06 22.4 C 54 % 12.64 C
1508 18-06-2009 13:43:06 22.9 C 49 % 11.63 C
1509 18-06-2009 13:55:06 22.6 C 51 % 11.96 C
1510 18-06-2009 14:07:06 22.7 C 51 % 12.05 C
1511 18-06-2009 14:19:06 23 C 54 % 13.2 C
1512 18-06-2009 14:31:05 23.7 C 51 % 12.97 C
1513 18-06-2009 14:43:05 23.4 C 52 % 12.99 C
1514 18-06-2009 14:55:06 22.5 C 51 % 11.86 C
1515 18-06-2009 15:07:05 22.5 C 54 % 12.73 C
1516 18-06-2009 15:19:05 22.3 C 53 % 12.26 C
1517 18-06-2009 15:31:05 22 C 58 % 13.36 C
1518 18-06-2009 15:43:05 21 C 65 % 14.17 C
1519 18-06-2009 15:55:05 20.9 C 64 % 13.84 C
1520 18-06-2009 16:07:04 21.3 C 64 % 14.22 C
1521 18-06-2009 16:19:05 22 C 61 % 14.14 C
1522 18-06-2009 16:31:05 22.4 C 58 % 13.73 C
1523 18-06-2009 16:43:05 22.5 C 57 % 13.56 C
1524 18-06-2009 16:55:04 22 C 58 % 13.36 C
1525 18-06-2009 17:07:05 22.2 C 60 % 14.07 C
Sensor: Nr:Datum:Temp:Feuchte:Taupunkt:
Aussen-T/F 1526 18-06-2009 17:19:04 22.3 C 60 % 14.16 C
1527 18-06-2009 17:31:04 22 C 62 % 14.39 C
1528 18-06-2009 17:43:04 22.6 C 61 % 14.7 C
1529 18-06-2009 17:55:04 23.3 C 55 % 13.76 C
1530 18-06-2009 18:07:04 23.4 C 53 % 13.28 C
1531 18-06-2009 18:19:03 24.5 C 45 % 11.79 C
1532 18-06-2009 18:31:03 24.8 C 46 % 12.4 C
1533 18-06-2009 18:43:03 24.8 C 44 % 11.72 C
1534 18-06-2009 18:55:04 24 C 47 % 12 C
1535 18-06-2009 19:07:03 23.7 C 50 % 12.67 C
1536 18-06-2009 19:19:03 24.5 C 45 % 11.79 C
1537 18-06-2009 19:31:02 23.9 C 47 % 11.91 C
1538 18-06-2009 19:43:02 24.4 C 44 % 11.36 C
1539 18-06-2009 19:55:03 24.8 C 43 % 11.38 C
1540 18-06-2009 20:07:02 25.2 C 41 % 11.02 C
1541 18-06-2009 20:19:02 24.9 C 42 % 11.11 C
1542 18-06-2009 20:31:03 23.4 C 48 % 11.77 C
1543 18-06-2009 20:43:03 23.3 C 49 % 11.99 C
1544 18-06-2009 20:55:02 22.9 C 51 % 12.23 C
1545 18-06-2009 21:07:02 22.2 C 53 % 12.17 C
1546 18-06-2009 21:19:02 21.4 C 56 % 12.27 C
1547 18-06-2009 21:31:02 21.1 C 56 % 11.99 C
1548 18-06-2009 21:43:02 20.8 C 59 % 12.5 C
1549 18-06-2009 21:55:02 20.2 C 61 % 12.44 C
1550 18-06-2009 22:08:27 20 C 62 % 12.5 C
Sensor: Nr:Datum:Temp:Feuchte:Taupunkt:
Aussen-T/F 1551 18-06-2009 22:20:27 19.7 C 63 % 12.46 C
1552 18-06-2009 22:32:27 19.6 C 63 % 12.37 C
1553 18-06-2009 22:44:27 19.5 C 64 % 12.51 C
1554 18-06-2009 22:56:27 19.2 C 65 % 12.47 C
1555 18-06-2009 23:08:27 18.9 C 67 % 12.64 C
1556 18-06-2009 23:20:27 18.6 C 69 % 12.8 C
1557 18-06-2009 23:32:28 18.4 C 69 % 12.61 C
1558 18-06-2009 23:44:28 18.2 C 70 % 12.64 C
1559 18-06-2009 23:56:28 18.1 C 70 % 12.55 C
1560 19-06-2009 00:08:28 18.1 C 70 % 12.55 C
1561 19-06-2009 00:20:28 17.9 C 73 % 12.99 C
1562 19-06-2009 00:32:28 17.5 C 74 % 12.82 C
1563 19-06-2009 00:44:28 17.2 C 75 % 12.73 C
1564 19-06-2009 00:56:28 17 C 76 % 12.74 C
1565 19-06-2009 01:08:28 17 C 77 % 12.94 C
1566 19-06-2009 01:20:28 16.7 C 78 % 12.85 C
1567 19-06-2009 01:32:28 16.6 C 78 % 12.75 C
1568 19-06-2009 01:44:28 16.2 C 79 % 12.56 C
1569 19-06-2009 01:56:28 16 C 79 % 12.36 C
1570 19-06-2009 02:08:28 15.9 C 81 % 12.65 C
1571 19-06-2009 02:20:28 15.8 C 81 % 12.55 C
1572 19-06-2009 02:32:28 15.6 C 81 % 12.35 C
1573 19-06-2009 02:44:28 15.5 C 82 % 12.44 C
1574 19-06-2009 02:56:28 15.4 C 82 % 12.35 C
1575 19-06-2009 03:08:28 15.2 C 82 % 12.15 C
Sensor: Nr:Datum:Temp:Feuchte:Taupunkt:
Aussen-T/F 1576 19-06-2009 03:20:29 15.1 C 83 % 12.24 C
1577 19-06-2009 03:32:29 15 C 83 % 12.14 C
1578 19-06-2009 03:44:29 14.8 C 83 % 11.94 C
1579 19-06-2009 03:56:29 14.7 C 83 % 11.85 C
1580 19-06-2009 04:08:29 14.7 C 82 % 11.66 C
1581 19-06-2009 04:20:29 14.7 C 81 % 11.48 C
1582 19-06-2009 04:32:29 14.8 C 80 % 11.39 C
1583 19-06-2009 04:44:29 14.8 C 80 % 11.39 C
1584 19-06-2009 04:56:29 14.9 C 80 % 11.48 C
1585 19-06-2009 05:08:29 14.8 C 80 % 11.39 C
1586 19-06-2009 05:20:29 14.7 C 79 % 11.1 C
1587 19-06-2009 05:32:29 14.8 C 78 % 11 C
1588 19-06-2009 05:44:29 14.7 C 78 % 10.91 C
1589 19-06-2009 05:56:29 14.4 C 79 % 10.81 C
1590 19-06-2009 06:08:29 14.4 C 79 % 10.81 C
1591 19-06-2009 06:20:02 14.5 C 79 % 10.91 C
1592 19-06-2009 06:32:01 14.6 C 79 % 11 C
1593 19-06-2009 06:44:01 14.8 C 76 % 10.61 C
1594 19-06-2009 06:56:02 15 C 76 % 10.81 C
1595 19-06-2009 07:08:01 15.2 C 75 % 10.8 C
1596 19-06-2009 07:20:01 15.4 C 73 % 10.59 C
1597 19-06-2009 07:32:01 15.5 C 72 % 10.48 C
1598 19-06-2009 07:44:01 15.8 C 70 % 10.34 C
1599 19-06-2009 07:56:01 16.1 C 68 % 10.2 C
1600 19-06-2009 08:08:01 16.4 C 67 % 10.26 C
Sensor: Nr:Datum:Temp:Feuchte:Taupunkt:
Aussen-T/F 1601 19-06-2009 08:20:00 16.4 C 65 % 9.81 C
1602 19-06-2009 08:32:00 16.9 C 64 % 10.05 C
1603 19-06-2009 08:44:00 16.8 C 62 % 9.49 C
1604 19-06-2009 08:56:00 17.2 C 62 % 9.86 C
1605 19-06-2009 09:07:59 17.3 C 57 % 8.71 C
1606 19-06-2009 09:20:00 17.1 C 60 % 9.28 C
1607 19-06-2009 09:32:00 17.1 C 58 % 8.78 C
1608 19-06-2009 09:44:00 17.2 C 57 % 8.62 C
1609 19-06-2009 09:56:59 17.4 C 57 % 8.8 C
1610 19-06-2009 10:08:00 17.8 C 54 % 8.38 C
1611 19-06-2009 10:20:59 17.8 C 51 % 7.54 C
1612 19-06-2009 10:32:59 18.3 C 50 % 7.71 C
1613 19-06-2009 10:44:59 18.3 C 46 % 6.49 C
1614 19-06-2009 10:56:59 18.9 C 44 % 6.39 C
1615 19-06-2009 11:08:59 19.1 C 43 % 6.24 C
1616 19-06-2009 11:20:59 19 C 44 % 6.48 C
1617 19-06-2009 11:32:58 19.2 C 46 % 7.31 C
1618 19-06-2009 11:44:59 19.3 C 46 % 7.4 C
1619 19-06-2009 11:56:59 19.6 C 47 % 7.99 C
1620 19-06-2009 12:08:58 19.6 C 40 % 5.64 C
1621 19-06-2009 12:20:58 19.4 C 40 % 5.47 C
1622 19-06-2009 12:32:57 20.4 C 38 % 5.62 C
1623 19-06-2009 12:44:58 20.9 C 35 % 4.88 C
1624 19-06-2009 12:56:58 21.1 C 31 % 3.33 C
1625 19-06-2009 13:08:57 22.7 C 28 % 3.27 C
Sensor: Nr:Datum:Temp:Feuchte:Taupunkt:
Aussen-T/F 1626 19-06-2009 13:20:57 21.9 C 32 % 4.48 C
1627 19-06-2009 13:32:58 22.3 C 29 % 3.42 C
1628 19-06-2009 13:44:57 23.3 C 26 % 2.74 C
1629 19-06-2009 13:56:57 23.3 C 26 % 2.74 C
1630 19-06-2009 14:08:57 22.6 C 26 % 2.14 C
1631 19-06-2009 14:20:57 22.6 C 29 % 3.68 C
1632 19-06-2009 14:32:57 21.7 C 29 % 2.91 C
1633 19-06-2009 14:44:56 22.1 C 31 % 4.2 C
1634 19-06-2009 14:56:56 23.6 C 25 % 2.44 C
1635 19-06-2009 15:08:57 21.5 C 28 % 2.24 C
1636 19-06-2009 15:20:57 22.5 C 25 % 1.51 C
1637 19-06-2009 15:32:56 22.2 C 26 % 1.8 C
1638 19-06-2009 15:44:56 22.5 C 27 % 2.59 C
1639 19-06-2009 15:56:56 23.3 C 25 % 2.19 C
1640 19-06-2009 16:08:56 22.2 C 23 % 0.11 C
1641 19-06-2009 16:20:56 22 C 24 % 0.52 C
1642 19-06-2009 16:32:55 22.5 C 20 % -1.55 C
1643 19-06-2009 16:44:56 23.5 C 21 % -0.06 C
1644 19-06-2009 16:56:57 22.8 C 20 % -1.31 C
1645 19-06-2009 17:08:55 22.7 C 20 % -1.39 C
1646 19-06-2009 17:20:55 22.4 C 21 % -0.97 C
1647 19-06-2009 17:32:55 22.8 C 24 % 1.2 C
1648 19-06-2009 17:44:55 23 C 25 % 1.93 C
1649 19-06-2009 17:56:55 22.5 C 27 % 2.59 C
1650 19-06-2009 18:08:55 22.8 C 26 % 2.31 C
Sensor: Nr:Datum:Temp:Feuchte:Taupunkt:
Aussen-T/F 1651 19-06-2009 18:20:54 22 C 25 % 1.09 C
1652 19-06-2009 18:32:55 23.6 C 24 % 1.87 C
1653 19-06-2009 18:44:54 21.4 C 28 % 2.16 C
1654 19-06-2009 18:56:54 23 C 24 % 1.37 C
1655 19-06-2009 19:08:54 22.3 C 25 % 1.34 C
1656 19-06-2009 19:20:53 22.3 C 27 % 2.42 C
1657 19-06-2009 19:32:54 22 C 27 % 2.16 C
1658 19-06-2009 19:44:54 21.8 C 30 % 3.47 C
1659 19-06-2009 19:56:54 21.6 C 30 % 3.3 C
1660 19-06-2009 20:08:53 20.6 C 31 % 2.9 C
1661 19-06-2009 20:20:54 20.8 C 32 % 3.52 C
1662 19-06-2009 20:32:53 20.4 C 32 % 3.17 C
1663 19-06-2009 20:44:53 20.2 C 33 % 3.43 C
1664 19-06-2009 20:56:53 19.5 C 33 % 2.82 C
1665 19-06-2009 21:08:53 19.3 C 34 % 3.06 C
1666 19-06-2009 21:20:53 18.5 C 35 % 2.77 C
1667 19-06-2009 21:32:53 17.9 C 36 % 2.63 C
1668 19-06-2009 21:44:52 17.5 C 36 % 2.28 C
1669 19-06-2009 21:56:52 17.2 C 37 % 2.4 C
1670 19-06-2009 22:08:53 16.8 C 37 % 2.04 C
1671 19-06-2009 22:20:52 16.6 C 38 % 2.24 C
1672 19-06-2009 22:32:53 16.2 C 38 % 1.88 C
1673 19-06-2009 22:45:53 16 C 39 % 2.07 C
1674 19-06-2009 22:57:53 15.8 C 40 % 2.24 C
1675 19-06-2009 23:09:53 15.4 C 41 % 2.23 C
Sensor: Nr:Datum:Temp:Feuchte:Taupunkt:
Aussen-T/F 1676 19-06-2009 23:21:53 15.1 C 42 % 2.3 C
1677 19-06-2009 23:33:54 14.8 C 46 % 3.31 C
1678 19-06-2009 23:45:54 14.4 C 49 % 3.83 C
1679 19-06-2009 23:57:54 14.1 C 51 % 4.13 C
1680 20-06-2009 00:09:54 13.6 C 54 % 4.48 C
1681 20-06-2009 00:21:54 13.3 C 57 % 4.97 C
1682 20-06-2009 00:33:54 13 C 58 % 4.94 C
1683 20-06-2009 00:45:54 12.8 C 61 % 5.48 C
1684 20-06-2009 00:57:54 12.6 C 62 % 5.52 C
1685 20-06-2009 01:09:54 12.3 C 63 % 5.47 C
1686 20-06-2009 01:21:54 11.9 C 66 % 5.76 C
1687 20-06-2009 01:33:54 12 C 66 % 5.85 C
1688 20-06-2009 01:45:54 11.7 C 68 % 6 C
1689 20-06-2009 01:57:54 11.5 C 69 % 6.02 C
1690 20-06-2009 02:09:54 11.3 C 70 % 6.03 C
1691 20-06-2009 02:21:54 11.1 C 70 % 5.84 C
1692 20-06-2009 02:33:54 10.9 C 72 % 6.06 C
1693 20-06-2009 02:45:54 10.7 C 73 % 6.07 C
1694 20-06-2009 02:57:54 10.5 C 74 % 6.07 C
1695 20-06-2009 03:09:54 10.4 C 73 % 5.78 C
1696 20-06-2009 03:21:55 10.2 C 74 % 5.78 C
1697 20-06-2009 03:33:55 10.1 C 75 % 5.88 C
1698 20-06-2009 03:45:55 10 C 76 % 5.97 C
1699 20-06-2009 03:57:55 9.8 C 77 % 5.97 C
1700 20-06-2009 04:09:55 9.7 C 78 % 6.06 C
Sensor: Nr:Datum:Temp:Feuchte:Taupunkt:
Aussen-T/F 1701 20-06-2009 04:21:55 9.6 C 78 % 5.96 C
1702 20-06-2009 04:33:55 9.4 C 78 % 5.76 C
1703 20-06-2009 04:45:55 9.3 C 78 % 5.67 C
1704 20-06-2009 04:57:55 9.2 C 79 % 5.75 C
1705 20-06-2009 05:09:55 9.2 C 78 % 5.57 C
1706 20-06-2009 05:21:55 9.1 C 78 % 5.47 C
1707 20-06-2009 05:33:55 9 C 80 % 5.74 C
1708 20-06-2009 05:45:55 8.9 C 81 % 5.82 C
1709 20-06-2009 05:57:55 8.7 C 82 % 5.8 C
1710 20-06-2009 06:09:55 8.8 C 82 % 5.9 C
1711 20-06-2009 06:21:55 8.9 C 82 % 6 C
1712 20-06-2009 06:33:55 9 C 81 % 5.92 C
1713 20-06-2009 06:45:55 9.3 C 80 % 6.03 C
1714 20-06-2009 06:57:55 9.4 C 79 % 5.95 C
1715 20-06-2009 07:09:56 9.7 C 79 % 6.24 C
1716 20-06-2009 07:21:56 10 C 77 % 6.16 C
1717 20-06-2009 07:33:53 10.8 C 76 % 6.75 C
1718 20-06-2009 07:45:53 11.2 C 72 % 6.35 C
1719 20-06-2009 07:57:53 11.7 C 72 % 6.83 C
1720 20-06-2009 08:09:52 12.2 C 69 % 6.69 C
1721 20-06-2009 08:21:53 12.7 C 68 % 6.95 C
1722 20-06-2009 08:33:53 12.9 C 67 % 6.93 C
1723 20-06-2009 08:45:52 13.5 C 65 % 7.06 C
1724 20-06-2009 08:57:52 13.5 C 64 % 6.83 C
1725 20-06-2009 09:09:53 13.1 C 65 % 6.68 C
Sensor: Nr:Datum:Temp:Feuchte:Taupunkt:
Aussen-T/F 1726 20-06-2009 09:21:52 13 C 66 % 6.8 C
1727 20-06-2009 09:33:52 13.4 C 65 % 6.96 C
1728 20-06-2009 09:45:51 13.6 C 64 % 6.93 C
1729 20-06-2009 09:57:51 13.2 C 65 % 6.77 C
1730 20-06-2009 10:09:52 13.1 C 66 % 6.9 C
1731 20-06-2009 10:21:51 13.2 C 66 % 7 C
1732 20-06-2009 10:33:51 13.5 C 65 % 7.06 C
1733 20-06-2009 10:45:52 13.7 C 64 % 7.02 C
1734 20-06-2009 10:57:52 14.1 C 63 % 7.17 C
1735 20-06-2009 11:09:51 14.8 C 62 % 7.6 C
1736 20-06-2009 11:21:51 15.4 C 59 % 7.44 C
1737 20-06-2009 11:33:50 16 C 56 % 7.24 C
1738 20-06-2009 11:45:51 15.8 C 57 % 7.31 C
1739 20-06-2009 11:57:51 16.5 C 54 % 7.17 C
1740 20-06-2009 12:09:50 17 C 50 % 6.51 C
1741 20-06-2009 12:21:50 18.2 C 41 % 4.75 C
1742 20-06-2009 12:33:51 19.4 C 37 % 4.35 C
1743 20-06-2009 12:45:50 19.8 C 37 % 4.7 C
1744 20-06-2009 12:57:50 21.1 C 33 % 4.22 C
1745 20-06-2009 13:09:50 21.4 C 33 % 4.48 C
1746 20-06-2009 13:21:49 19.6 C 37 % 4.53 C
1747 20-06-2009 13:33:50 17.8 C 44 % 5.4 C
1748 20-06-2009 13:45:49 14.5 C 50 % 4.21 C
1749 20-06-2009 13:57:49 12.6 C 75 % 8.29 C
1750 20-06-2009 14:09:49 13.4 C 84 % 10.75 C
Sensor: Nr:Datum:Temp:Feuchte:Taupunkt:
Aussen-T/F 1751 20-06-2009 14:21:49 14.8 C 83 % 11.94 C
1752 20-06-2009 14:33:49 15 C 78 % 11.2 C
1753 20-06-2009 14:45:49 15.6 C 77 % 11.59 C
1754 20-06-2009 14:57:49 16.4 C 71 % 11.13 C
1755 20-06-2009 15:09:49 17.1 C 69 % 11.37 C
1756 20-06-2009 15:21:49 17.4 C 68 % 11.44 C
1757 20-06-2009 15:33:48 16 C 68 % 10.1 C
1758 20-06-2009 15:45:48 14.6 C 79 % 11 C
1759 20-06-2009 15:57:48 14.7 C 82 % 11.66 C
1760 20-06-2009 16:09:48 15.6 C 83 % 12.72 C
1761 20-06-2009 16:21:48 16.4 C 77 % 12.36 C
1762 20-06-2009 16:33:48 16.1 C 74 % 11.47 C
1763 20-06-2009 16:45:48 16.1 C 73 % 11.26 C
1764 20-06-2009 16:57:48 17 C 65 % 10.38 C
1765 20-06-2009 17:09:48 17.3 C 61 % 9.71 C
1766 20-06-2009 17:21:47 17 C 62 % 9.67 C
1767 20-06-2009 17:33:47 16.8 C 66 % 10.42 C
1768 20-06-2009 17:45:47 16.4 C 68 % 10.48 C
1769 20-06-2009 17:57:47 16 C 71 % 10.75 C
1770 20-06-2009 18:09:47 17.3 C 62 % 9.96 C
1771 20-06-2009 18:21:46 18 C 52 % 8.01 C
1772 20-06-2009 18:33:47 17.7 C 57 % 9.08 C
1773 20-06-2009 18:45:46 17.8 C 52 % 7.82 C
1774 20-06-2009 18:57:46 17.9 C 54 % 8.47 C
1775 20-06-2009 19:09:46 17.8 C 56 % 8.91 C
Sensor: Nr:Datum:Temp:Feuchte:Taupunkt:
Aussen-T/F 1776 20-06-2009 19:21:47 18.3 C 55 % 9.11 C
1777 20-06-2009 19:33:46 17.8 C 56 % 8.91 C
1778 20-06-2009 19:45:46 16.7 C 60 % 8.9 C
1779 20-06-2009 19:57:46 15.5 C 68 % 9.63 C
1780 20-06-2009 20:09:45 14.9 C 73 % 10.11 C
1781 20-06-2009 20:21:46 15.4 C 70 % 9.96 C
1782 20-06-2009 20:33:46 16 C 63 % 8.97 C
1783 20-06-2009 20:45:45 15.9 C 62 % 8.64 C
1784 20-06-2009 20:57:45 15.3 C 64 % 8.54 C
1785 20-06-2009 21:09:45 15 C 64 % 8.25 C
1786 20-06-2009 21:21:45 14.5 C 63 % 7.55 C
1787 20-06-2009 21:33:45 14.3 C 61 % 6.89 C
1788 20-06-2009 21:45:45 14.2 C 57 % 5.81 C
1789 20-06-2009 21:57:45 14.1 C 56 % 5.46 C
1790 20-06-2009 22:09:45 14.1 C 59 % 6.22 C
1791 20-06-2009 22:21:44 13.9 C 60 % 6.27 C
1792 20-06-2009 22:33:45 14 C 60 % 6.37 C
1793 20-06-2009 22:45:44 13.9 C 62 % 6.75 C
1794 20-06-2009 22:57:44 13.9 C 62 % 6.75 C
1795 20-06-2009 23:09:44 13.8 C 63 % 6.89 C
1796 20-06-2009 23:21:43 13.8 C 65 % 7.34 C
1797 20-06-2009 23:33:44 13.7 C 66 % 7.47 C
1798 20-06-2009 23:45:43 13.5 C 66 % 7.28 C
1799 20-06-2009 23:57:43 13.6 C 61 % 6.23 C
1800 21-06-2009 00:09:43 13.6 C 61 % 6.23 C
Sensor: Nr:Datum:Temp:Feuchte:Taupunkt:
Aussen-T/F 1801 21-06-2009 00:21:43 13.5 C 61 % 6.14 C
1802 21-06-2009 00:33:43 13.4 C 61 % 6.04 C
1803 21-06-2009 00:45:43 13.3 C 62 % 6.18 C
1804 21-06-2009 00:57:43 13.2 C 61 % 5.85 C
1805 21-06-2009 01:09:43 13.2 C 60 % 5.61 C
1806 21-06-2009 01:21:42 13.2 C 60 % 5.61 C
1807 21-06-2009 01:34:44 13 C 61 % 5.66 C
1808 21-06-2009 01:46:44 12.5 C 64 % 5.88 C
1809 21-06-2009 01:58:44 12.3 C 65 % 5.92 C
1810 21-06-2009 02:10:45 12.1 C 66 % 5.95 C
1811 21-06-2009 02:22:45 11.8 C 69 % 6.31 C
1812 21-06-2009 02:34:45 11.5 C 70 % 6.23 C
1813 21-06-2009 02:46:45 11.4 C 73 % 6.74 C
1814 21-06-2009 02:58:45 11.3 C 75 % 7.04 C
1815 21-06-2009 03:10:45 11 C 77 % 7.13 C
1816 21-06-2009 03:22:45 10.8 C 79 % 7.31 C
1817 21-06-2009 03:34:45 10.8 C 80 % 7.49 C
1818 21-06-2009 03:46:45 10.9 C 79 % 7.41 C
1819 21-06-2009 03:58:45 10.6 C 79 % 7.11 C
1820 21-06-2009 04:10:45 10.3 C 80 % 7.01 C
1821 21-06-2009 04:22:45 10.1 C 80 % 6.81 C
1822 21-06-2009 04:34:45 9.9 C 84 % 7.33 C
1823 21-06-2009 04:46:45 10 C 84 % 7.43 C
1824 21-06-2009 04:58:45 10 C 84 % 7.43 C
1825 21-06-2009 05:10:45 9.9 C 85 % 7.5 C
Sensor: Nr:Datum:Temp:Feuchte:Taupunkt:
Aussen-T/F 1826 21-06-2009 05:22:45 9.8 C 86 % 7.57 C
1827 21-06-2009 05:34:45 9.8 C 86 % 7.57 C
1828 21-06-2009 05:46:45 9.8 C 86 % 7.57 C
1829 21-06-2009 05:58:46 10 C 84 % 7.43 C
1830 21-06-2009 06:10:46 9.9 C 86 % 7.67 C
1831 21-06-2009 06:22:46 9.8 C 87 % 7.74 C
1832 21-06-2009 06:34:46 10.1 C 86 % 7.87 C
1833 21-06-2009 06:46:46 10.2 C 85 % 7.79 C
1834 21-06-2009 06:58:46 10.4 C 84 % 7.82 C
1835 21-06-2009 07:10:46 10.6 C 84 % 8.01 C
1836 21-06-2009 07:22:46 11 C 83 % 8.23 C
1837 21-06-2009 07:34:46 11.3 C 82 % 8.34 C
1838 21-06-2009 07:46:46 11.5 C 83 % 8.72 C
1839 21-06-2009 07:58:46 11.7 C 81 % 8.55 C
1840 21-06-2009 08:10:46 11.6 C 81 % 8.45 C
1841 21-06-2009 08:22:46 12.1 C 79 % 8.57 C
1842 21-06-2009 08:34:46 12.3 C 78 % 8.58 C
1843 21-06-2009 08:46:46 12.8 C 76 % 8.68 C
1844 21-06-2009 08:58:46 13.4 C 72 % 8.46 C
1845 21-06-2009 09:10:44 14.4 C 67 % 8.36 C
1846 21-06-2009 09:22:43 14.7 C 64 % 7.97 C
1847 21-06-2009 09:34:44 15.3 C 61 % 7.83 C
1848 21-06-2009 09:46:43 15.4 C 60 % 7.68 C
1849 21-06-2009 09:58:43 15.5 C 60 % 7.78 C
1850 21-06-2009 10:10:43 16.2 C 58 % 7.94 C
Sensor: Nr:Datum:Temp:Feuchte:Taupunkt:
Aussen-T/F 1851 21-06-2009 10:22:43 16.5 C 55 % 7.44 C
1852 21-06-2009 10:34:43 16.4 C 55 % 7.35 C
1853 21-06-2009 10:46:43 16.8 C 54 % 7.45 C
1854 21-06-2009 10:58:43 16.8 C 54 % 7.45 C
1855 21-06-2009 11:10:42 17.8 C 52 % 7.82 C
1856 21-06-2009 11:22:43 17.7 C 48 % 6.56 C
1857 21-06-2009 11:34:42 16 C 51 % 5.88 C
1858 21-06-2009 11:46:42 14.2 C 62 % 7.03 C
1859 21-06-2009 11:58:42 13.3 C 72 % 8.36 C
1860 21-06-2009 12:10:42 13.3 C 77 % 9.36 C
1861 21-06-2009 12:22:42 13.7 C 79 % 10.13 C
1862 21-06-2009 12:34:42 15.6 C 75 % 11.19 C
1863 21-06-2009 12:46:42 14.9 C 69 % 9.27 C
1864 21-06-2009 12:58:42 12.8 C 76 % 8.68 C
1865 21-06-2009 13:10:42 12.8 C 83 % 9.99 C
1866 21-06-2009 13:22:41 12.5 C 85 % 10.05 C
1867 21-06-2009 13:34:41 12.5 C 86 % 10.22 C
1868 21-06-2009 13:46:41 12.4 C 87 % 10.3 C
1869 21-06-2009 13:58:41 13.3 C 88 % 11.36 C
1870 21-06-2009 14:10:41 14.2 C 87 % 12.07 C
1871 21-06-2009 14:22:40 14 C 83 % 11.16 C
1872 21-06-2009 14:34:41 13.9 C 82 % 10.88 C
1873 21-06-2009 14:46:40 13.9 C 81 % 10.7 C
1874 21-06-2009 14:58:40 14.3 C 82 % 11.27 C
1875 21-06-2009 15:10:40 14.8 C 83 % 11.94 C
Sensor: Nr:Datum:Temp:Feuchte:Taupunkt:
Aussen-T/F 1876 21-06-2009 15:22:40 14.9 C 84 % 12.22 C
1877 21-06-2009 15:34:40 15 C 82 % 11.95 C
1878 21-06-2009 15:46:39 15.9 C 81 % 12.65 C
1879 21-06-2009 15:58:39 16.9 C 72 % 11.82 C
1880 21-06-2009 16:10:40 17.2 C 64 % 10.34 C
1881 21-06-2009 16:22:40 17.4 C 62 % 10.05 C
1882 21-06-2009 16:34:39 18.1 C 62 % 10.71 C
1883 21-06-2009 16:46:40 18 C 56 % 9.1 C
1884 21-06-2009 16:58:40 18 C 54 % 8.56 C
1885 21-06-2009 17:10:39 18.1 C 57 % 9.46 C
1886 21-06-2009 17:22:39 19 C 52 % 8.93 C
1887 21-06-2009 17:34:38 19.8 C 46 % 7.86 C
1888 21-06-2009 17:46:39 21.1 C 41 % 7.35 C
1889 21-06-2009 17:58:40 20.1 C 41 % 6.45 C
1890 21-06-2009 18:10:38 19.1 C 52 % 9.02 C
1891 21-06-2009 18:22:38 19.2 C 53 % 9.4 C
1892 21-06-2009 18:34:39 19.3 C 50 % 8.63 C
1893 21-06-2009 18:46:38 18.2 C 49 % 7.32 C
1894 21-06-2009 18:58:38 14.3 C 66 % 8.04 C
1895 21-06-2009 19:10:38 12.8 C 78 % 9.06 C
1896 21-06-2009 19:22:38 12.5 C 84 % 9.87 C
1897 21-06-2009 19:34:38 12.5 C 86 % 10.22 C
1898 21-06-2009 19:46:37 13.2 C 86 % 10.91 C
1899 21-06-2009 19:58:37 13.8 C 84 % 11.15 C
1900 21-06-2009 20:10:38 14.1 C 84 % 11.44 C
Sensor: Nr:Datum:Temp:Feuchte:Taupunkt:
Aussen-T/F 1901 21-06-2009 20:22:37 13.5 C 83 % 10.67 C
1902 21-06-2009 20:34:37 13.3 C 84 % 10.66 C
1903 21-06-2009 20:46:37 13.1 C 84 % 10.46 C
1904 21-06-2009 20:58:37 13.1 C 84 % 10.46 C
1905 21-06-2009 21:10:36 12.6 C 84 % 9.97 C
1906 21-06-2009 21:22:37 12.4 C 85 % 9.95 C
1907 21-06-2009 21:34:37 11.7 C 85 % 9.27 C
1908 21-06-2009 21:46:36 11.3 C 87 % 9.22 C
1909 21-06-2009 21:58:36 11.1 C 87 % 9.02 C
1910 21-06-2009 22:10:37 11.1 C 88 % 9.19 C
1911 21-06-2009 22:22:36 11 C 88 % 9.09 C
1912 21-06-2009 22:35:37 10.8 C 89 % 9.06 C
1913 21-06-2009 22:47:38 10.8 C 89 % 9.06 C
1914 21-06-2009 22:59:38 11 C 89 % 9.26 C
1915 21-06-2009 23:11:38 11.1 C 90 % 9.52 C
1916 21-06-2009 23:23:38 11.1 C 90 % 9.52 C
1917 21-06-2009 23:35:38 10.9 C 90 % 9.33 C
1918 21-06-2009 23:47:38 11 C 90 % 9.42 C
1919 21-06-2009 23:59:38 11.2 C 90 % 9.62 C
1920 22-06-2009 00:11:38 11.4 C 90 % 9.82 C
1921 22-06-2009 00:23:38 11.4 C 90 % 9.82 C
1922 22-06-2009 00:35:38 11.1 C 89 % 9.36 C
1923 22-06-2009 00:47:38 10.7 C 89 % 8.96 C
1924 22-06-2009 00:59:38 10.3 C 89 % 8.57 C
1925 22-06-2009 01:11:38 10 C 88 % 8.11 C
Sensor: Nr:Datum:Temp:Feuchte:Taupunkt:
Aussen-T/F 1926 22-06-2009 01:23:38 9.9 C 90 % 8.34 C
1927 22-06-2009 01:35:38 10 C 89 % 8.27 C
1928 22-06-2009 01:47:38 10.1 C 90 % 8.54 C
1929 22-06-2009 01:59:38 10.2 C 90 % 8.64 C
1930 22-06-2009 02:11:38 10.2 C 90 % 8.64 C
1931 22-06-2009 02:23:38 10 C 90 % 8.44 C
1932 22-06-2009 02:35:39 9.8 C 91 % 8.4 C
1933 22-06-2009 02:47:39 10 C 90 % 8.44 C
1934 22-06-2009 02:59:39 10.1 C 90 % 8.54 C
1935 22-06-2009 03:11:39 10.3 C 89 % 8.57 C
1936 22-06-2009 03:23:39 10.4 C 89 % 8.67 C
1937 22-06-2009 03:35:39 10.3 C 88 % 8.4 C
1938 22-06-2009 03:47:39 10.5 C 87 % 8.43 C
1939 22-06-2009 03:59:39 10.6 C 86 % 8.36 C
1940 22-06-2009 04:11:39 10.5 C 86 % 8.26 C
1941 22-06-2009 04:23:39 10.4 C 86 % 8.16 C
1942 22-06-2009 04:35:39 10.4 C 85 % 7.99 C
1943 22-06-2009 04:47:39 10.4 C 84 % 7.82 C
1944 22-06-2009 04:59:39 10.4 C 85 % 7.99 C
1945 22-06-2009 05:11:39 10.4 C 84 % 7.82 C
1946 22-06-2009 05:23:39 10.5 C 84 % 7.91 C
1947 22-06-2009 05:35:39 10.5 C 84 % 7.91 C
1948 22-06-2009 05:47:39 10.4 C 84 % 7.82 C
1949 22-06-2009 05:59:39 10.4 C 85 % 7.99 C
1950 22-06-2009 06:11:39 10.5 C 85 % 8.09 C
Sensor: Nr:Datum:Temp:Feuchte:Taupunkt:
Aussen-T/F 1951 22-06-2009 06:23:39 10.6 C 84 % 8.01 C
1952 22-06-2009 06:35:40 10.7 C 84 % 8.11 C
1953 22-06-2009 06:47:40 10.8 C 84 % 8.21 C
1954 22-06-2009 06:59:40 10.9 C 83 % 8.13 C
1955 22-06-2009 07:11:37 11 C 83 % 8.23 C
1956 22-06-2009 07:23:37 11.2 C 83 % 8.42 C
1957 22-06-2009 07:35:37 11.5 C 83 % 8.72 C
1958 22-06-2009 07:47:37 11.8 C 82 % 8.83 C
1959 22-06-2009 07:59:37 11.8 C 79 % 8.28 C
1960 22-06-2009 08:11:36 12.1 C 78 % 8.38 C
1961 22-06-2009 08:23:37 12.2 C 75 % 7.91 C
1962 22-06-2009 08:35:37 12.5 C 75 % 8.19 C
1963 22-06-2009 08:47:36 12.8 C 73 % 8.09 C
1964 22-06-2009 08:59:36 13.4 C 68 % 7.62 C
1965 22-06-2009 09:11:36 13.4 C 68 % 7.62 C
1966 22-06-2009 09:23:36 13.7 C 66 % 7.47 C
1967 22-06-2009 09:35:36 14 C 59 % 6.12 C
1968 22-06-2009 09:47:35 15 C 55 % 6.04 C
1969 22-06-2009 09:59:35 14.9 C 53 % 5.42 C
1970 22-06-2009 10:11:36 14.6 C 54 % 5.41 C
1971 22-06-2009 10:23:35 14.9 C 53 % 5.42 C
1972 22-06-2009 10:35:35 14.6 C 54 % 5.41 C
1973 22-06-2009 10:47:35 14.8 C 55 % 5.86 C
1974 22-06-2009 10:59:35 15.4 C 50 % 5.04 C
1975 22-06-2009 11:11:35 16 C 46 % 4.4 C
Sensor: Nr:Datum:Temp:Feuchte:Taupunkt:
Aussen-T/F 1976 22-06-2009 11:23:35 16.3 C 47 % 4.98 C
1977 22-06-2009 11:35:34 16.5 C 44 % 4.22 C
1978 22-06-2009 11:47:35 17.1 C 44 % 4.76 C
1979 22-06-2009 11:59:35 16.8 C 44 % 4.49 C
1980 22-06-2009 12:11:34 16.5 C 44 % 4.22 C
1981 22-06-2009 12:23:34 16.3 C 45 % 4.36 C
1982 22-06-2009 12:35:34 18.9 C 41 % 5.37 C
1983 22-06-2009 12:47:34 21.4 C 31 % 3.59 C
1984 22-06-2009 12:59:34 20.1 C 31 % 2.46 C
1985 22-06-2009 13:11:33 18 C 37 % 3.11 C
1986 22-06-2009 13:23:34 18 C 36 % 2.72 C
1987 22-06-2009 13:35:34 18.4 C 39 % 4.21 C
1988 22-06-2009 13:47:33 18.9 C 35 % 3.12 C
1989 22-06-2009 13:59:33 17.7 C 38 % 3.22 C
1990 22-06-2009 14:11:34 17.3 C 41 % 3.94 C
1991 22-06-2009 14:23:33 18.5 C 38 % 3.93 C
1992 22-06-2009 14:35:33 18.8 C 38 % 4.2 C
1993 22-06-2009 14:47:32 19 C 36 % 3.61 C
1994 22-06-2009 14:59:32 18.5 C 36 % 3.17 C
1995 22-06-2009 15:11:33 18 C 39 % 3.85 C
1996 22-06-2009 15:23:32 17.5 C 41 % 4.12 C
1997 22-06-2009 15:35:32 18.1 C 39 % 3.94 C
1998 22-06-2009 15:47:32 17.9 C 40 % 4.12 C
1999 22-06-2009 15:59:32 18.4 C 38 % 3.84 C
2000 22-06-2009 16:11:32 18.5 C 37 % 3.55 C
Sensor: Nr:Datum:Temp:Feuchte:Taupunkt:
Aussen-T/F 2001 22-06-2009 16:23:32 18.9 C 36 % 3.52 C
2002 22-06-2009 16:35:32 20.1 C 35 % 4.18 C
2003 22-06-2009 16:47:32 19.9 C 35 % 4 C
2004 22-06-2009 16:59:32 19.8 C 34 % 3.5 C
2005 22-06-2009 17:11:31 21.4 C 32 % 4.04 C
2006 22-06-2009 17:23:31 21.1 C 31 % 3.33 C
2007 22-06-2009 17:35:31 20.2 C 33 % 3.43 C
2008 22-06-2009 17:47:31 19.8 C 35 % 3.91 C
2009 22-06-2009 17:59:32 22.4 C 30 % 3.99 C
2010 22-06-2009 18:11:30 23.8 C 26 % 3.16 C
2011 22-06-2009 18:23:31 22.5 C 28 % 3.1 C
2012 22-06-2009 18:35:31 21.2 C 30 % 2.95 C
2013 22-06-2009 18:47:30 22.1 C 29 % 3.25 C
2014 22-06-2009 18:59:30 22.7 C 28 % 3.27 C
2015 22-06-2009 19:11:31 21.1 C 31 % 3.33 C
2016 22-06-2009 19:23:30 20.8 C 33 % 3.95 C
2017 22-06-2009 19:35:30 20.5 C 32 % 3.26 C
2018 22-06-2009 19:47:30 20.6 C 34 % 4.2 C
2019 22-06-2009 19:59:30 20.8 C 34 % 4.38 C
2020 22-06-2009 20:11:30 19.8 C 35 % 3.91 C
2021 22-06-2009 20:23:29 19.1 C 37 % 4.08 C
2022 22-06-2009 20:35:29 18.7 C 38 % 4.11 C
2023 22-06-2009 20:47:29 18.5 C 42 % 5.36 C
2024 22-06-2009 20:59:29 18.2 C 41 % 4.75 C
2025 22-06-2009 21:11:29 17.9 C 43 % 5.16 C
Sensor: Nr:Datum:Temp:Feuchte:Taupunkt:
Aussen-T/F 2026 22-06-2009 21:23:29 17.6 C 45 % 5.54 C
2027 22-06-2009 21:35:28 17.2 C 47 % 5.8 C
2028 22-06-2009 21:47:29 17 C 45 % 4.99 C
2029 22-06-2009 21:59:29 16.8 C 46 % 5.13 C
2030 22-06-2009 22:11:28 16.6 C 50 % 6.15 C
2031 22-06-2009 22:23:28 16.2 C 51 % 6.06 C
2032 22-06-2009 22:36:12 15.8 C 54 % 6.52 C
2033 22-06-2009 22:48:12 15.3 C 56 % 6.58 C
2034 22-06-2009 23:00:12 14.7 C 60 % 7.03 C
2035 22-06-2009 23:12:12 14.4 C 61 % 6.98 C
2036 22-06-2009 23:24:12 14 C 61 % 6.61 C
2037 22-06-2009 23:36:12 13.9 C 64 % 7.21 C
2038 22-06-2009 23:48:12 13.7 C 64 % 7.02 C
2039 23-06-2009 00:00:12 13.6 C 64 % 6.93 C
2040 23-06-2009 00:12:12 13.6 C 66 % 7.38 C
2041 23-06-2009 00:24:12 13.6 C 65 % 7.15 C
2042 23-06-2009 00:36:12 13.4 C 66 % 7.19 C
2043 23-06-2009 00:48:12 13.3 C 66 % 7.09 C
2044 23-06-2009 01:00:12 13.3 C 65 % 6.87 C
2045 23-06-2009 01:12:13 13.3 C 67 % 7.31 C
2046 23-06-2009 01:24:13 13.2 C 67 % 7.21 C
2047 23-06-2009 01:36:13 13.2 C 67 % 7.21 C
2048 23-06-2009 01:48:13 13 C 68 % 7.24 C
2049 23-06-2009 02:00:13 12.7 C 71 % 7.58 C
2050 23-06-2009 02:12:13 12.4 C 72 % 7.5 C
Sensor: Nr:Datum:Temp:Feuchte:Taupunkt:
Aussen-T/F 2051 23-06-2009 02:24:13 12.2 C 74 % 7.71 C
2052 23-06-2009 02:36:13 12.2 C 74 % 7.71 C
2053 23-06-2009 02:48:13 12.1 C 74 % 7.61 C
2054 23-06-2009 03:00:13 12 C 74 % 7.52 C
2055 23-06-2009 03:12:13 12 C 74 % 7.52 C
2056 23-06-2009 03:24:13 11.8 C 76 % 7.71 C
2057 23-06-2009 03:36:13 11.5 C 76 % 7.42 C
2058 23-06-2009 03:48:13 11.5 C 77 % 7.61 C
2059 23-06-2009 04:00:13 11.4 C 78 % 7.71 C
2060 23-06-2009 04:12:13 11.3 C 78 % 7.61 C
2061 23-06-2009 04:24:13 11.1 C 78 % 7.41 C
2062 23-06-2009 04:36:13 11.1 C 79 % 7.6 C
2063 23-06-2009 04:48:13 11 C 80 % 7.69 C
2064 23-06-2009 05:00:13 11.1 C 80 % 7.79 C
2065 23-06-2009 05:12:14 10.9 C 81 % 7.77 C
2066 23-06-2009 05:24:14 10.8 C 81 % 7.67 C
2067 23-06-2009 05:36:14 10.7 C 82 % 7.76 C
2068 23-06-2009 05:48:14 10.6 C 82 % 7.66 C
2069 23-06-2009 06:00:14 10.8 C 83 % 8.03 C
2070 23-06-2009 06:12:29 11.1 C 82 % 8.15 C
2071 23-06-2009 06:24:28 11.3 C 82 % 8.34 C
2072 23-06-2009 06:36:28 11.6 C 82 % 8.64 C
2073 23-06-2009 06:48:28 11.8 C 81 % 8.65 C
2074 23-06-2009 07:00:28 12.1 C 79 % 8.57 C
2075 23-06-2009 07:12:28 12.5 C 78 % 8.77 C
Sensor: Nr:Datum:Temp:Feuchte:Taupunkt:
Aussen-T/F 2076 23-06-2009 07:24:28 12.8 C 77 % 8.87 C
2077 23-06-2009 07:36:28 13 C 74 % 8.48 C
2078 23-06-2009 07:48:27 12.8 C 75 % 8.48 C
2079 23-06-2009 08:00:28 12.7 C 75 % 8.39 C
2080 23-06-2009 08:12:28 12.9 C 75 % 8.58 C
2081 23-06-2009 08:24:27 13.1 C 74 % 8.58 C
2082 23-06-2009 08:36:27 13.4 C 73 % 8.66 C
2083 23-06-2009 08:48:27 13.8 C 72 % 8.85 C
2084 23-06-2009 09:00:27 14 C 69 % 8.41 C
2085 23-06-2009 09:12:27 14.6 C 68 % 8.77 C
2086 23-06-2009 09:24:26 14.9 C 65 % 8.39 C
2087 23-06-2009 09:36:27 15.4 C 62 % 8.16 C
2088 23-06-2009 09:48:26 16.2 C 59 % 8.19 C
2089 23-06-2009 10:00:26 16.6 C 54 % 7.26 C
2090 23-06-2009 10:12:26 17.1 C 55 % 8 C
2091 23-06-2009 10:24:02 17.2 C 55 % 8.09 C
2092 23-06-2009 10:36:02 17.5 C 54 % 8.1 C
2093 23-06-2009 10:48:01 18 C 50 % 7.43 C
2094 23-06-2009 11:00:01 18.2 C 48 % 7.02 C
2095 23-06-2009 11:12:02 19.4 C 45 % 7.17 C
2096 23-06-2009 11:24:02 20.2 C 42 % 6.89 C
2097 23-06-2009 11:36:01 20.1 C 43 % 7.14 C
2098 23-06-2009 11:48:02 21.2 C 43 % 8.13 C
2099 23-06-2009 12:00:02 20.8 C 41 % 7.08 C
2100 23-06-2009 12:12:01 21.8 C 36 % 6.08 C
Sensor: Nr:Datum:Temp:Feuchte:Taupunkt:
Aussen-T/F 2101 23-06-2009 12:24:01 21.5 C 36 % 5.81 C
2102 23-06-2009 12:36:00 23.2 C 31 % 5.15 C
2103 23-06-2009 12:48:01 24.2 C 29 % 5.06 C
2104 23-06-2009 13:00:01 24 C 29 % 4.88 C
2105 23-06-2009 13:12:00 24.8 C 28 % 5.07 C
2106 23-06-2009 13:24:00 24.5 C 28 % 4.81 C
2107 23-06-2009 13:36:01 24.1 C 29 % 4.97 C
2108 23-06-2009 13:48:00 24.9 C 27 % 4.63 C
2109 23-06-2009 14:00:00 23.8 C 27 % 3.7 C
2110 23-06-2009 14:12:00 24.4 C 26 % 3.67 C
2111 23-06-2009 14:24:00 24.3 C 27 % 4.12 C
2112 23-06-2009 14:36:00 25.2 C 26 % 4.35 C
2113 23-06-2009 14:48:59 24.7 C 25 % 3.37 C
2114 23-06-2009 14:59:59 24.6 C 25 % 3.29 C
2115 23-06-2009 15:12:00 24.6 C 25 % 3.29 C
2116 23-06-2009 15:24:59 25.1 C 25 % 3.71 C
2117 23-06-2009 15:36:59 26.6 C 22 % 3.15 C
2118 23-06-2009 15:48:58 25.6 C 24 % 3.55 C
2119 23-06-2009 16:00:59 25.9 C 21 % 1.92 C
2120 23-06-2009 16:12:59 26.8 C 22 % 3.32 C
2121 23-06-2009 16:24:59 27.4 C 20 % 2.47 C
2122 23-06-2009 16:36:58 25.8 C 23 % 3.12 C
2123 23-06-2009 16:48:59 26 C 24 % 3.89 C
2124 23-06-2009 17:00:58 25.2 C 23 % 2.61 C
2125 23-06-2009 17:12:58 24.7 C 25 % 3.37 C
Sensor: Nr:Datum:Temp:Feuchte:Taupunkt:
Aussen-T/F 2126 23-06-2009 17:24:58 24.8 C 25 % 3.45 C
2127 23-06-2009 17:36:57 24.5 C 24 % 2.63 C
2128 23-06-2009 17:48:58 24.7 C 25 % 3.37 C
2129 23-06-2009 18:00:58 27.3 C 21 % 3.08 C
2130 23-06-2009 18:12:58 27.2 C 21 % 3 C
2131 23-06-2009 18:24:57 28.1 C 20 % 3.05 C
2132 23-06-2009 18:36:58 29.5 C 20 % 4.2 C
2133 23-06-2009 18:48:57 28.3 C 20 % 3.21 C
2134 23-06-2009 19:00:57 26.2 C 21 % 2.17 C
2135 23-06-2009 19:12:57 25.1 C 24 % 3.13 C
2136 23-06-2009 19:24:57 24.4 C 25 % 3.12 C
2137 23-06-2009 19:36:57 24.5 C 25 % 3.2 C
2138 23-06-2009 19:48:56 23.9 C 26 % 3.25 C
2139 23-06-2009 20:00:56 23.5 C 27 % 3.44 C
2140 23-06-2009 20:12:56 23.7 C 27 % 3.61 C
2141 23-06-2009 20:24:57 24.4 C 26 % 3.67 C
2142 23-06-2009 20:36:56 24.1 C 26 % 3.42 C
2143 23-06-2009 20:48:56 23.5 C 29 % 4.45 C
2144 23-06-2009 21:00:56 22.9 C 31 % 4.89 C
2145 23-06-2009 21:12:56 22.3 C 35 % 6.11 C
2146 23-06-2009 21:24:56 21.6 C 38 % 6.69 C
2147 23-06-2009 21:36:56 20.9 C 40 % 6.81 C
2148 23-06-2009 21:48:55 20.4 C 41 % 6.72 C
2149 23-06-2009 22:00:56 19.8 C 42 % 6.53 C
2150 23-06-2009 22:12:56 19.5 C 43 % 6.6 C
Sensor: Nr:Datum:Temp:Feuchte:Taupunkt:
Aussen-T/F 2151 23-06-2009 22:25:57 19.5 C 44 % 6.94 C
2152 23-06-2009 22:37:57 19.2 C 45 % 6.99 C
2153 23-06-2009 22:49:57 18.9 C 46 % 7.04 C
2154 23-06-2009 23:01:57 18.7 C 48 % 7.48 C
2155 23-06-2009 23:13:57 18.6 C 48 % 7.39 C
2156 23-06-2009 23:25:57 18.6 C 48 % 7.39 C
2157 23-06-2009 23:37:57 18.5 C 50 % 7.89 C
2158 23-06-2009 23:49:57 18.5 C 49 % 7.6 C
2159 24-06-2009 00:01:57 18.4 C 50 % 7.8 C
2160 24-06-2009 00:13:57 18.3 C 51 % 8 C
2161 24-06-2009 00:25:57 18.1 C 51 % 7.81 C
2162 24-06-2009 00:37:57 18.1 C 51 % 7.81 C
2163 24-06-2009 00:49:57 17.8 C 52 % 7.82 C
2164 24-06-2009 01:01:57 17.6 C 54 % 8.19 C
2165 24-06-2009 01:13:57 17.5 C 53 % 7.82 C
2166 24-06-2009 01:25:57 17.5 C 53 % 7.82 C
2167 24-06-2009 01:37:57 17.3 C 54 % 7.91 C
2168 24-06-2009 01:49:57 17 C 53 % 7.36 C
2169 24-06-2009 02:01:57 17 C 53 % 7.36 C
2170 24-06-2009 02:13:57 16.9 C 55 % 7.81 C
2171 24-06-2009 02:25:58 16.4 C 55 % 7.35 C
2172 24-06-2009 02:37:58 16.3 C 55 % 7.25 C
2173 24-06-2009 02:49:58 16.1 C 55 % 7.07 C
2174 24-06-2009 03:01:58 15.7 C 57 % 7.21 C
2175 24-06-2009 03:13:58 15.5 C 58 % 7.28 C
Sensor: Nr:Datum:Temp:Feuchte:Taupunkt:
Aussen-T/F 2176 24-06-2009 03:25:58 15.3 C 58 % 7.09 C
2177 24-06-2009 03:37:58 15 C 59 % 7.06 C
2178 24-06-2009 03:49:58 14.8 C 61 % 7.36 C
2179 24-06-2009 04:01:58 14.7 C 61 % 7.27 C
2180 24-06-2009 04:13:58 14.4 C 62 % 7.22 C
2181 24-06-2009 04:25:58 14.4 C 62 % 7.22 C
2182 24-06-2009 04:37:58 14.3 C 62 % 7.13 C
2183 24-06-2009 04:49:58 14.4 C 61 % 6.98 C
2184 24-06-2009 05:01:58 14.1 C 61 % 6.7 C
2185 24-06-2009 05:13:58 13.8 C 62 % 6.65 C
2186 24-06-2009 05:25:58 13.7 C 62 % 6.56 C
2187 24-06-2009 05:37:58 13.6 C 64 % 6.93 C
2188 24-06-2009 05:49:58 13.6 C 62 % 6.47 C
2189 24-06-2009 06:01:58 13.5 C 62 % 6.37 C
2190 24-06-2009 06:13:59 13.6 C 62 % 6.47 C
2191 24-06-2009 06:25:59 13.6 C 62 % 6.47 C
2192 24-06-2009 06:37:59 13.6 C 64 % 6.93 C
2193 24-06-2009 06:49:59 13.5 C 64 % 6.83 C
2194 24-06-2009 07:01:56 13.7 C 64 % 7.02 C
2195 24-06-2009 07:13:56 13.7 C 63 % 6.79 C
2196 24-06-2009 07:25:56 13.9 C 63 % 6.98 C
2197 24-06-2009 07:37:56 14.1 C 61 % 6.7 C
2198 24-06-2009 07:49:56 14.2 C 61 % 6.8 C
2199 24-06-2009 08:01:56 14.6 C 60 % 6.93 C
2200 24-06-2009 08:13:56 14.8 C 59 % 6.87 C
Sensor: Nr:Datum:Temp:Feuchte:Taupunkt:
Aussen-T/F 2201 24-06-2009 08:25:56 15.2 C 58 % 7 C
2202 24-06-2009 08:37:56 15.4 C 58 % 7.19 C
2203 24-06-2009 08:49:55 16 C 57 % 7.49 C
2204 24-06-2009 09:01:56 16.6 C 51 % 6.43 C
2205 24-06-2009 09:13:56 17.3 C 51 % 7.08 C
2206 24-06-2009 09:25:55 17.8 C 48 % 6.65 C
2207 24-06-2009 09:37:55 18.3 C 46 % 6.49 C
2208 24-06-2009 09:49:54 18.8 C 45 % 6.63 C
2209 24-06-2009 10:01:55 19.4 C 41 % 5.82 C
2210 24-06-2009 10:13:55 20.4 C 41 % 6.72 C
2211 24-06-2009 10:25:54 21.1 C 37 % 5.86 C
2212 24-06-2009 10:37:54 21.5 C 33 % 4.57 C
2213 24-06-2009 10:49:54 22 C 31 % 4.11 C
2214 24-06-2009 11:01:54 22.4 C 30 % 3.99 C
2215 24-06-2009 11:13:54 22.8 C 30 % 4.34 C
2216 24-06-2009 11:25:54 23.2 C 30 % 4.68 C
2217 24-06-2009 11:37:54 23.8 C 28 % 4.21 C
2218 24-06-2009 11:49:54 24.6 C 25 % 3.29 C
2219 24-06-2009 12:01:53 25.6 C 26 % 4.69 C
2220 24-06-2009 12:13:53 26 C 23 % 3.28 C
2221 24-06-2009 12:25:54 26.4 C 24 % 4.22 C
2222 24-06-2009 12:37:53 27.2 C 21 % 3 C
2223 24-06-2009 12:49:53 27.7 C 21 % 3.41 C
2224 24-06-2009 13:01:52 28.5 C 20 % 3.38 C
2225 24-06-2009 13:13:52 29 C 20 % 3.79 C
Sensor: Nr:Datum:Temp:Feuchte:Taupunkt:
Aussen-T/F 2226 24-06-2009 13:25:53 29.5 C 20 % 4.2 C
2227 24-06-2009 13:37:53 29.8 C 20 % 4.44 C
2228 24-06-2009 13:49:52 29.7 C 20 % 4.36 C
2229 24-06-2009 14:01:53 29.5 C 20 % 4.2 C
2230 24-06-2009 14:13:53 28.6 C 20 % 3.46 C
2231 24-06-2009 14:25:52 28.1 C 21 % 3.74 C
2232 24-06-2009 14:37:52 28.5 C 23 % 5.37 C
2233 24-06-2009 14:49:52 28.8 C 21 % 4.32 C
2234 24-06-2009 15:01:52 29.4 C 20 % 4.11 C
2235 24-06-2009 15:13:52 29.9 C 20 % 4.52 C
2236 24-06-2009 15:25:51 30.3 C 20 % 4.85 C
2237 24-06-2009 15:37:51 30.1 C 20 % 4.69 C
2238 24-06-2009 15:49:52 30.4 C 20 % 4.93 C
2239 24-06-2009 16:01:51 30.6 C 20 % 5.1 C
2240 24-06-2009 16:13:51 30.9 C 20 % 5.34 C
2241 24-06-2009 16:25:51 31.2 C 20 % 5.59 C
2242 24-06-2009 16:37:51 31.2 C 20 % 5.59 C
2243 24-06-2009 16:49:51 31.3 C 20 % 5.67 C
2244 24-06-2009 17:01:50 31.7 C 20 % 6 C
2245 24-06-2009 17:13:50 31.8 C 20 % 6.08 C
2246 24-06-2009 17:25:51 31.7 C 20 % 6 C
2247 24-06-2009 17:37:51 32.3 C 20 % 6.49 C
2248 24-06-2009 17:49:50 31.9 C 20 % 6.16 C
2249 24-06-2009 18:01:50 32.1 C 20 % 6.32 C
2250 24-06-2009 18:13:50 32.1 C 20 % 6.32 C
Sensor: Nr:Datum:Temp:Feuchte:Taupunkt:
Aussen-T/F 2251 24-06-2009 18:25:50 31.7 C 20 % 6 C
2252 24-06-2009 18:37:50 31.2 C 20 % 5.59 C
2253 24-06-2009 18:49:49 30.5 C 20 % 5.01 C
2254 24-06-2009 19:01:50 30 C 22 % 5.97 C
2255 24-06-2009 19:13:51 29 C 24 % 6.4 C
2256 24-06-2009 19:25:49 30.7 C 20 % 5.18 C
2257 24-06-2009 19:37:49 30.2 C 21 % 5.47 C
2258 24-06-2009 19:49:49 28.6 C 26 % 7.23 C
2259 24-06-2009 20:01:49 28.3 C 28 % 8.06 C
2260 24-06-2009 20:13:49 27.3 C 30 % 8.21 C
2261 24-06-2009 20:25:49 26.5 C 31 % 8.01 C
2262 24-06-2009 20:37:48 25.8 C 32 % 7.87 C
2263 24-06-2009 20:49:49 24.9 C 35 % 8.4 C
2264 24-06-2009 21:01:48 24.4 C 35 % 7.96 C
2265 24-06-2009 21:13:48 24 C 36 % 8.02 C
2266 24-06-2009 21:25:48 23.7 C 37 % 8.16 C
2267 24-06-2009 21:37:48 23.7 C 38 % 8.55 C
2268 24-06-2009 21:49:48 23.8 C 39 % 9.02 C
2269 24-06-2009 22:02:01 23.6 C 39 % 8.84 C
2270 24-06-2009 22:14:01 23.5 C 40 % 9.13 C
2271 24-06-2009 22:26:01 23.3 C 39 % 8.58 C
2272 24-06-2009 22:38:01 23.3 C 39 % 8.58 C
2273 24-06-2009 22:50:01 23.1 C 38 % 8.02 C
2274 24-06-2009 23:02:02 22.7 C 40 % 8.42 C
2275 24-06-2009 23:14:02 22.5 C 41 % 8.6 C
Sensor: Nr:Datum:Temp:Feuchte:Taupunkt:
Aussen-T/F 2276 24-06-2009 23:26:02 22.4 C 41 % 8.51 C
2277 24-06-2009 23:38:02 21.9 C 44 % 9.1 C
2278 24-06-2009 23:50:02 21.6 C 44 % 8.83 C
2279 25-06-2009 00:02:02 21.4 C 45 % 8.99 C
2280 25-06-2009 00:14:02 21.3 C 45 % 8.89 C
2281 25-06-2009 00:26:02 21.5 C 46 % 9.4 C
2282 25-06-2009 00:38:02 21.4 C 47 % 9.63 C
2283 25-06-2009 00:50:02 20.9 C 50 % 10.1 C
2284 25-06-2009 01:02:02 20.7 C 50 % 9.91 C
2285 25-06-2009 01:14:02 20.6 C 50 % 9.82 C
2286 25-06-2009 01:26:02 20.2 C 50 % 9.45 C
2287 25-06-2009 01:38:02 19.7 C 52 % 9.58 C
2288 25-06-2009 01:50:02 19.3 C 53 % 9.49 C
2289 25-06-2009 02:02:02 19.1 C 55 % 9.86 C
2290 25-06-2009 02:14:02 18.8 C 57 % 10.11 C
2291 25-06-2009 02:26:02 18.7 C 57 % 10.02 C
2292 25-06-2009 02:38:02 18.5 C 57 % 9.83 C
2293 25-06-2009 02:50:02 18.2 C 58 % 9.81 C
2294 25-06-2009 03:02:03 18.1 C 59 % 9.97 C
2295 25-06-2009 03:14:03 17.9 C 61 % 10.28 C
2296 25-06-2009 03:26:03 17.7 C 62 % 10.33 C
2297 25-06-2009 03:38:03 17.4 C 63 % 10.29 C
2298 25-06-2009 03:50:03 17.1 C 66 % 10.7 C
2299 25-06-2009 04:02:03 16.7 C 67 % 10.55 C
2300 25-06-2009 04:14:03 16.7 C 66 % 10.32 C
Sensor: Nr:Datum:Temp:Feuchte:Taupunkt:
Aussen-T/F 2301 25-06-2009 04:26:03 16.7 C 66 % 10.32 C
2302 25-06-2009 04:38:03 16.5 C 65 % 9.9 C
2303 25-06-2009 04:50:03 16.4 C 65 % 9.81 C
2304 25-06-2009 05:02:03 16.3 C 66 % 9.94 C
2305 25-06-2009 05:14:03 16.1 C 66 % 9.75 C
2306 25-06-2009 05:26:03 15.9 C 68 % 10.01 C
2307 25-06-2009 05:38:03 15.9 C 68 % 10.01 C
2308 25-06-2009 05:50:03 16 C 66 % 9.66 C
2309 25-06-2009 06:02:03 16.1 C 66 % 9.75 C
2310 25-06-2009 06:14:03 16.1 C 67 % 9.98 C
2311 25-06-2009 06:26:01 16.1 C 68 % 10.2 C
2312 25-06-2009 06:38:02 16.2 C 68 % 10.29 C
2313 25-06-2009 06:50:01 16.1 C 69 % 10.42 C
2314 25-06-2009 07:02:01 16.3 C 69 % 10.61 C
2315 25-06-2009 07:14:01 16.4 C 69 % 10.7 C
2316 25-06-2009 07:26:01 16.6 C 68 % 10.67 C
2317 25-06-2009 07:38:00 16.6 C 67 % 10.45 C
2318 25-06-2009 07:50:01 16.9 C 67 % 10.74 C
2319 25-06-2009 08:02:01 17.3 C 67 % 11.12 C
2320 25-06-2009 08:14:01 17.7 C 65 % 11.04 C
2321 25-06-2009 08:26:00 18 C 64 % 11.09 C
2322 25-06-2009 08:38:00 18.5 C 62 % 11.09 C
2323 25-06-2009 08:50:00 19.2 C 55 % 9.95 C
2324 25-06-2009 09:02:00 19.7 C 55 % 10.41 C
2325 25-06-2009 09:14:00 20.3 C 52 % 10.13 C
Sensor: Nr:Datum:Temp:Feuchte:Taupunkt:
Aussen-T/F 2326 25-06-2009 09:26:59 20.8 C 51 % 10.3 C
2327 25-06-2009 09:38:00 21.4 C 50 % 10.55 C
2328 25-06-2009 09:50:59 21.7 C 47 % 9.9 C
2329 25-06-2009 10:02:59 22 C 45 % 9.53 C
2330 25-06-2009 10:14:00 23 C 45 % 10.43 C
2331 25-06-2009 10:26:00 23.5 C 43 % 10.21 C
2332 25-06-2009 10:38:59 23.8 C 43 % 10.48 C
2333 25-06-2009 10:50:59 24.4 C 41 % 10.3 C
2334 25-06-2009 11:02:59 24.8 C 40 % 10.29 C
2335 25-06-2009 11:14:59 26.1 C 37 % 10.28 C
2336 25-06-2009 11:26:59 26.2 C 34 % 9.11 C
2337 25-06-2009 11:38:58 26.3 C 37 % 10.46 C
2338 25-06-2009 11:50:59 26.9 C 34 % 9.72 C
2339 25-06-2009 12:02:58 26.8 C 35 % 10.06 C
2340 25-06-2009 12:14:58 27.9 C 32 % 9.69 C
2341 25-06-2009 12:26:58 28.4 C 30 % 9.16 C
2342 25-06-2009 12:38:58 28.8 C 31 % 9.99 C
2343 25-06-2009 12:50:58 30.1 C 28 % 9.59 C
2344 25-06-2009 13:02:57 30.3 C 27 % 9.22 C
2345 25-06-2009 13:14:57 31 C 25 % 8.67 C
2346 25-06-2009 13:26:57 30 C 27 % 8.97 C
2347 25-06-2009 13:38:58 30.7 C 25 % 8.42 C
2348 25-06-2009 13:50:57 30.2 C 27 % 9.14 C
2349 25-06-2009 14:02:57 29.7 C 29 % 9.77 C
2350 25-06-2009 14:14:57 30.6 C 25 % 8.34 C
Sensor: Nr:Datum:Temp:Feuchte:Taupunkt:
Aussen-T/F 2351 25-06-2009 14:26:57 30.4 C 27 % 9.31 C
2352 25-06-2009 14:38:57 30.4 C 27 % 9.31 C
2353 25-06-2009 14:50:56 31.1 C 25 % 8.76 C
2354 25-06-2009 15:02:57 31.3 C 24 % 8.32 C
2355 25-06-2009 15:14:56 30.9 C 26 % 9.17 C
2356 25-06-2009 15:26:56 31.2 C 25 % 8.84 C
2357 25-06-2009 15:38:56 31.9 C 22 % 7.55 C
2358 25-06-2009 15:50:56 31.9 C 21 % 6.87 C
2359 25-06-2009 16:02:56 31.5 C 25 % 9.1 C
2360 25-06-2009 16:14:56 31.8 C 22 % 7.46 C
2361 25-06-2009 16:26:56 31.8 C 21 % 6.79 C
2362 25-06-2009 16:38:55 31.7 C 22 % 7.38 C
2363 25-06-2009 16:50:56 32.3 C 20 % 6.49 C
2364 25-06-2009 17:02:55 32.5 C 20 % 6.65 C
2365 25-06-2009 17:14:55 32.5 C 20 % 6.65 C
2366 25-06-2009 17:26:55 32.4 C 20 % 6.57 C
2367 25-06-2009 17:38:55 32.7 C 20 % 6.81 C
2368 25-06-2009 17:50:55 32.6 C 20 % 6.73 C
2369 25-06-2009 18:02:54 32.3 C 20 % 6.49 C
2370 25-06-2009 18:14:55 31.7 C 20 % 6 C
2371 25-06-2009 18:26:55 31.3 C 25 % 8.93 C
2372 25-06-2009 18:38:55 30.8 C 27 % 9.65 C
2373 25-06-2009 18:50:54 29.9 C 30 % 10.45 C
2374 25-06-2009 19:02:55 29.2 C 31 % 10.34 C
2375 25-06-2009 19:14:54 27.9 C 35 % 11.03 C
Sensor: Nr:Datum:Temp:Feuchte:Taupunkt:
Aussen-T/F 2376 25-06-2009 19:26:54 28 C 36 % 11.54 C
2377 25-06-2009 19:38:54 30 C 31 % 11.03 C
2378 25-06-2009 19:50:54 30.6 C 29 % 10.54 C
2379 25-06-2009 20:02:54 31 C 27 % 9.82 C
2380 25-06-2009 20:14:53 30.7 C 27 % 9.56 C
2381 25-06-2009 20:26:53 30.2 C 31 % 11.2 C
2382 25-06-2009 20:38:53 28.8 C 35 % 11.82 C
2383 25-06-2009 20:50:53 27.5 C 39 % 12.31 C
2384 25-06-2009 21:02:53 26.5 C 41 % 12.18 C
2385 25-06-2009 21:14:53 25.4 C 44 % 12.27 C
2386 25-06-2009 21:26:53 25.2 C 45 % 12.43 C
2387 25-06-2009 21:38:52 24.9 C 46 % 12.49 C
2388 25-06-2009 21:50:53 24.7 C 47 % 12.64 C
2389 25-06-2009 22:02:52 24.4 C 48 % 12.68 C
2390 25-06-2009 22:14:52 24.3 C 50 % 13.22 C
2391 25-06-2009 22:26:52 23.9 C 52 % 13.45 C
2392 25-06-2009 22:38:53 23.9 C 50 % 12.85 C
2393 25-06-2009 22:51:54 23.7 C 48 % 12.04 C
2394 25-06-2009 23:03:54 23.4 C 47 % 11.45 C
2395 25-06-2009 23:15:54 23.1 C 49 % 11.81 C
2396 25-06-2009 23:27:54 22.8 C 49 % 11.53 C
2397 25-06-2009 23:39:54 22.4 C 51 % 11.77 C
2398 25-06-2009 23:51:54 22.1 C 52 % 11.79 C
2399 26-06-2009 00:03:54 21.8 C 53 % 11.8 C
2400 26-06-2009 00:15:54 21.7 C 53 % 11.71 C
Sensor: Nr:Datum:Temp:Feuchte:Taupunkt:
Aussen-T/F 2401 26-06-2009 00:27:54 21.4 C 55 % 11.99 C
2402 26-06-2009 00:39:54 21.1 C 56 % 11.99 C
2403 26-06-2009 00:51:54 20.9 C 58 % 12.33 C
2404 26-06-2009 01:03:54 20.8 C 58 % 12.24 C
2405 26-06-2009 01:15:54 20.6 C 59 % 12.31 C
2406 26-06-2009 01:27:54 20.5 C 59 % 12.22 C
2407 26-06-2009 01:39:55 20.5 C 59 % 12.22 C
2408 26-06-2009 01:51:55 20.2 C 60 % 12.19 C
2409 26-06-2009 02:03:55 19.7 C 63 % 12.46 C
2410 26-06-2009 02:15:55 19.3 C 64 % 12.32 C
2411 26-06-2009 02:27:55 19.2 C 66 % 12.7 C
2412 26-06-2009 02:39:55 18.9 C 67 % 12.64 C
2413 26-06-2009 02:51:55 18.7 C 68 % 12.68 C
2414 26-06-2009 03:03:55 18.5 C 69 % 12.71 C
2415 26-06-2009 03:15:55 18.5 C 70 % 12.93 C
2416 26-06-2009 03:27:55 18.3 C 70 % 12.74 C
2417 26-06-2009 03:39:55 18 C 70 % 12.45 C
2418 26-06-2009 03:51:55 17.7 C 72 % 12.59 C
2419 26-06-2009 04:03:55 17.7 C 74 % 13.01 C
2420 26-06-2009 04:15:55 17.5 C 74 % 12.82 C
2421 26-06-2009 04:27:55 17.5 C 75 % 13.02 C
2422 26-06-2009 04:39:55 17.5 C 75 % 13.02 C
2423 26-06-2009 04:51:55 17.4 C 75 % 12.93 C
2424 26-06-2009 05:03:55 17.3 C 75 % 12.83 C
2425 26-06-2009 05:15:55 17.2 C 76 % 12.94 C
Sensor: Nr:Datum:Temp:Feuchte:Taupunkt:
Aussen-T/F 2426 26-06-2009 05:27:56 17.2 C 77 % 13.14 C
2427 26-06-2009 05:39:56 17.2 C 77 % 13.14 C
2428 26-06-2009 05:51:56 17.1 C 77 % 13.04 C
2429 26-06-2009 06:03:56 17.4 C 77 % 13.33 C
2430 26-06-2009 06:15:56 17.7 C 76 % 13.42 C
2431 26-06-2009 06:27:56 18.1 C 75 % 13.6 C
2432 26-06-2009 06:39:56 18.5 C 73 % 13.57 C
2433 26-06-2009 06:51:56 18.7 C 72 % 13.55 C
2434 26-06-2009 07:03:54 18.9 C 70 % 13.31 C
2435 26-06-2009 07:15:53 18.9 C 69 % 13.09 C
2436 26-06-2009 07:27:53 19.1 C 68 % 13.06 C
2437 26-06-2009 07:39:53 19.4 C 67 % 13.12 C
2438 26-06-2009 07:51:53 19.8 C 65 % 13.03 C
2439 26-06-2009 08:03:53 20 C 63 % 12.75 C
2440 26-06-2009 08:15:52 20 C 63 % 12.75 C
2441 26-06-2009 08:27:52 20 C 62 % 12.5 C
2442 26-06-2009 08:39:52 20.1 C 62 % 12.6 C
2443 26-06-2009 08:51:52 19.9 C 62 % 12.41 C
2444 26-06-2009 09:03:52 20.7 C 60 % 12.66 C
2445 26-06-2009 09:15:52 21.2 C 56 % 12.08 C
2446 26-06-2009 09:27:52 21.6 C 57 % 12.72 C
2447 26-06-2009 09:39:52 22.2 C 53 % 12.17 C
2448 26-06-2009 09:51:52 22.3 C 54 % 12.55 C
2449 26-06-2009 10:03:51 22.5 C 54 % 12.73 C
2450 26-06-2009 10:15:52 21.6 C 56 % 12.45 C
Sensor: Nr:Datum:Temp:Feuchte:Taupunkt:
Aussen-T/F 2451 26-06-2009 10:27:52 22.1 C 55 % 12.64 C
2452 26-06-2009 10:39:51 22.9 C 54 % 13.1 C
2453 26-06-2009 10:51:51 24 C 49 % 12.63 C
2454 26-06-2009 11:03:51 22.6 C 53 % 12.54 C
2455 26-06-2009 11:15:51 23.8 C 52 % 13.36 C
2456 26-06-2009 11:27:51 24.6 C 48 % 12.87 C
2457 26-06-2009 11:39:51 24.9 C 46 % 12.49 C
2458 26-06-2009 11:51:51 26.6 C 41 % 12.27 C
2459 26-06-2009 12:03:51 27.9 C 37 % 11.87 C
2460 26-06-2009 12:15:50 28.3 C 36 % 11.81 C
2461 26-06-2009 12:27:50 28 C 35 % 11.12 C
2462 26-06-2009 12:39:50 29.2 C 30 % 9.85 C
2463 26-06-2009 12:51:50 27.7 C 36 % 11.28 C
2464 26-06-2009 13:03:50 28 C 35 % 11.12 C
2465 26-06-2009 13:15:49 30.9 C 26 % 9.17 C
2466 26-06-2009 13:27:49 31.9 C 22 % 7.55 C
2467 26-06-2009 13:39:50 31.8 C 21 % 6.79 C
2468 26-06-2009 13:51:49 31.9 C 21 % 6.87 C
2469 26-06-2009 14:03:49 31.8 C 22 % 7.46 C
2470 26-06-2009 14:15:50 30.4 C 28 % 9.85 C
2471 26-06-2009 14:27:50 30.7 C 26 % 9 C
2472 26-06-2009 14:39:49 30.3 C 29 % 10.29 C
2473 26-06-2009 14:51:49 30.3 C 28 % 9.76 C
2474 26-06-2009 15:03:49 30.2 C 29 % 10.2 C
2475 26-06-2009 15:15:49 30 C 29 % 10.03 C
Sensor: Nr:Datum:Temp:Feuchte:Taupunkt:
Aussen-T/F 2476 26-06-2009 15:27:49 30.6 C 27 % 9.48 C
2477 26-06-2009 15:39:48 31 C 28 % 10.36 C
2478 26-06-2009 15:51:49 31.9 C 24 % 8.83 C
2479 26-06-2009 16:03:48 31.7 C 23 % 8.03 C
2480 26-06-2009 16:15:48 31.6 C 22 % 7.3 C
2481 26-06-2009 16:27:48 32 C 22 % 7.63 C
2482 26-06-2009 16:39:48 32.3 C 20 % 6.49 C
2483 26-06-2009 16:51:48 32.7 C 20 % 6.81 C
2484 26-06-2009 17:03:48 33 C 20 % 7.06 C
2485 26-06-2009 17:15:47 32.5 C 20 % 6.65 C
2486 26-06-2009 17:27:47 32.9 C 20 % 6.98 C
2487 26-06-2009 17:39:48 33.3 C 20 % 7.3 C
2488 26-06-2009 17:51:47 32.7 C 20 % 6.81 C
2489 26-06-2009 18:03:47 32.8 C 20 % 6.9 C
2490 26-06-2009 18:15:47 32.6 C 20 % 6.73 C
2491 26-06-2009 18:27:47 31.9 C 20 % 6.16 C
2492 26-06-2009 18:39:47 32.6 C 20 % 6.73 C
2493 26-06-2009 18:51:46 32.8 C 20 % 6.9 C
2494 26-06-2009 19:03:46 33.2 C 20 % 7.22 C
2495 26-06-2009 19:15:47 31.9 C 22 % 7.55 C
2496 26-06-2009 19:27:47 30.5 C 27 % 9.39 C
2497 26-06-2009 19:39:46 29.2 C 29 % 9.34 C
2498 26-06-2009 19:51:46 28 C 32 % 9.77 C
2499 26-06-2009 20:03:46 27 C 35 % 10.24 C
2500 26-06-2009 20:15:46 26.5 C 37 % 10.63 C
Sensor: Nr:Datum:Temp:Feuchte:Taupunkt:
Aussen-T/F 2501 26-06-2009 20:27:46 25.7 C 40 % 11.09 C
2502 26-06-2009 20:39:45 25.5 C 41 % 11.29 C
2503 26-06-2009 20:51:46 25.2 C 42 % 11.38 C
2504 26-06-2009 21:03:45 24.7 C 44 % 11.63 C
2505 26-06-2009 21:15:45 24.4 C 45 % 11.7 C
2506 26-06-2009 21:27:46 24.2 C 45 % 11.52 C
2507 26-06-2009 21:39:45 23.9 C 47 % 11.91 C
2508 26-06-2009 21:51:45 23.5 C 48 % 11.86 C
2509 26-06-2009 22:03:44 23.2 C 50 % 12.21 C
2510 26-06-2009 22:15:45 22.9 C 51 % 12.23 C
2511 26-06-2009 22:27:45 22.6 C 53 % 12.54 C
2512 26-06-2009 22:40:45 22.5 C 55 % 13.01 C
2513 26-06-2009 22:52:45 22.5 C 56 % 13.29 C
2514 26-06-2009 23:04:45 22.4 C 56 % 13.2 C
2515 26-06-2009 23:16:45 22.2 C 57 % 13.28 C
2516 26-06-2009 23:28:45 22 C 57 % 13.09 C
2517 26-06-2009 23:40:45 21.9 C 59 % 13.53 C
2518 26-06-2009 23:52:45 21.5 C 59 % 13.15 C
2519 27-06-2009 00:04:45 21.5 C 61 % 13.67 C
2520 27-06-2009 00:16:45 21.4 C 61 % 13.57 C
2521 27-06-2009 00:28:45 20.9 C 64 % 13.84 C
2522 27-06-2009 00:40:45 21 C 63 % 13.69 C
2523 27-06-2009 00:52:46 20.9 C 64 % 13.84 C
2524 27-06-2009 01:04:46 21.2 C 64 % 14.12 C
2525 27-06-2009 01:16:46 21.2 C 64 % 14.12 C
Sensor: Nr:Datum:Temp:Feuchte:Taupunkt:
Aussen-T/F 2526 27-06-2009 01:28:46 21 C 64 % 13.93 C
2527 27-06-2009 01:40:46 20.5 C 67 % 14.16 C
2528 27-06-2009 01:52:46 20.2 C 67 % 13.88 C
2529 27-06-2009 02:04:46 20.1 C 68 % 14.01 C
2530 27-06-2009 02:16:46 20.1 C 68 % 14.01 C
2531 27-06-2009 02:28:46 19.9 C 69 % 14.05 C
2532 27-06-2009 02:40:46 19.6 C 69 % 13.76 C
2533 27-06-2009 02:52:46 19.5 C 70 % 13.89 C
2534 27-06-2009 03:04:46 19.5 C 69 % 13.66 C
2535 27-06-2009 03:16:46 19.3 C 70 % 13.69 C
2536 27-06-2009 03:28:46 19 C 70 % 13.41 C
2537 27-06-2009 03:40:46 18.9 C 72 % 13.74 C
2538 27-06-2009 03:52:46 18.8 C 73 % 13.86 C
2539 27-06-2009 04:04:46 18.5 C 74 % 13.78 C
2540 27-06-2009 04:16:46 18.4 C 74 % 13.68 C
2541 27-06-2009 04:28:46 18.3 C 75 % 13.79 C
2542 27-06-2009 04:40:47 18.1 C 76 % 13.81 C
2543 27-06-2009 04:52:47 17.8 C 78 % 13.91 C
2544 27-06-2009 05:04:47 17.8 C 78 % 13.91 C
2545 27-06-2009 05:16:47 17.7 C 79 % 14.01 C
2546 27-06-2009 05:28:47 17.9 C 79 % 14.21 C
2547 27-06-2009 05:40:47 17.9 C 78 % 14.01 C
2548 27-06-2009 05:52:47 18 C 77 % 13.91 C
2549 27-06-2009 06:04:47 18.1 C 77 % 14.01 C
2550 27-06-2009 06:16:47 18 C 77 % 13.91 C
Sensor: Nr:Datum:Temp:Feuchte:Taupunkt:
Aussen-T/F 2551 27-06-2009 06:28:47 18.2 C 77 % 14.1 C
2552 27-06-2009 06:40:47 18.2 C 77 % 14.1 C
2553 27-06-2009 06:52:47 18.4 C 77 % 14.3 C
2554 27-06-2009 07:04:47 18.7 C 76 % 14.39 C
2555 27-06-2009 07:16:47 18.7 C 75 % 14.18 C
2556 27-06-2009 07:28:47 18.3 C 76 % 14 C
2557 27-06-2009 07:40:47 18.5 C 77 % 14.39 C
2558 27-06-2009 07:52:47 18.7 C 76 % 14.39 C
2559 27-06-2009 08:04:47 19 C 74 % 14.26 C
2560 27-06-2009 08:16:47 19.7 C 73 % 14.73 C
2561 27-06-2009 08:28:48 20.3 C 68 % 14.2 C
2562 27-06-2009 08:40:48 20.5 C 69 % 14.62 C
2563 27-06-2009 08:52:48 21.2 C 66 % 14.6 C
2564 27-06-2009 09:04:48 21.5 C 64 % 14.41 C
2565 27-06-2009 09:16:44 21.6 C 64 % 14.5 C
2566 27-06-2009 09:28:44 22.4 C 62 % 14.76 C
2567 27-06-2009 09:40:44 23.1 C 58 % 14.39 C
2568 27-06-2009 09:52:44 23.5 C 56 % 14.22 C
2569 27-06-2009 10:04:44 23.7 C 54 % 13.84 C
2570 27-06-2009 10:16:44 24.1 C 53 % 13.93 C
2571 27-06-2009 10:28:44 24.5 C 51 % 13.7 C
2572 27-06-2009 10:40:43 24.5 C 50 % 13.4 C
2573 27-06-2009 10:52:44 24.6 C 52 % 14.09 C
2574 27-06-2009 11:04:43 25.3 C 49 % 13.82 C
2575 27-06-2009 11:16:43 26.2 C 45 % 13.33 C
Sensor: Nr:Datum:Temp:Feuchte:Taupunkt:
Aussen-T/F 2576 27-06-2009 11:28:43 26.1 C 45 % 13.24 C
2577 27-06-2009 11:40:43 25.9 C 45 % 13.06 C
2578 27-06-2009 11:52:43 28 C 40 % 13.14 C
2579 27-06-2009 12:04:43 28.4 C 38 % 12.72 C
2580 27-06-2009 12:16:42 26 C 43 % 12.46 C
2581 27-06-2009 12:28:42 25.4 C 46 % 12.94 C
2582 27-06-2009 12:40:43 26.9 C 43 % 13.27 C
2583 27-06-2009 12:52:42 28.1 C 37 % 12.04 C
2584 27-06-2009 13:04:43 28.9 C 38 % 13.16 C
2585 27-06-2009 13:16:42 27.4 C 36 % 11.01 C
2586 27-06-2009 13:28:42 28.5 C 35 % 11.55 C
2587 27-06-2009 13:40:42 29.9 C 33 % 11.89 C
2588 27-06-2009 13:52:42 28.3 C 36 % 11.81 C
2589 27-06-2009 14:04:42 27 C 40 % 12.25 C
2590 27-06-2009 14:16:31 26.4 C 43 % 12.82 C
2591 27-06-2009 14:28:31 23.4 C 62 % 15.71 C
2592 27-06-2009 14:40:32 21.8 C 74 % 16.96 C
2593 27-06-2009 14:52:32 21.3 C 78 % 17.31 C
2594 27-06-2009 15:04:41 21.2 C 79 % 17.41 C
2595 27-06-2009 15:16:41 21.4 C 81 % 18 C
2596 27-06-2009 15:28:41 21.2 C 81 % 17.81 C
2597 27-06-2009 15:40:41 21.7 C 82 % 18.49 C
2598 27-06-2009 15:52:40 23 C 81 % 19.56 C
2599 27-06-2009 16:04:40 24.4 C 75 % 19.68 C
2600 27-06-2009 16:16:41 26.8 C 58 % 17.84 C
Sensor: Nr:Datum:Temp:Feuchte:Taupunkt:
Aussen-T/F 2601 27-06-2009 16:28:41 27.6 C 48 % 15.6 C
2602 27-06-2009 16:40:40 26.1 C 53 % 15.77 C
2603 27-06-2009 16:52:01 25.5 C 59 % 16.9 C
2604 27-06-2009 17:04:01 25.4 C 61 % 17.33 C
2605 27-06-2009 17:16:01 25.6 C 59 % 16.99 C
2606 27-06-2009 17:28:01 25.4 C 59 % 16.81 C
2607 27-06-2009 17:40:02 25.4 C 59 % 16.81 C
2608 27-06-2009 17:52:01 25 C 58 % 16.16 C
2609 27-06-2009 18:04:01 23.9 C 63 % 16.43 C
2610 27-06-2009 18:16:01 23.5 C 64 % 16.3 C
2611 27-06-2009 18:28:01 23.5 C 63 % 16.05 C
2612 27-06-2009 18:40:01 23.6 C 62 % 15.89 C
2613 27-06-2009 18:52:00 23.6 C 63 % 16.14 C
2614 27-06-2009 19:04:01 23.6 C 63 % 16.14 C
2615 27-06-2009 19:16:00 23.8 C 63 % 16.33 C
2616 27-06-2009 19:28:00 23.8 C 63 % 16.33 C
2617 27-06-2009 19:40:00 24 C 62 % 16.27 C
2618 27-06-2009 19:52:00 23.7 C 61 % 15.73 C
2619 27-06-2009 20:04:00 23.7 C 61 % 15.73 C
2620 27-06-2009 20:16:00 23.2 C 61 % 15.26 C
2621 27-06-2009 20:28:00 22.9 C 62 % 15.23 C
2622 27-06-2009 20:40:59 22.7 C 62 % 15.05 C
2623 27-06-2009 20:52:00 22.6 C 64 % 15.45 C
2624 27-06-2009 21:04:59 22.5 C 64 % 15.35 C
2625 27-06-2009 21:16:00 22.3 C 65 % 15.4 C
Sensor: Nr:Datum:Temp:Feuchte:Taupunkt:
Aussen-T/F 2626 27-06-2009 21:28:00 22 C 66 % 15.36 C
2627 27-06-2009 21:40:59 21.6 C 68 % 15.44 C
2628 27-06-2009 21:52:58 21.2 C 68 % 15.06 C
2629 27-06-2009 22:04:59 20.7 C 71 % 15.25 C
2630 27-06-2009 22:17:00 20.3 C 73 % 15.3 C
2631 27-06-2009 22:29:00 20.2 C 73 % 15.21 C
2632 27-06-2009 22:41:00 20 C 72 % 14.8 C
2633 27-06-2009 22:53:00 20.1 C 72 % 14.9 C
2634 27-06-2009 23:05:00 19.8 C 73 % 14.82 C
2635 27-06-2009 23:17:00 19.7 C 74 % 14.94 C
2636 27-06-2009 23:29:00 19.7 C 74 % 14.94 C
2637 27-06-2009 23:41:00 19.7 C 75 % 15.15 C
2638 27-06-2009 23:53:00 19.8 C 76 % 15.45 C
2639 28-06-2009 00:05:00 19.8 C 77 % 15.65 C
2640 28-06-2009 00:17:00 19.6 C 77 % 15.46 C
2641 28-06-2009 00:29:00 19.8 C 78 % 15.85 C
2642 28-06-2009 00:41:00 19.7 C 77 % 15.56 C
2643 28-06-2009 00:53:00 19.6 C 77 % 15.46 C
2644 28-06-2009 01:05:00 19.7 C 78 % 15.76 C
2645 28-06-2009 01:17:01 19.9 C 77 % 15.75 C
2646 28-06-2009 01:29:01 19.8 C 77 % 15.65 C
2647 28-06-2009 01:41:01 19.6 C 77 % 15.46 C
2648 28-06-2009 01:53:01 19.5 C 77 % 15.36 C
2649 28-06-2009 02:05:01 19.5 C 77 % 15.36 C
2650 28-06-2009 02:17:01 19.5 C 77 % 15.36 C
Sensor: Nr:Datum:Temp:Feuchte:Taupunkt:
Aussen-T/F 2651 28-06-2009 02:29:01 19.5 C 77 % 15.36 C
2652 28-06-2009 02:41:01 19.5 C 77 % 15.36 C
2653 28-06-2009 02:53:01 19.3 C 77 % 15.17 C
2654 28-06-2009 03:05:01 19.3 C 78 % 15.37 C
2655 28-06-2009 03:17:01 19.3 C 78 % 15.37 C
2656 28-06-2009 03:29:01 19.4 C 78 % 15.47 C
2657 28-06-2009 03:41:01 19.4 C 78 % 15.47 C
2658 28-06-2009 03:53:01 19.4 C 78 % 15.47 C
2659 28-06-2009 04:05:01 19.3 C 78 % 15.37 C
2660 28-06-2009 04:17:01 19.4 C 78 % 15.47 C
2661 28-06-2009 04:29:01 19.3 C 78 % 15.37 C
2662 28-06-2009 04:41:01 19.3 C 78 % 15.37 C
2663 28-06-2009 04:53:01 19.1 C 79 % 15.37 C
2664 28-06-2009 05:05:02 19.1 C 79 % 15.37 C
2665 28-06-2009 05:17:02 19.1 C 79 % 15.37 C
2666 28-06-2009 05:29:02 19 C 79 % 15.28 C
2667 28-06-2009 05:41:02 19.1 C 79 % 15.37 C
2668 28-06-2009 05:53:02 19.1 C 79 % 15.37 C
2669 28-06-2009 06:05:02 19.1 C 79 % 15.37 C
2670 28-06-2009 06:17:02 19.1 C 79 % 15.37 C
2671 28-06-2009 06:29:02 19.1 C 80 % 15.57 C
2672 28-06-2009 06:41:02 18.9 C 82 % 15.76 C
2673 28-06-2009 06:53:02 18.7 C 82 % 15.57 C
2674 28-06-2009 07:05:02 18.7 C 83 % 15.75 C
2675 28-06-2009 07:17:02 19.1 C 82 % 15.96 C
Sensor: Nr:Datum:Temp:Feuchte:Taupunkt:
Aussen-T/F 2676 28-06-2009 07:29:02 19.3 C 80 % 15.76 C
2677 28-06-2009 07:41:02 19.5 C 79 % 15.76 C
2678 28-06-2009 07:53:00 20 C 77 % 15.85 C
2679 28-06-2009 08:05:00 20.1 C 74 % 15.32 C
2680 28-06-2009 08:17:59 20.3 C 74 % 15.51 C
2681 28-06-2009 08:29:59 20.8 C 72 % 15.57 C
2682 28-06-2009 08:41:59 21.3 C 67 % 14.93 C
2683 28-06-2009 08:53:59 21.6 C 65 % 14.74 C
2684 28-06-2009 09:05:00 22.2 C 61 % 14.32 C
2685 28-06-2009 09:17:59 22.3 C 59 % 13.9 C
2686 28-06-2009 09:29:59 22.5 C 60 % 14.35 C
2687 28-06-2009 09:41:59 23.2 C 57 % 14.21 C
2688 28-06-2009 09:53:58 23.5 C 56 % 14.22 C
2689 28-06-2009 10:05:59 23.7 C 53 % 13.56 C
2690 28-06-2009 10:17:58 24.1 C 50 % 13.03 C
2691 28-06-2009 10:29:58 25.1 C 48 % 13.32 C
2692 28-06-2009 10:41:58 25.5 C 41 % 11.29 C
2693 28-06-2009 10:53:58 25.2 C 43 % 11.74 C
2694 28-06-2009 11:05:58 26.4 C 41 % 12.09 C
2695 28-06-2009 11:17:58 27.1 C 38 % 11.56 C
2696 28-06-2009 11:29:58 27.2 C 38 % 11.65 C
2697 28-06-2009 11:41:57 27.4 C 37 % 11.43 C
2698 28-06-2009 11:53:58 27.5 C 36 % 11.1 C
2699 28-06-2009 12:05:57 27.1 C 37 % 11.16 C
2700 28-06-2009 12:17:57 26.9 C 39 % 11.78 C
Sensor: Nr:Datum:Temp:Feuchte:Taupunkt:
Aussen-T/F 2701 28-06-2009 12:29:57 28.3 C 36 % 11.81 C
2702 28-06-2009 12:41:57 29.8 C 32 % 11.33 C
2703 28-06-2009 12:53:57 30.1 C 32 % 11.59 C
2704 28-06-2009 13:05:56 30 C 31 % 11.03 C
2705 28-06-2009 13:17:57 29.4 C 32 % 10.99 C
2706 28-06-2009 13:29:57 29.3 C 33 % 11.37 C
2707 28-06-2009 13:41:57 30.3 C 30 % 10.79 C
2708 28-06-2009 13:53:56 30 C 30 % 10.54 C
2709 28-06-2009 14:05:57 30.4 C 29 % 10.37 C
2710 28-06-2009 14:17:56 30.4 C 27 % 9.31 C
2711 28-06-2009 14:29:56 30.4 C 28 % 9.85 C
2712 28-06-2009 14:41:56 30.5 C 29 % 10.46 C
2713 28-06-2009 14:53:56 30.6 C 27 % 9.48 C
2714 28-06-2009 15:05:56 30.7 C 28 % 10.1 C
2715 28-06-2009 15:17:55 31 C 26 % 9.26 C
2716 28-06-2009 15:29:55 31.2 C 25 % 8.84 C
2717 28-06-2009 15:41:55 31.5 C 25 % 9.1 C
2718 28-06-2009 15:53:55 32.1 C 22 % 7.71 C
2719 28-06-2009 16:05:55 32.3 C 22 % 7.88 C
2720 28-06-2009 16:17:55 31.9 C 24 % 8.83 C
2721 28-06-2009 16:29:55 32 C 22 % 7.63 C
2722 28-06-2009 16:41:55 32.1 C 21 % 7.03 C
2723 28-06-2009 16:53:54 31.7 C 23 % 8.03 C
2724 28-06-2009 17:05:54 31 C 24 % 8.07 C
2725 28-06-2009 17:17:55 31.9 C 23 % 8.2 C
Sensor: Nr:Datum:Temp:Feuchte:Taupunkt:
Aussen-T/F 2726 28-06-2009 17:29:55 31.5 C 21 % 6.54 C
2727 28-06-2009 17:41:54 31.8 C 21 % 6.79 C
2728 28-06-2009 17:53:54 31.5 C 20 % 5.83 C
2729 28-06-2009 18:05:54 31.9 C 21 % 6.87 C
2730 28-06-2009 18:17:54 32.6 C 20 % 6.73 C
2731 28-06-2009 18:29:55 32.7 C 21 % 7.53 C
2732 28-06-2009 18:41:53 32.7 C 20 % 6.81 C
2733 28-06-2009 18:53:54 32.7 C 20 % 6.81 C
2734 28-06-2009 19:05:53 32.3 C 20 % 6.49 C
2735 28-06-2009 19:17:53 30.9 C 24 % 7.99 C
2736 28-06-2009 19:29:53 30.9 C 25 % 8.59 C
2737 28-06-2009 19:41:53 31 C 25 % 8.67 C
2738 28-06-2009 19:53:53 31 C 25 % 8.67 C
2739 28-06-2009 20:05:53 30.9 C 26 % 9.17 C
2740 28-06-2009 20:17:52 30.6 C 28 % 10.02 C
2741 28-06-2009 20:29:52 30.1 C 31 % 11.12 C
2742 28-06-2009 20:41:53 29.5 C 33 % 11.54 C
2743 28-06-2009 20:53:52 28.5 C 35 % 11.55 C
2744 28-06-2009 21:05:52 26.7 C 39 % 11.6 C
2745 28-06-2009 21:17:52 26.4 C 40 % 11.72 C
2746 28-06-2009 21:29:52 25.9 C 42 % 12.01 C
2747 28-06-2009 21:41:52 25.4 C 42 % 11.56 C
2748 28-06-2009 21:53:51 25.3 C 44 % 12.18 C
2749 28-06-2009 22:05:52 25 C 46 % 12.58 C
2750 28-06-2009 22:17:52 24.6 C 48 % 12.87 C
Sensor: Nr:Datum:Temp:Feuchte:Taupunkt:
Aussen-T/F 2751 28-06-2009 22:29:52 24.4 C 49 % 13 C
2752 28-06-2009 22:42:52 24.1 C 50 % 13.03 C
2753 28-06-2009 22:54:52 23.9 C 52 % 13.45 C
2754 28-06-2009 23:06:52 23.7 C 53 % 13.56 C
2755 28-06-2009 23:18:52 23.5 C 54 % 13.66 C
2756 28-06-2009 23:30:52 23.2 C 55 % 13.66 C
2757 28-06-2009 23:42:52 23 C 55 % 13.48 C
2758 28-06-2009 23:54:52 22.8 C 56 % 13.57 C
2759 29-06-2009 00:06:52 22.5 C 58 % 13.83 C
2760 29-06-2009 00:18:52 22.1 C 59 % 13.72 C
2761 29-06-2009 00:30:52 21.9 C 60 % 13.79 C
2762 29-06-2009 00:42:52 21.8 C 61 % 13.95 C
2763 29-06-2009 00:54:52 21.6 C 61 % 13.76 C
2764 29-06-2009 01:06:52 21.5 C 62 % 13.92 C
2765 29-06-2009 01:18:52 21.2 C 62 % 13.63 C
2766 29-06-2009 01:30:53 20.9 C 64 % 13.84 C
2767 29-06-2009 01:42:53 20.8 C 65 % 13.98 C
2768 29-06-2009 01:54:53 20.5 C 66 % 13.93 C
2769 29-06-2009 02:06:53 20.4 C 67 % 14.07 C
2770 29-06-2009 02:18:53 20.2 C 68 % 14.11 C
2771 29-06-2009 02:30:53 20.1 C 68 % 14.01 C
2772 29-06-2009 02:42:53 20.2 C 69 % 14.33 C
2773 29-06-2009 02:54:53 20.4 C 68 % 14.3 C
2774 29-06-2009 03:06:53 20 C 69 % 14.14 C
2775 29-06-2009 03:18:53 19.8 C 70 % 14.17 C
Sensor: Nr:Datum:Temp:Feuchte:Taupunkt:
Aussen-T/F 2776 29-06-2009 03:30:53 19.6 C 71 % 14.2 C
2777 29-06-2009 03:42:53 19.5 C 71 % 14.1 C
2778 29-06-2009 03:54:53 19.3 C 71 % 13.91 C
2779 29-06-2009 04:06:53 19.3 C 72 % 14.13 C
2780 29-06-2009 04:18:53 19.1 C 72 % 13.94 C
2781 29-06-2009 04:30:53 19 C 72 % 13.84 C
2782 29-06-2009 04:42:53 18.8 C 74 % 14.07 C
2783 29-06-2009 04:54:53 18.7 C 75 % 14.18 C
2784 29-06-2009 05:06:53 18.5 C 76 % 14.19 C
2785 29-06-2009 05:18:54 18.4 C 76 % 14.1 C
2786 29-06-2009 05:30:54 18.4 C 76 % 14.1 C
2787 29-06-2009 05:42:54 18.3 C 77 % 14.2 C
2788 29-06-2009 05:54:54 18.3 C 77 % 14.2 C
2789 29-06-2009 06:06:54 18.3 C 77 % 14.2 C
2790 29-06-2009 06:18:54 18.2 C 78 % 14.3 C
2791 29-06-2009 06:30:54 18.1 C 79 % 14.4 C
2792 29-06-2009 06:42:54 18 C 80 % 14.5 C
2793 29-06-2009 06:54:54 18 C 80 % 14.5 C
2794 29-06-2009 07:06:51 18.3 C 80 % 14.79 C
2795 29-06-2009 07:18:52 18.3 C 79 % 14.6 C
2796 29-06-2009 07:30:52 18.5 C 79 % 14.79 C
2797 29-06-2009 07:42:52 18.7 C 78 % 14.79 C
2798 29-06-2009 07:54:51 18.8 C 78 % 14.88 C
2799 29-06-2009 08:06:52 19.2 C 76 % 14.87 C
2800 29-06-2009 08:18:51 19.5 C 75 % 14.95 C
Sensor: Nr:Datum:Temp:Feuchte:Taupunkt:
Aussen-T/F 2801 29-06-2009 08:30:51 19.9 C 74 % 15.13 C
2802 29-06-2009 08:42:52 20.2 C 71 % 14.78 C
2803 29-06-2009 08:54:51 20.5 C 71 % 15.06 C
2804 29-06-2009 09:06:51 21.2 C 69 % 15.29 C
2805 29-06-2009 09:18:50 21.9 C 66 % 15.26 C
2806 29-06-2009 09:30:50 22.6 C 63 % 15.2 C
2807 29-06-2009 09:42:50 23.3 C 61 % 15.36 C
2808 29-06-2009 09:54:50 23.9 C 58 % 15.14 C
2809 29-06-2009 10:06:50 24.4 C 56 % 15.06 C
2810 29-06-2009 10:18:49 24.8 C 53 % 14.57 C
2811 29-06-2009 10:30:50 25.3 C 51 % 14.44 C
2812 29-06-2009 10:42:50 25.8 C 49 % 14.28 C
2813 29-06-2009 10:54:49 26.4 C 45 % 13.51 C
2814 29-06-2009 11:06:49 27 C 44 % 13.71 C
2815 29-06-2009 11:18:50 27.3 C 42 % 13.27 C
2816 29-06-2009 11:30:49 27.8 C 41 % 13.34 C
2817 29-06-2009 11:42:49 28.8 C 39 % 13.47 C
2818 29-06-2009 11:54:49 29.2 C 36 % 12.6 C
2819 29-06-2009 12:06:49 29.5 C 35 % 12.43 C
2820 29-06-2009 12:18:49 30.4 C 33 % 12.32 C
2821 29-06-2009 12:30:49 30.9 C 30 % 11.31 C
2822 29-06-2009 12:42:49 31 C 30 % 11.4 C
2823 29-06-2009 12:54:49 31.6 C 26 % 9.76 C
2824 29-06-2009 13:06:48 32 C 26 % 10.1 C
2825 29-06-2009 13:18:48 32.3 C 24 % 9.16 C
Sensor: Nr:Datum:Temp:Feuchte:Taupunkt:
Aussen-T/F 2826 29-06-2009 13:30:48 31.9 C 24 % 8.83 C
2827 29-06-2009 13:42:48 31.2 C 28 % 10.53 C
2828 29-06-2009 13:54:48 28.7 C 36 % 12.16 C
2829 29-06-2009 14:06:48 28.7 C 36 % 12.16 C
2830 29-06-2009 14:18:47 28.3 C 37 % 12.22 C
2831 29-06-2009 14:30:48 28.5 C 36 % 11.98 C
2832 29-06-2009 14:42:49 28.2 C 36 % 11.72 C
2833 29-06-2009 14:54:47 28.8 C 36 % 12.25 C
2834 29-06-2009 15:06:47 29.1 C 35 % 12.08 C
2835 29-06-2009 15:18:47 30 C 33 % 11.97 C
2836 29-06-2009 15:30:47 30.2 C 33 % 12.15 C
2837 29-06-2009 15:42:47 29.9 C 34 % 12.34 C
2838 29-06-2009 15:54:46 29.4 C 34 % 11.9 C
2839 29-06-2009 16:06:47 29.3 C 36 % 12.68 C
2840 29-06-2009 16:18:47 29.2 C 36 % 12.6 C
2841 29-06-2009 16:30:46 29.5 C 38 % 13.69 C
2842 29-06-2009 16:42:46 29.3 C 36 % 12.68 C
2843 29-06-2009 16:54:47 29.5 C 37 % 13.28 C
2844 29-06-2009 17:06:46 29.1 C 37 % 12.93 C
2845 29-06-2009 17:18:46 28.8 C 39 % 13.47 C
2846 29-06-2009 17:30:46 29 C 41 % 14.42 C
2847 29-06-2009 17:42:46 30.1 C 36 % 13.39 C
2848 29-06-2009 17:54:46 30.1 C 34 % 12.51 C
2849 29-06-2009 18:06:46 30.6 C 34 % 12.95 C
2850 29-06-2009 18:18:45 31.5 C 27 % 10.24 C
Sensor: Nr:Datum:Temp:Feuchte:Taupunkt:
Aussen-T/F 2851 29-06-2009 18:30:45 31.5 C 31 % 12.32 C
2852 29-06-2009 18:42:45 31.2 C 31 % 12.06 C
2853 29-06-2009 18:54:45 31.3 C 30 % 11.65 C
2854 29-06-2009 19:06:45 31.1 C 31 % 11.98 C
2855 29-06-2009 19:18:45 30.4 C 33 % 12.32 C
2856 29-06-2009 19:30:45 30.2 C 37 % 13.9 C
2857 29-06-2009 19:42:45 29.9 C 35 % 12.78 C
2858 29-06-2009 19:54:45 28.8 C 37 % 12.66 C
2859 29-06-2009 20:06:44 28.9 C 38 % 13.16 C
2860 29-06-2009 20:18:45 29 C 39 % 13.65 C
2861 29-06-2009 20:30:44 28.7 C 39 % 13.38 C
2862 29-06-2009 20:42:44 28.4 C 41 % 13.88 C
2863 29-06-2009 20:54:44 27.6 C 41 % 13.16 C
2864 29-06-2009 21:06:44 27.2 C 44 % 13.89 C
2865 29-06-2009 21:18:44 26.2 C 46 % 13.67 C
2866 29-06-2009 21:30:44 25.3 C 49 % 13.82 C
2867 29-06-2009 21:42:44 24.6 C 51 % 13.79 C
2868 29-06-2009 21:54:44 24.3 C 53 % 14.11 C
2869 29-06-2009 22:06:43 23.9 C 56 % 14.59 C
2870 29-06-2009 22:18:43 23.6 C 56 % 14.31 C
2871 29-06-2009 22:30:43 23.5 C 57 % 14.49 C
2872 29-06-2009 22:42:43 23.4 C 58 % 14.67 C
2873 29-06-2009 22:55:56 23.4 C 58 % 14.67 C
2874 29-06-2009 23:07:56 23.2 C 59 % 14.75 C
2875 29-06-2009 23:19:56 22.9 C 61 % 14.98 C
Sensor: Nr:Datum:Temp:Feuchte:Taupunkt:
Aussen-T/F 2876 29-06-2009 23:31:56 22.7 C 62 % 15.05 C
2877 29-06-2009 23:43:56 22.5 C 62 % 14.86 C
2878 29-06-2009 23:55:56 22.3 C 63 % 14.92 C
2879 30-06-2009 00:07:56 22 C 64 % 14.88 C
2880 30-06-2009 00:19:56 21.9 C 66 % 15.26 C
2881 30-06-2009 00:31:56 21.8 C 67 % 15.4 C
2882 30-06-2009 00:43:56 21.6 C 68 % 15.44 C
2883 30-06-2009 00:55:56 21.4 C 69 % 15.48 C
2884 30-06-2009 01:07:56 21.2 C 69 % 15.29 C
2885 30-06-2009 01:19:56 21 C 71 % 15.54 C
2886 30-06-2009 01:31:56 20.9 C 71 % 15.45 C
2887 30-06-2009 01:43:56 20.7 C 73 % 15.69 C
2888 30-06-2009 01:55:57 20.6 C 73 % 15.59 C
2889 30-06-2009 02:07:57 20.5 C 74 % 15.71 C
2890 30-06-2009 02:19:57 20.4 C 74 % 15.61 C
2891 30-06-2009 02:31:57 20.2 C 74 % 15.42 C
2892 30-06-2009 02:43:57 20 C 75 % 15.43 C
2893 30-06-2009 02:55:57 19.9 C 77 % 15.75 C
2894 30-06-2009 03:07:57 19.7 C 77 % 15.56 C
2895 30-06-2009 03:19:57 19.5 C 79 % 15.76 C
2896 30-06-2009 03:31:57 19.2 C 79 % 15.47 C
2897 30-06-2009 03:43:57 19.2 C 79 % 15.47 C
2898 30-06-2009 03:55:57 19.2 C 79 % 15.47 C
2899 30-06-2009 04:07:57 19.2 C 79 % 15.47 C
2900 30-06-2009 04:19:57 19 C 79 % 15.28 C
Sensor: Nr:Datum:Temp:Feuchte:Taupunkt:
Aussen-T/F 2901 30-06-2009 04:31:57 19 C 79 % 15.28 C
2902 30-06-2009 04:43:57 19.1 C 80 % 15.57 C
2903 30-06-2009 04:55:57 19.1 C 79 % 15.37 C
2904 30-06-2009 05:07:57 18.9 C 81 % 15.57 C
2905 30-06-2009 05:19:57 18.8 C 82 % 15.66 C
2906 30-06-2009 05:31:57 18.8 C 82 % 15.66 C
2907 30-06-2009 05:43:58 18.7 C 82 % 15.57 C
2908 30-06-2009 05:55:58 18.8 C 82 % 15.66 C
2909 30-06-2009 06:07:58 18.8 C 82 % 15.66 C
2910 30-06-2009 06:19:58 18.8 C 82 % 15.66 C
2911 30-06-2009 06:31:58 18.8 C 82 % 15.66 C
2912 30-06-2009 06:43:58 19.1 C 81 % 15.76 C
2913 30-06-2009 06:55:58 19.3 C 80 % 15.76 C
2914 30-06-2009 07:07:44 19.5 C 78 % 15.56 C
2915 30-06-2009 07:19:43 19.6 C 78 % 15.66 C
2916 30-06-2009 07:31:44 19.8 C 77 % 15.65 C
2917 30-06-2009 07:43:44 19.9 C 77 % 15.75 C
2918 30-06-2009 07:55:43 20.2 C 76 % 15.83 C
2919 30-06-2009 08:07:43 20.4 C 75 % 15.82 C
2920 30-06-2009 08:19:44 20.7 C 74 % 15.9 C
2921 30-06-2009 08:31:43 21.6 C 73 % 16.55 C
2922 30-06-2009 08:43:43 22.1 C 70 % 16.37 C
2923 30-06-2009 08:55:43 22.5 C 68 % 16.3 C
2924 30-06-2009 09:07:43 23 C 65 % 16.07 C
2925 30-06-2009 09:19:43 23.2 C 65 % 16.26 C
Sensor: Nr:Datum:Temp:Feuchte:Taupunkt:
Aussen-T/F 2926 30-06-2009 09:31:43 23.7 C 63 % 16.24 C
2927 30-06-2009 09:43:43 24.5 C 60 % 16.23 C
2928 30-06-2009 09:55:42 24.5 C 59 % 15.96 C
2929 30-06-2009 10:07:43 25 C 57 % 15.89 C
2930 30-06-2009 10:19:42 25.6 C 55 % 15.89 C
2931 30-06-2009 10:31:42 26 C 53 % 15.68 C
2932 30-06-2009 10:43:42 26.6 C 51 % 15.63 C
2933 30-06-2009 10:55:42 27.3 C 46 % 14.67 C
2934 30-06-2009 11:07:42 28.1 C 45 % 15.05 C
2935 30-06-2009 11:19:41 28.3 C 44 % 14.88 C
2936 30-06-2009 11:31:42 28.4 C 43 % 14.62 C
2937 30-06-2009 11:43:42 29.2 C 42 % 14.97 C
2938 30-06-2009 11:55:41 29.7 C 40 % 14.66 C
2939 30-06-2009 12:07:41 30.2 C 38 % 14.31 C
2940 30-06-2009 12:19:41 30.3 C 39 % 14.8 C
2941 30-06-2009 12:31:41 30.8 C 35 % 13.57 C
2942 30-06-2009 12:43:41 31.4 C 31 % 12.24 C
2943 30-06-2009 12:55:41 31.5 C 32 % 12.81 C
2944 30-06-2009 13:07:40 31.9 C 28 % 11.13 C
2945 30-06-2009 13:19:41 32 C 28 % 11.21 C
2946 30-06-2009 13:31:40 32.7 C 26 % 10.69 C
2947 30-06-2009 13:43:40 31.2 C 29 % 11.06 C
2948 30-06-2009 13:55:40 31.3 C 30 % 11.65 C
2949 30-06-2009 14:07:40 31.7 C 26 % 9.85 C
2950 30-06-2009 14:19:40 31.9 C 27 % 10.58 C
Sensor: Nr:Datum:Temp:Feuchte:Taupunkt:
Aussen-T/F 2951 30-06-2009 14:31:40 31.9 C 26 % 10.02 C
2952 30-06-2009 14:43:40 31.6 C 27 % 10.33 C
2953 30-06-2009 14:55:40 31 C 30 % 11.4 C
2954 30-06-2009 15:07:40 28.9 C 37 % 12.75 C
2955 30-06-2009 15:19:39 23.4 C 73 % 18.28 C
2956 30-06-2009 15:31:39 22.3 C 83 % 19.27 C
2957 30-06-2009 15:43:39 21 C 84 % 18.19 C
2958 30-06-2009 15:55:39 20.2 C 86 % 17.78 C
2959 30-06-2009 16:07:39 19.7 C 87 % 17.47 C
2960 30-06-2009 16:19:38 20 C 87 % 17.77 C
2961 30-06-2009 16:31:39 20.5 C 89 % 18.62 C
2962 30-06-2009 16:43:39 19.3 C 88 % 17.26 C
2963 30-06-2009 16:55:38 19.3 C 88 % 17.26 C
2964 30-06-2009 17:07:38 19.7 C 89 % 17.84 C
2965 30-06-2009 17:19:39 20 C 89 % 18.13 C
2966 30-06-2009 17:31:38 20.1 C 89 % 18.23 C
2967 30-06-2009 17:43:38 20.3 C 89 % 18.43 C
2968 30-06-2009 17:55:38 20.6 C 90 % 18.9 C
2969 30-06-2009 18:07:38 20.8 C 90 % 19.1 C
2970 30-06-2009 18:19:38 21.1 C 89 % 19.22 C
2971 30-06-2009 18:31:37 21.3 C 88 % 19.23 C
2972 30-06-2009 18:43:37 21.7 C 86 % 19.25 C
2973 30-06-2009 18:55:38 22 C 84 % 19.17 C
2974 30-06-2009 19:07:37 22 C 81 % 18.59 C
2975 30-06-2009 19:19:37 22.3 C 81 % 18.88 C
Sensor: Nr:Datum:Temp:Feuchte:Taupunkt:
Aussen-T/F 2976 30-06-2009 19:31:37 22.6 C 81 % 19.17 C
2977 30-06-2009 19:43:37 22.8 C 79 % 18.97 C
2978 30-06-2009 19:55:37 23.1 C 77 % 18.85 C
2979 30-06-2009 20:07:37 23.3 C 78 % 19.25 C
2980 30-06-2009 20:19:36 23.2 C 78 % 19.15 C
2981 30-06-2009 20:31:37 22.8 C 78 % 18.76 C
2982 30-06-2009 20:43:37 22.2 C 78 % 18.18 C
2983 30-06-2009 20:55:36 21.6 C 78 % 17.6 C
2984 30-06-2009 21:07:37 21 C 79 % 17.22 C
2985 30-06-2009 21:19:36 20.5 C 79 % 16.73 C
2986 30-06-2009 21:31:36 20 C 79 % 16.25 C
2987 30-06-2009 21:43:37 19.7 C 81 % 16.35 C
2988 30-06-2009 21:55:36 19.5 C 82 % 16.35 C
2989 30-06-2009 22:07:36 19.4 C 83 % 16.44 C
2990 30-06-2009 22:19:35 19.3 C 83 % 16.34 C
2991 30-06-2009 22:31:35 19.2 C 84 % 16.43 C
2992 30-06-2009 22:43:35 19.2 C 84 % 16.43 C
2993 30-06-2009 22:56:36 19.3 C 84 % 16.53 C
2994 30-06-2009 23:08:36 19.2 C 84 % 16.43 C
2995 30-06-2009 23:20:36 19.1 C 84 % 16.33 C
2996 30-06-2009 23:32:36 19 C 85 % 16.42 C
2997 30-06-2009 23:44:36 18.9 C 86 % 16.51 C
2998 30-06-2009 23:56:36 18.8 C 86 % 16.41 C
2999 01-07-2009 00:08:36 18.8 C 86 % 16.41 C
3000 01-07-2009 00:20:36 18.7 C 86 % 16.31 C
Sensor: Nr:Datum:Temp:Feuchte:Taupunkt:
Aussen-T/F 3001 01-07-2009 00:32:37 18.5 C 86 % 16.11 C
3002 01-07-2009 00:44:37 18.5 C 87 % 16.3 C
3003 01-07-2009 00:56:37 18.4 C 87 % 16.2 C
3004 01-07-2009 01:08:37 18.3 C 88 % 16.28 C
3005 01-07-2009 01:20:37 18.2 C 88 % 16.18 C
3006 01-07-2009 01:32:37 18.2 C 88 % 16.18 C
3007 01-07-2009 01:44:37 18.1 C 88 % 16.08 C
3008 01-07-2009 01:56:37 18.1 C 88 % 16.08 C
3009 01-07-2009 02:08:37 18.3 C 88 % 16.28 C
3010 01-07-2009 02:20:37 18.4 C 89 % 16.55 C
3011 01-07-2009 02:32:37 18.3 C 88 % 16.28 C
3012 01-07-2009 02:44:37 18.2 C 88 % 16.18 C
3013 01-07-2009 02:56:37 18.1 C 89 % 16.26 C
3014 01-07-2009 03:08:37 18.1 C 88 % 16.08 C
3015 01-07-2009 03:20:37 18 C 89 % 16.16 C
3016 01-07-2009 03:32:37 18 C 89 % 16.16 C
3017 01-07-2009 03:44:37 18.1 C 89 % 16.26 C
3018 01-07-2009 03:56:37 18.1 C 89 % 16.26 C
3019 01-07-2009 04:08:37 18.1 C 89 % 16.26 C
3020 01-07-2009 04:20:38 18 C 88 % 15.98 C
3021 01-07-2009 04:32:38 17.9 C 89 % 16.06 C
3022 01-07-2009 04:44:38 17.7 C 89 % 15.86 C
3023 01-07-2009 04:56:38 17.6 C 89 % 15.77 C
3024 01-07-2009 05:08:38 17.5 C 89 % 15.67 C
3025 01-07-2009 05:20:38 17.6 C 89 % 15.77 C
Sensor: Nr:Datum:Temp:Feuchte:Taupunkt:
Aussen-T/F 3026 01-07-2009 05:32:38 17.9 C 90 % 16.24 C
3027 01-07-2009 05:44:38 18 C 89 % 16.16 C
3028 01-07-2009 05:56:38 18 C 89 % 16.16 C
3029 01-07-2009 06:08:38 17.9 C 90 % 16.24 C
3030 01-07-2009 06:20:38 17.9 C 90 % 16.24 C
3031 01-07-2009 06:32:38 18.1 C 89 % 16.26 C
3032 01-07-2009 06:44:38 18.2 C 89 % 16.36 C
3033 01-07-2009 06:56:38 18.3 C 89 % 16.46 C
3034 01-07-2009 07:08:36 18.7 C 89 % 16.85 C
3035 01-07-2009 07:20:35 18.7 C 87 % 16.49 C
3036 01-07-2009 07:32:35 18.8 C 86 % 16.41 C
3037 01-07-2009 07:44:35 18.9 C 86 % 16.51 C
3038 01-07-2009 07:56:35 19 C 84 % 16.24 C
3039 01-07-2009 08:08:35 19.3 C 83 % 16.34 C
3040 01-07-2009 08:20:34 19.9 C 81 % 16.54 C
3041 01-07-2009 08:32:35 20.5 C 78 % 16.53 C
3042 01-07-2009 08:44:34 20.7 C 75 % 16.11 C
3043 01-07-2009 08:56:34 21.1 C 75 % 16.5 C
3044 01-07-2009 09:08:34 21.2 C 74 % 16.38 C
3045 01-07-2009 09:20:35 21.7 C 75 % 17.07 C
3046 01-07-2009 09:32:34 22.1 C 73 % 17.03 C
3047 01-07-2009 09:44:34 22.5 C 73 % 17.42 C
3048 01-07-2009 09:56:34 22.9 C 71 % 17.36 C
3049 01-07-2009 10:08:34 23.5 C 69 % 17.48 C
3050 01-07-2009 10:20:34 23.9 C 67 % 17.4 C
Sensor: Nr:Datum:Temp:Feuchte:Taupunkt:
Aussen-T/F 3051 01-07-2009 10:32:33 24.5 C 63 % 16.99 C
3052 01-07-2009 10:44:34 24.7 C 60 % 16.41 C
3053 01-07-2009 10:56:34 25.6 C 58 % 16.72 C
3054 01-07-2009 11:08:33 26 C 53 % 15.68 C
3055 01-07-2009 11:20:33 26.8 C 52 % 16.12 C
3056 01-07-2009 11:32:33 27.4 C 49 % 15.74 C
3057 01-07-2009 11:44:33 28.3 C 44 % 14.88 C
3058 01-07-2009 11:56:33 28.8 C 45 % 15.68 C
3059 01-07-2009 12:08:33 29.7 C 39 % 14.27 C
3060 01-07-2009 12:20:32 30.3 C 38 % 14.4 C
3061 01-07-2009 12:32:33 30.9 C 35 % 13.66 C
3062 01-07-2009 12:44:32 31 C 34 % 13.3 C
3063 01-07-2009 12:56:32 31.2 C 31 % 12.06 C
3064 01-07-2009 13:08:32 31.7 C 28 % 10.96 C
3065 01-07-2009 13:20:32 32.1 C 30 % 12.34 C
3066 01-07-2009 13:32:32 32.7 C 25 % 10.1 C
3067 01-07-2009 13:44:32 32.9 C 23 % 9.03 C
3068 01-07-2009 13:56:32 31.7 C 27 % 10.41 C
3069 01-07-2009 14:08:32 27.9 C 40 % 13.05 C
3070 01-07-2009 14:20:32 23.8 C 68 % 17.54 C
3071 01-07-2009 14:32:31 23.8 C 71 % 18.22 C
3072 01-07-2009 14:44:31 24.2 C 66 % 17.45 C
3073 01-07-2009 14:56:31 25 C 64 % 17.72 C
3074 01-07-2009 15:08:31 25.8 C 60 % 17.45 C
3075 01-07-2009 15:20:31 26.7 C 56 % 17.19 C
Sensor: Nr:Datum:Temp:Feuchte:Taupunkt:
Aussen-T/F 3076 01-07-2009 15:32:31 27.4 C 52 % 16.67 C
3077 01-07-2009 15:44:31 28.2 C 51 % 17.1 C
3078 01-07-2009 15:56:31 29.2 C 49 % 17.39 C
3079 01-07-2009 16:08:31 29.5 C 46 % 16.66 C
3080 01-07-2009 16:20:30 29.7 C 44 % 16.14 C
3081 01-07-2009 16:32:31 30.9 C 35 % 13.66 C
3082 01-07-2009 16:44:30 32.2 C 32 % 13.41 C
3083 01-07-2009 16:56:30 32.7 C 26 % 10.69 C
3084 01-07-2009 17:08:31 32.9 C 24 % 9.66 C
3085 01-07-2009 17:20:30 31.7 C 27 % 10.41 C
3086 01-07-2009 17:32:29 31.7 C 26 % 9.85 C
3087 01-07-2009 17:44:30 31.1 C 30 % 11.48 C
3088 01-07-2009 17:56:30 29.7 C 39 % 14.27 C
3089 01-07-2009 18:08:29 28.3 C 43 % 14.53 C
3090 01-07-2009 18:20:29 27.5 C 44 % 14.16 C
3091 01-07-2009 18:32:29 27 C 46 % 14.39 C
3092 01-07-2009 18:44:29 26.6 C 48 % 14.69 C
3093 01-07-2009 18:56:30 26.2 C 48 % 14.32 C
3094 01-07-2009 19:08:28 25.9 C 51 % 14.99 C
3095 01-07-2009 19:20:29 25.9 C 51 % 14.99 C
3096 01-07-2009 19:32:29 26 C 49 % 14.46 C
3097 01-07-2009 19:44:28 26.1 C 50 % 14.87 C
3098 01-07-2009 19:56:28 26.5 C 50 % 15.23 C
3099 01-07-2009 20:08:29 27 C 48 % 15.05 C
3100 01-07-2009 20:20:28 27.1 C 48 % 15.15 C
Sensor: Nr:Datum:Temp:Feuchte:Taupunkt:
Aussen-T/F 3101 01-07-2009 20:32:28 26.7 C 48 % 14.78 C
3102 01-07-2009 20:44:28 26.4 C 50 % 15.14 C
3103 01-07-2009 20:56:28 25.9 C 52 % 15.29 C
3104 01-07-2009 21:08:28 25.3 C 53 % 15.03 C
3105 01-07-2009 21:20:27 24.6 C 57 % 15.52 C
3106 01-07-2009 21:32:27 24.4 C 58 % 15.6 C
3107 01-07-2009 21:44:27 24.1 C 57 % 15.05 C
3108 01-07-2009 21:56:27 23.7 C 59 % 15.21 C
3109 01-07-2009 22:08:27 23.3 C 61 % 15.36 C
3110 01-07-2009 22:20:27 23.1 C 63 % 15.67 C
3111 01-07-2009 22:32:21 22.9 C 65 % 15.97 C
3112 01-07-2009 22:44:21 22.8 C 65 % 15.88 C
3113 01-07-2009 22:56:21 22.6 C 66 % 15.93 C
3114 01-07-2009 23:08:21 22.4 C 66 % 15.74 C
3115 01-07-2009 23:20:21 22.1 C 68 % 15.92 C
3116 01-07-2009 23:32:21 21.9 C 70 % 16.18 C
3117 01-07-2009 23:44:21 21.9 C 71 % 16.4 C
3118 01-07-2009 23:56:22 22 C 71 % 16.5 C
3119 02-07-2009 00:08:22 21.7 C 72 % 16.43 C
3120 02-07-2009 00:20:22 21.6 C 72 % 16.34 C
3121 02-07-2009 00:32:22 21.5 C 73 % 16.46 C
3122 02-07-2009 00:44:22 21.2 C 73 % 16.17 C
3123 02-07-2009 00:56:28 21.1 C 74 % 16.29 C
3124 02-07-2009 01:09:28 20.9 C 74 % 16.09 C
3125 02-07-2009 01:21:28 20.8 C 75 % 16.21 C
Sensor: Nr:Datum:Temp:Feuchte:Taupunkt:
Aussen-T/F 3126 02-07-2009 01:33:28 20.6 C 75 % 16.01 C
3127 02-07-2009 01:45:28 20.4 C 76 % 16.03 C
3128 02-07-2009 01:57:28 20.3 C 76 % 15.93 C
3129 02-07-2009 02:09:28 20.1 C 76 % 15.74 C
3130 02-07-2009 02:21:28 20 C 77 % 15.85 C
3131 02-07-2009 02:33:28 19.9 C 79 % 16.15 C
3132 02-07-2009 02:45:28 19.7 C 79 % 15.96 C
3133 02-07-2009 02:57:29 19.7 C 79 % 15.96 C
3134 02-07-2009 03:09:29 19.7 C 80 % 16.15 C
3135 02-07-2009 03:21:29 19.4 C 80 % 15.86 C
3136 02-07-2009 03:33:29 19.4 C 80 % 15.86 C
3137 02-07-2009 03:45:29 19.2 C 81 % 15.86 C
3138 02-07-2009 03:57:29 19 C 82 % 15.86 C
3139 02-07-2009 04:09:29 18.9 C 83 % 15.95 C
3140 02-07-2009 04:21:29 18.9 C 83 % 15.95 C
3141 02-07-2009 04:33:29 18.9 C 83 % 15.95 C
3142 02-07-2009 04:45:29 18.7 C 83 % 15.75 C
3143 02-07-2009 04:57:29 18.6 C 83 % 15.66 C
3144 02-07-2009 05:09:29 18.5 C 83 % 15.56 C
3145 02-07-2009 05:21:29 18.5 C 83 % 15.56 C
3146 02-07-2009 05:33:29 18.3 C 83 % 15.36 C
3147 02-07-2009 05:45:29 18.4 C 84 % 15.65 C
3148 02-07-2009 05:57:29 18.3 C 84 % 15.55 C
3149 02-07-2009 06:09:29 18.3 C 84 % 15.55 C
3150 02-07-2009 06:21:29 18.4 C 84 % 15.65 C
Sensor: Nr:Datum:Temp:Feuchte:Taupunkt:
Aussen-T/F 3151 02-07-2009 06:33:29 18.4 C 84 % 15.65 C
3152 02-07-2009 06:45:29 18.5 C 84 % 15.75 C
3153 02-07-2009 06:57:29 18.5 C 84 % 15.75 C
3154 02-07-2009 07:09:28 18.6 C 84 % 15.84 C
3155 02-07-2009 07:21:28 18.7 C 84 % 15.94 C
3156 02-07-2009 07:33:29 18.9 C 84 % 16.14 C
3157 02-07-2009 07:45:28 19.1 C 82 % 15.96 C
3158 02-07-2009 07:57:28 19.2 C 82 % 16.05 C
3159 02-07-2009 08:09:28 19.6 C 82 % 16.44 C
3160 02-07-2009 08:21:28 20 C 80 % 16.44 C
3161 02-07-2009 08:33:28 20.3 C 78 % 16.34 C
3162 02-07-2009 08:45:27 20.6 C 78 % 16.63 C
3163 02-07-2009 08:57:27 20.7 C 78 % 16.73 C
3164 02-07-2009 09:09:28 20.9 C 78 % 16.92 C
3165 02-07-2009 09:21:27 21 C 77 % 16.81 C
3166 02-07-2009 09:33:27 21.3 C 76 % 16.9 C
3167 02-07-2009 09:45:27 22 C 73 % 16.94 C
3168 02-07-2009 09:57:27 23.1 C 69 % 17.1 C
3169 02-07-2009 10:09:27 23.8 C 64 % 16.58 C
3170 02-07-2009 10:21:27 24.5 C 62 % 16.74 C
3171 02-07-2009 10:33:26 25.2 C 59 % 16.62 C
3172 02-07-2009 10:45:27 25.8 C 57 % 16.64 C
3173 02-07-2009 10:57:27 26.3 C 53 % 15.96 C
3174 02-07-2009 11:09:26 27 C 51 % 16 C
3175 02-07-2009 11:21:26 27.5 C 50 % 16.15 C
Sensor: Nr:Datum:Temp:Feuchte:Taupunkt:
Aussen-T/F 3176 02-07-2009 11:33:26 28.2 C 47 % 15.82 C
3177 02-07-2009 11:45:26 29 C 43 % 15.15 C
3178 02-07-2009 11:57:26 29.1 C 42 % 14.88 C
3179 02-07-2009 12:09:25 29.6 C 41 % 14.95 C
3180 02-07-2009 12:21:26 30 C 36 % 13.3 C
3181 02-07-2009 12:33:26 30.7 C 34 % 13.04 C
3182 02-07-2009 12:45:25 31.2 C 32 % 12.55 C
3183 02-07-2009 12:57:25 31.6 C 29 % 11.4 C
3184 02-07-2009 13:09:26 32 C 26 % 10.1 C
3185 02-07-2009 13:21:25 32.6 C 25 % 10.02 C
3186 02-07-2009 13:33:25 33.1 C 24 % 9.83 C
3187 02-07-2009 13:45:25 33.1 C 23 % 9.2 C
3188 02-07-2009 13:57:25 32.3 C 25 % 9.77 C
3189 02-07-2009 14:09:25 32.4 C 25 % 9.85 C
3190 02-07-2009 14:21:24 32.3 C 26 % 10.35 C
3191 02-07-2009 14:33:24 32 C 28 % 11.21 C
3192 02-07-2009 14:45:25 32.1 C 25 % 9.6 C
3193 02-07-2009 14:57:25 31.8 C 27 % 10.49 C
3194 02-07-2009 15:09:24 32.4 C 23 % 8.61 C
3195 02-07-2009 15:21:24 32.7 C 21 % 7.53 C
3196 02-07-2009 15:33:24 33.1 C 21 % 7.85 C
3197 02-07-2009 15:45:24 33.6 C 20 % 7.55 C
3198 02-07-2009 15:57:24 33.8 C 20 % 7.71 C
3199 02-07-2009 16:09:23 32.6 C 26 % 10.61 C
3200 02-07-2009 16:21:24 31.3 C 32 % 12.63 C
Sensor: Nr:Datum:Temp:Feuchte:Taupunkt:
Aussen-T/F 3201 02-07-2009 16:33:24 32.5 C 24 % 9.33 C
3202 02-07-2009 16:45:23 33.7 C 20 % 7.63 C
3203 02-07-2009 16:57:23 33.6 C 20 % 7.55 C
3204 02-07-2009 17:09:23 33.1 C 20 % 7.14 C
3205 02-07-2009 17:21:23 33.3 C 20 % 7.3 C
3206 02-07-2009 17:33:24 33.6 C 20 % 7.55 C
3207 02-07-2009 17:45:22 34 C 20 % 7.88 C
3208 02-07-2009 17:57:22 34.4 C 20 % 8.2 C
3209 02-07-2009 18:09:23 34.8 C 20 % 8.53 C
3210 02-07-2009 18:21:22 34.4 C 20 % 8.2 C
3211 02-07-2009 18:33:22 34.4 C 20 % 8.2 C
3212 02-07-2009 18:45:22 34.5 C 20 % 8.28 C
3213 02-07-2009 18:57:22 34.2 C 20 % 8.04 C
3214 02-07-2009 19:09:22 34.2 C 21 % 8.76 C
3215 02-07-2009 19:21:22 34 C 21 % 8.59 C
3216 02-07-2009 19:33:21 33.7 C 22 % 9.03 C
3217 02-07-2009 19:45:22 33.6 C 23 % 9.61 C
3218 02-07-2009 19:57:22 32.6 C 24 % 9.41 C
3219 02-07-2009 20:09:21 31.7 C 26 % 9.85 C
3220 02-07-2009 20:21:21 31.1 C 29 % 10.97 C
3221 02-07-2009 20:33:21 30.4 C 35 % 13.22 C
3222 02-07-2009 20:45:21 30 C 36 % 13.3 C
3223 02-07-2009 20:57:21 29 C 39 % 13.65 C
3224 02-07-2009 21:09:20 28.3 C 41 % 13.79 C
3225 02-07-2009 21:21:21 28 C 42 % 13.89 C
Sensor: Nr:Datum:Temp:Feuchte:Taupunkt:
Aussen-T/F 3226 02-07-2009 21:33:20 27.6 C 45 % 14.6 C
3227 02-07-2009 21:45:20 27.2 C 46 % 14.58 C
3228 02-07-2009 21:57:20 26.9 C 48 % 14.96 C
3229 02-07-2009 22:09:20 26.3 C 49 % 14.74 C
3230 02-07-2009 22:21:20 26.2 C 48 % 14.32 C
3231 02-07-2009 22:33:20 26 C 48 % 14.14 C
3232 02-07-2009 22:46:21 25.8 C 50 % 14.59 C
3233 02-07-2009 22:58:21 25.7 C 51 % 14.81 C
3234 02-07-2009 23:10:21 25.6 C 51 % 14.71 C
3235 02-07-2009 23:22:21 25.3 C 52 % 14.74 C
3236 02-07-2009 23:34:21 25 C 52 % 14.46 C
3237 02-07-2009 23:46:21 24.7 C 53 % 14.48 C
3238 02-07-2009 23:58:21 24.7 C 54 % 14.77 C
3239 03-07-2009 00:10:21 24.5 C 54 % 14.58 C
3240 03-07-2009 00:22:21 24 C 56 % 14.68 C
3241 03-07-2009 00:34:21 23.9 C 58 % 15.14 C
3242 03-07-2009 00:46:21 23.6 C 58 % 14.86 C
3243 03-07-2009 00:58:21 23.5 C 58 % 14.76 C
3244 03-07-2009 01:10:21 23.3 C 59 % 14.84 C
3245 03-07-2009 01:22:21 23.1 C 59 % 14.65 C
3246 03-07-2009 01:34:21 23 C 61 % 15.08 C
3247 03-07-2009 01:46:21 22.8 C 62 % 15.14 C
3248 03-07-2009 01:58:21 22.5 C 63 % 15.11 C
3249 03-07-2009 02:10:21 22.5 C 63 % 15.11 C
3250 03-07-2009 02:22:21 22.1 C 65 % 15.21 C
Sensor: Nr:Datum:Temp:Feuchte:Taupunkt:
Aussen-T/F 3251 03-07-2009 02:34:22 22 C 65 % 15.12 C
3252 03-07-2009 02:46:22 21.7 C 66 % 15.07 C
3253 03-07-2009 02:58:22 21.6 C 67 % 15.21 C
3254 03-07-2009 03:10:22 21.5 C 68 % 15.35 C
3255 03-07-2009 03:22:22 21.5 C 68 % 15.35 C
3256 03-07-2009 03:34:22 21.5 C 67 % 15.12 C
3257 03-07-2009 03:46:22 21.3 C 68 % 15.16 C
3258 03-07-2009 03:58:22 21 C 69 % 15.1 C
3259 03-07-2009 04:10:22 20.8 C 71 % 15.35 C
3260 03-07-2009 04:22:22 20.6 C 72 % 15.38 C
3261 03-07-2009 04:34:22 20.5 C 72 % 15.28 C
3262 03-07-2009 04:46:22 20.3 C 73 % 15.3 C
3263 03-07-2009 04:58:22 20.4 C 73 % 15.4 C
3264 03-07-2009 05:10:22 20.2 C 74 % 15.42 C
3265 03-07-2009 05:22:22 20.1 C 74 % 15.32 C
3266 03-07-2009 05:34:22 20 C 74 % 15.23 C
3267 03-07-2009 05:46:22 20 C 74 % 15.23 C
3268 03-07-2009 05:58:22 19.9 C 75 % 15.34 C
3269 03-07-2009 06:10:22 20 C 75 % 15.43 C
3270 03-07-2009 06:22:23 20.2 C 75 % 15.63 C
3271 03-07-2009 06:34:23 20 C 75 % 15.43 C
3272 03-07-2009 06:46:23 20 C 75 % 15.43 C
3273 03-07-2009 06:58:23 20.1 C 76 % 15.74 C
3274 03-07-2009 07:10:21 20.1 C 76 % 15.74 C
3275 03-07-2009 07:22:20 20.1 C 76 % 15.74 C
Sensor: Nr:Datum:Temp:Feuchte:Taupunkt:
Aussen-T/F 3276 03-07-2009 07:34:21 20.4 C 76 % 16.03 C
3277 03-07-2009 07:46:20 20.6 C 75 % 16.01 C
3278 03-07-2009 07:58:20 20.7 C 75 % 16.11 C
3279 03-07-2009 08:10:20 21.1 C 73 % 16.07 C
3280 03-07-2009 08:22:20 21.4 C 71 % 15.93 C
3281 03-07-2009 08:34:20 21.9 C 70 % 16.18 C
3282 03-07-2009 08:46:19 22.4 C 68 % 16.2 C
3283 03-07-2009 08:58:19 22.9 C 66 % 16.21 C
3284 03-07-2009 09:10:20 23.5 C 64 % 16.3 C
3285 03-07-2009 09:22:20 24.1 C 62 % 16.37 C
3286 03-07-2009 09:34:19 24.7 C 58 % 15.88 C
3287 03-07-2009 09:46:20 25.3 C 57 % 16.17 C
3288 03-07-2009 09:58:20 25.9 C 55 % 16.17 C
3289 03-07-2009 10:10:19 26.4 C 53 % 16.05 C
3290 03-07-2009 10:22:19 27.1 C 50 % 15.78 C
3291 03-07-2009 10:34:19 27.6 C 47 % 15.27 C
3292 03-07-2009 10:46:19 28.2 C 45 % 15.14 C
3293 03-07-2009 10:58:19 28.4 C 44 % 14.97 C
3294 03-07-2009 11:10:18 28.9 C 42 % 14.7 C
3295 03-07-2009 11:22:19 29.4 C 41 % 14.77 C
3296 03-07-2009 11:34:19 30 C 38 % 14.13 C
3297 03-07-2009 11:46:18 30.2 C 38 % 14.31 C
3298 03-07-2009 11:58:18 30.6 C 35 % 13.39 C
3299 03-07-2009 12:10:18 31.3 C 34 % 13.56 C
3300 03-07-2009 12:22:18 31.5 C 30 % 11.83 C
Sensor: Nr:Datum:Temp:Feuchte:Taupunkt:
Aussen-T/F 3301 03-07-2009 12:34:18 32 C 28 % 11.21 C
3302 03-07-2009 12:46:18 32.4 C 25 % 9.85 C
3303 03-07-2009 12:58:18 32.9 C 23 % 9.03 C
3304 03-07-2009 13:10:18 31.8 C 28 % 11.04 C
3305 03-07-2009 13:22:17 31.2 C 35 % 13.92 C
3306 03-07-2009 13:34:17 30.1 C 39 % 14.62 C
3307 03-07-2009 13:46:17 27.5 C 48 % 15.51 C
3308 03-07-2009 13:58:17 23.7 C 69 % 17.67 C
3309 03-07-2009 14:10:17 23 C 71 % 17.46 C
3310 03-07-2009 14:22:16 22.5 C 68 % 16.3 C
3311 03-07-2009 14:34:17 21.9 C 66 % 15.26 C
3312 03-07-2009 14:46:13 21.8 C 67 % 15.4 C
3313 03-07-2009 14:58:13 20.7 C 77 % 16.52 C
3314 03-07-2009 15:10:13 20.1 C 82 % 16.93 C
3315 03-07-2009 15:22:02 20.1 C 84 % 17.31 C
3316 03-07-2009 15:34:02 20.1 C 85 % 17.5 C
3317 03-07-2009 15:46:02 20.5 C 86 % 18.08 C
3318 03-07-2009 15:58:03 20.7 C 87 % 18.46 C
3319 03-07-2009 16:10:01 20.9 C 87 % 18.65 C
3320 03-07-2009 16:22:02 20.9 C 87 % 18.65 C
3321 03-07-2009 16:34:02 20.8 C 84 % 18 C
3322 03-07-2009 16:46:01 20.7 C 81 % 17.32 C
3323 03-07-2009 16:58:01 20.8 C 81 % 17.42 C
3324 03-07-2009 17:10:01 21 C 81 % 17.61 C
3325 03-07-2009 17:22:01 21.7 C 78 % 17.7 C
Sensor: Nr:Datum:Temp:Feuchte:Taupunkt:
Aussen-T/F 3326 03-07-2009 17:34:01 21.9 C 77 % 17.68 C
3327 03-07-2009 17:46:00 22.4 C 75 % 17.75 C
3328 03-07-2009 17:58:00 22.7 C 73 % 17.61 C
3329 03-07-2009 18:10:01 23.8 C 68 % 17.54 C
3330 03-07-2009 18:22:00 23.9 C 66 % 17.16 C
3331 03-07-2009 18:34:00 25.6 C 60 % 17.26 C
3332 03-07-2009 18:46:00 26.6 C 54 % 16.53 C
3333 03-07-2009 18:58:00 26.4 C 56 % 16.92 C
3334 03-07-2009 19:10:00 26.5 C 55 % 16.72 C
3335 03-07-2009 19:22:00 26.3 C 55 % 16.54 C
3336 03-07-2009 19:34:59 26.4 C 55 % 16.63 C
3337 03-07-2009 19:46:00 26.3 C 55 % 16.54 C
3338 03-07-2009 19:58:00 25.4 C 60 % 17.07 C
3339 03-07-2009 20:10:59 24.5 C 63 % 16.99 C
3340 03-07-2009 20:22:59 23.9 C 67 % 17.4 C
3341 03-07-2009 20:34:59 23.6 C 69 % 17.58 C
3342 03-07-2009 20:46:59 23.4 C 70 % 17.62 C
3343 03-07-2009 20:59:00 23.1 C 70 % 17.33 C
3344 03-07-2009 21:10:59 23.1 C 71 % 17.55 C
3345 03-07-2009 21:22:58 22.5 C 74 % 17.63 C
3346 03-07-2009 21:34:58 22.2 C 76 % 17.77 C
3347 03-07-2009 21:46:58 22.1 C 76 % 17.67 C
3348 03-07-2009 21:58:58 22.1 C 76 % 17.67 C
3349 03-07-2009 22:10:58 21.7 C 78 % 17.7 C
3350 03-07-2009 22:22:58 21.5 C 79 % 17.7 C
Sensor: Nr:Datum:Temp:Feuchte:Taupunkt:
Aussen-T/F 3351 03-07-2009 22:34:58 21.2 C 80 % 17.61 C
3352 03-07-2009 22:46:58 21 C 81 % 17.61 C
3353 03-07-2009 22:58:58 21 C 79 % 17.22 C
3354 03-07-2009 23:10:57 21 C 79 % 17.22 C
3355 03-07-2009 23:22:58 20.8 C 79 % 17.02 C
3356 03-07-2009 23:35:57 20.8 C 80 % 17.22 C
3357 03-07-2009 23:47:57 20.6 C 80 % 17.03 C
3358 03-07-2009 23:59:57 20.5 C 81 % 17.13 C
3359 04-07-2009 00:11:57 20.4 C 82 % 17.22 C
3360 04-07-2009 00:23:57 20.3 C 82 % 17.13 C
3361 04-07-2009 00:35:57 20.2 C 82 % 17.03 C
3362 04-07-2009 00:47:57 20.1 C 82 % 16.93 C
3363 04-07-2009 00:59:57 19.8 C 84 % 17.02 C
3364 04-07-2009 01:11:57 19.5 C 86 % 17.1 C
3365 04-07-2009 01:23:58 19.5 C 86 % 17.1 C
3366 04-07-2009 01:35:58 19.4 C 88 % 17.36 C
3367 04-07-2009 01:47:58 19.3 C 88 % 17.26 C
3368 04-07-2009 01:59:58 19.3 C 88 % 17.26 C
3369 04-07-2009 02:11:58 19.2 C 88 % 17.16 C
3370 04-07-2009 02:23:58 19.1 C 88 % 17.07 C
3371 04-07-2009 02:35:58 19.1 C 88 % 17.07 C
3372 04-07-2009 02:47:58 19.2 C 88 % 17.16 C
3373 04-07-2009 02:59:58 19.1 C 88 % 17.07 C
3374 04-07-2009 03:11:58 18.9 C 89 % 17.05 C
3375 04-07-2009 03:23:58 18.8 C 89 % 16.95 C
Sensor: Nr:Datum:Temp:Feuchte:Taupunkt:
Aussen-T/F 3376 04-07-2009 03:35:58 18.7 C 89 % 16.85 C
3377 04-07-2009 03:47:58 18.9 C 89 % 17.05 C
3378 04-07-2009 03:59:58 18.9 C 89 % 17.05 C
3379 04-07-2009 04:11:58 18.7 C 88 % 16.67 C
3380 04-07-2009 04:23:58 18.8 C 88 % 16.77 C
3381 04-07-2009 04:35:58 18.9 C 88 % 16.87 C
3382 04-07-2009 04:47:58 18.9 C 88 % 16.87 C
3383 04-07-2009 04:59:58 18.8 C 87 % 16.59 C
3384 04-07-2009 05:11:59 18.6 C 86 % 16.21 C
3385 04-07-2009 05:23:59 18.4 C 85 % 15.83 C
3386 04-07-2009 05:35:59 18.3 C 84 % 15.55 C
3387 04-07-2009 05:47:59 18.1 C 84 % 15.35 C
3388 04-07-2009 05:59:59 17.7 C 86 % 15.33 C
3389 04-07-2009 06:11:59 17.6 C 86 % 15.23 C
3390 04-07-2009 06:23:59 17.6 C 86 % 15.23 C
3391 04-07-2009 06:35:59 17.5 C 86 % 15.13 C
3392 04-07-2009 06:47:59 17.5 C 87 % 15.31 C
3393 04-07-2009 06:59:59 17.4 C 88 % 15.39 C
3394 04-07-2009 07:11:59 17.7 C 88 % 15.69 C
3395 04-07-2009 07:23:59 17.9 C 87 % 15.71 C
3396 04-07-2009 07:35:59 18 C 85 % 15.44 C
3397 04-07-2009 07:47:59 18 C 84 % 15.26 C
3398 04-07-2009 07:59:59 18.2 C 82 % 15.08 C
3399 04-07-2009 08:11:57 18.5 C 80 % 14.99 C
3400 04-07-2009 08:23:57 18.8 C 76 % 14.48 C
Sensor: Nr:Datum:Temp:Feuchte:Taupunkt:
Aussen-T/F 3401 04-07-2009 08:35:57 19.1 C 72 % 13.94 C
3402 04-07-2009 08:47:56 19.5 C 67 % 13.21 C
3403 04-07-2009 08:59:56 19.7 C 64 % 12.7 C
3404 04-07-2009 09:11:56 20 C 63 % 12.75 C
3405 04-07-2009 09:23:56 20.4 C 60 % 12.38 C
3406 04-07-2009 09:35:56 21.3 C 55 % 11.9 C
3407 04-07-2009 09:47:55 22.2 C 53 % 12.17 C
3408 04-07-2009 09:59:55 22.1 C 54 % 12.36 C
3409 04-07-2009 10:11:56 22.3 C 53 % 12.26 C
3410 04-07-2009 10:23:56 22.7 C 52 % 12.34 C
3411 04-07-2009 10:35:55 23.5 C 51 % 12.78 C
3412 04-07-2009 10:47:56 24.3 C 48 % 12.59 C
3413 04-07-2009 10:59:56 24.7 C 45 % 11.97 C
3414 04-07-2009 11:11:55 25.3 C 42 % 11.47 C
3415 04-07-2009 11:23:55 25.6 C 41 % 11.38 C
3416 04-07-2009 11:35:54 26.2 C 39 % 11.16 C
3417 04-07-2009 11:47:55 26.7 C 39 % 11.6 C
3418 04-07-2009 11:59:55 27.8 C 37 % 11.78 C
3419 04-07-2009 12:11:54 28.3 C 36 % 11.81 C
3420 04-07-2009 12:23:54 27.8 C 35 % 10.94 C
3421 04-07-2009 12:35:55 27.1 C 37 % 11.16 C
3422 04-07-2009 12:47:54 26.7 C 38 % 11.21 C
3423 04-07-2009 12:59:54 25.8 C 42 % 11.92 C
3424 04-07-2009 13:11:54 27.3 C 37 % 11.34 C
3425 04-07-2009 13:23:53 27.7 C 37 % 11.69 C
Sensor: Nr:Datum:Temp:Feuchte:Taupunkt:
Aussen-T/F 3426 04-07-2009 13:35:54 30.6 C 29 % 10.54 C
3427 04-07-2009 13:47:53 31.3 C 25 % 8.93 C
3428 04-07-2009 13:59:53 30.6 C 28 % 10.02 C
3429 04-07-2009 14:11:53 30 C 31 % 11.03 C
3430 04-07-2009 14:23:54 29.6 C 30 % 10.19 C
3431 04-07-2009 14:35:53 27.9 C 32 % 9.69 C
3432 04-07-2009 14:47:53 28.9 C 31 % 10.08 C
3433 04-07-2009 14:59:53 30.3 C 28 % 9.76 C
3434 04-07-2009 15:11:53 29.9 C 30 % 10.45 C
3435 04-07-2009 15:23:53 30.2 C 30 % 10.71 C
3436 04-07-2009 15:35:52 29.6 C 28 % 9.17 C
3437 04-07-2009 15:47:53 30.4 C 26 % 8.75 C
3438 04-07-2009 15:59:53 30 C 28 % 9.51 C
3439 04-07-2009 16:11:52 31.2 C 22 % 6.97 C
3440 04-07-2009 16:23:52 31 C 22 % 6.8 C
3441 04-07-2009 16:35:52 30.8 C 23 % 7.28 C
3442 04-07-2009 16:47:52 31.1 C 21 % 6.21 C
3443 04-07-2009 16:59:52 30.9 C 21 % 6.05 C
3444 04-07-2009 17:11:52 30.4 C 22 % 6.31 C
3445 04-07-2009 17:23:51 31.2 C 21 % 6.29 C
3446 04-07-2009 17:35:52 30.6 C 21 % 5.8 C
3447 04-07-2009 17:47:51 30.4 C 23 % 6.95 C
3448 04-07-2009 17:59:51 31.5 C 20 % 5.83 C
3449 04-07-2009 18:11:51 31.2 C 20 % 5.59 C
3450 04-07-2009 18:23:50 30.6 C 20 % 5.1 C
Sensor: Nr:Datum:Temp:Feuchte:Taupunkt:
Aussen-T/F 3451 04-07-2009 18:35:51 31 C 20 % 5.42 C
3452 04-07-2009 18:47:50 30.3 C 22 % 6.22 C
3453 04-07-2009 18:59:50 30.6 C 21 % 5.8 C
3454 04-07-2009 19:11:50 30.5 C 24 % 7.66 C
3455 04-07-2009 19:23:51 30.6 C 23 % 7.12 C
3456 04-07-2009 19:35:50 30.7 C 23 % 7.2 C
3457 04-07-2009 19:47:50 31 C 23 % 7.45 C
3458 04-07-2009 19:59:50 31.2 C 22 % 6.97 C
3459 04-07-2009 20:11:50 30.9 C 23 % 7.37 C
3460 04-07-2009 20:23:50 30.3 C 26 % 8.66 C
3461 04-07-2009 20:35:49 30.1 C 29 % 10.12 C
3462 04-07-2009 20:47:49 29.2 C 30 % 9.85 C
3463 04-07-2009 20:59:49 28.6 C 33 % 10.76 C
3464 04-07-2009 21:11:49 27.3 C 36 % 10.93 C
3465 04-07-2009 21:23:49 25.9 C 40 % 11.27 C
3466 04-07-2009 21:35:49 25.1 C 41 % 10.93 C
3467 04-07-2009 21:47:49 24.4 C 42 % 10.66 C
3468 04-07-2009 21:59:49 24.1 C 43 % 10.75 C
3469 04-07-2009 22:11:48 24.1 C 43 % 10.75 C
3470 04-07-2009 22:23:49 23.6 C 45 % 10.98 C
3471 04-07-2009 22:35:49 23.2 C 47 % 11.27 C
3472 04-07-2009 22:47:48 23 C 47 % 11.09 C
3473 04-07-2009 22:59:48 22.5 C 49 % 11.26 C
3474 04-07-2009 23:12:49 22.2 C 49 % 10.98 C
3475 04-07-2009 23:24:49 21.7 C 54 % 11.99 C
Sensor: Nr:Datum:Temp:Feuchte:Taupunkt:
Aussen-T/F 3476 04-07-2009 23:36:49 21.5 C 54 % 11.81 C
3477 04-07-2009 23:48:49 21.3 C 55 % 11.9 C
3478 05-07-2009 00:00:49 20.9 C 57 % 12.07 C
3479 05-07-2009 00:12:49 20.8 C 58 % 12.24 C
3480 05-07-2009 00:24:49 20.7 C 58 % 12.15 C
3481 05-07-2009 00:36:49 20.5 C 58 % 11.96 C
3482 05-07-2009 00:48:49 20.3 C 59 % 12.03 C
3483 05-07-2009 01:00:49 19.9 C 61 % 12.16 C
3484 05-07-2009 01:12:49 19.7 C 63 % 12.46 C
3485 05-07-2009 01:24:49 19.3 C 65 % 12.56 C
3486 05-07-2009 01:36:49 19.3 C 65 % 12.56 C
3487 05-07-2009 01:48:49 19 C 67 % 12.74 C
3488 05-07-2009 02:00:49 18.8 C 69 % 13 C
3489 05-07-2009 02:12:49 18.6 C 70 % 13.02 C
3490 05-07-2009 02:24:49 18.5 C 70 % 12.93 C
3491 05-07-2009 02:36:49 18.5 C 70 % 12.93 C
3492 05-07-2009 02:48:49 18.4 C 71 % 13.05 C
3493 05-07-2009 03:00:50 18.4 C 71 % 13.05 C
3494 05-07-2009 03:12:50 18.1 C 71 % 12.76 C
3495 05-07-2009 03:24:50 18 C 71 % 12.67 C
3496 05-07-2009 03:36:50 17.9 C 73 % 12.99 C
3497 05-07-2009 03:48:50 17.7 C 74 % 13.01 C
3498 05-07-2009 04:00:50 17.6 C 75 % 13.12 C
3499 05-07-2009 04:12:50 17.5 C 75 % 13.02 C
3500 05-07-2009 04:24:50 17.4 C 75 % 12.93 C
Sensor: Nr:Datum:Temp:Feuchte:Taupunkt:
Aussen-T/F 3501 05-07-2009 04:36:50 17.2 C 75 % 12.73 C
3502 05-07-2009 04:48:50 17.2 C 75 % 12.73 C
3503 05-07-2009 05:00:50 17.2 C 76 % 12.94 C
3504 05-07-2009 05:12:50 16.9 C 77 % 12.84 C
3505 05-07-2009 05:24:50 16.8 C 77 % 12.75 C
3506 05-07-2009 05:36:50 16.8 C 78 % 12.94 C
3507 05-07-2009 05:48:49 16.9 C 78 % 13.04 C
3508 05-07-2009 06:00:49 17.3 C 77 % 13.23 C
3509 05-07-2009 06:12:49 17.3 C 76 % 13.03 C
3510 05-07-2009 06:24:48 17.4 C 76 % 13.13 C
3511 05-07-2009 06:36:48 17.4 C 76 % 13.13 C
3512 05-07-2009 06:48:49 17.4 C 76 % 13.13 C
3513 05-07-2009 07:00:02 17.5 C 76 % 13.23 C
3514 05-07-2009 07:12:02 17.8 C 76 % 13.52 C
3515 05-07-2009 07:24:02 17.7 C 76 % 13.42 C
3516 05-07-2009 07:36:02 17.9 C 75 % 13.41 C
3517 05-07-2009 07:48:02 18 C 73 % 13.09 C
3518 05-07-2009 08:00:02 18.5 C 73 % 13.57 C
3519 05-07-2009 08:12:01 19.2 C 70 % 13.6 C
3520 05-07-2009 08:24:02 19.7 C 67 % 13.4 C
3521 05-07-2009 08:36:02 20.4 C 64 % 13.37 C
3522 05-07-2009 08:48:01 21.1 C 61 % 13.29 C
3523 05-07-2009 09:00:01 21.9 C 59 % 13.53 C
3524 05-07-2009 09:12:01 22.2 C 57 % 13.28 C
3525 05-07-2009 09:24:02 22.7 C 56 % 13.47 C
Sensor: Nr:Datum:Temp:Feuchte:Taupunkt:
Aussen-T/F 3526 05-07-2009 09:36:01 22.8 C 55 % 13.29 C
3527 05-07-2009 09:48:01 22.9 C 55 % 13.38 C
3528 05-07-2009 10:00:01 23 C 55 % 13.48 C
3529 05-07-2009 10:12:00 23.2 C 56 % 13.94 C
3530 05-07-2009 10:24:01 23.1 C 56 % 13.85 C
3531 05-07-2009 10:36:00 22.9 C 57 % 13.93 C
3532 05-07-2009 10:48:00 23.2 C 55 % 13.66 C
3533 05-07-2009 11:00:00 23.9 C 52 % 13.45 C
3534 05-07-2009 11:12:00 24.1 C 50 % 13.03 C
3535 05-07-2009 11:24:00 24.3 C 50 % 13.22 C
3536 05-07-2009 11:36:00 24.8 C 49 % 13.36 C
3537 05-07-2009 11:48:00 24.8 C 48 % 13.05 C
3538 05-07-2009 12:00:00 25.7 C 47 % 13.55 C
3539 05-07-2009 12:12:59 26.8 C 44 % 13.53 C
3540 05-07-2009 12:24:59 26.5 C 43 % 12.91 C
3541 05-07-2009 12:36:59 27.4 C 40 % 12.61 C
3542 05-07-2009 12:48:01 28.1 C 36 % 11.63 C
3543 05-07-2009 13:00:01 28.5 C 33 % 10.67 C
3544 05-07-2009 13:12:59 29.6 C 30 % 10.19 C
3545 05-07-2009 13:24:58 29.2 C 32 % 10.81 C
3546 05-07-2009 13:36:00 29 C 30 % 9.68 C
3547 05-07-2009 13:48:59 30.5 C 28 % 9.93 C
3548 05-07-2009 13:59:59 30 C 28 % 9.51 C
3549 05-07-2009 14:11:59 30.7 C 25 % 8.42 C
3550 05-07-2009 14:24:58 30.9 C 27 % 9.73 C
Sensor: Nr:Datum:Temp:Feuchte:Taupunkt:
Aussen-T/F 3551 05-07-2009 14:36:58 31 C 26 % 9.26 C
3552 05-07-2009 14:48:57 31.7 C 24 % 8.66 C
3553 05-07-2009 15:00:58 30.8 C 23 % 7.28 C
3554 05-07-2009 15:12:58 31.5 C 23 % 7.87 C
3555 05-07-2009 15:24:57 31.9 C 21 % 6.87 C
3556 05-07-2009 15:36:57 32.1 C 21 % 7.03 C
3557 05-07-2009 15:48:57 32.7 C 20 % 6.81 C
3558 05-07-2009 16:00:57 33 C 20 % 7.06 C
3559 05-07-2009 16:12:57 32.1 C 20 % 6.32 C
3560 05-07-2009 16:24:02 31.5 C 20 % 5.83 C
3561 05-07-2009 16:36:02 31.5 C 20 % 5.83 C
3562 05-07-2009 16:48:01 31.2 C 25 % 8.84 C
3563 05-07-2009 17:00:01 30.9 C 28 % 10.27 C
3564 05-07-2009 17:12:02 30.6 C 25 % 8.34 C
3565 05-07-2009 17:24:01 30.4 C 30 % 10.88 C
3566 05-07-2009 17:36:01 29.8 C 33 % 11.8 C
3567 05-07-2009 17:48:01 27.9 C 33 % 10.15 C
3568 05-07-2009 18:00:01 26.6 C 37 % 10.72 C
3569 05-07-2009 18:12:01 26.9 C 38 % 11.39 C
3570 05-07-2009 18:24:01 26.9 C 37 % 10.99 C
3571 05-07-2009 18:36:00 28 C 35 % 11.12 C
3572 05-07-2009 18:48:01 29 C 31 % 10.17 C
3573 05-07-2009 19:00:01 29.2 C 31 % 10.34 C
3574 05-07-2009 19:12:00 30.4 C 30 % 10.88 C
3575 05-07-2009 19:24:00 30.6 C 27 % 9.48 C
Sensor: Nr:Datum:Temp:Feuchte:Taupunkt:
Aussen-T/F 3576 05-07-2009 19:36:00 29.8 C 28 % 9.34 C
3577 05-07-2009 19:48:00 30 C 29 % 10.03 C
3578 05-07-2009 20:00:00 30 C 30 % 10.54 C
3579 05-07-2009 20:12:00 29.4 C 31 % 10.51 C
3580 05-07-2009 20:24:59 28.9 C 34 % 11.47 C
3581 05-07-2009 20:36:00 27.5 C 38 % 11.92 C
3582 05-07-2009 20:48:59 26.9 C 40 % 12.16 C
3583 05-07-2009 20:59:59 26.5 C 42 % 12.55 C
3584 05-07-2009 21:11:59 26 C 42 % 12.1 C
3585 05-07-2009 21:24:59 25.4 C 44 % 12.27 C
3586 05-07-2009 21:36:59 25 C 45 % 12.25 C
3587 05-07-2009 21:48:58 24.6 C 46 % 12.22 C
3588 05-07-2009 22:00:59 24.3 C 48 % 12.59 C
3589 05-07-2009 22:13:00 24 C 49 % 12.63 C
3590 05-07-2009 22:25:59 23.8 C 51 % 13.06 C
3591 05-07-2009 22:37:59 23.7 C 51 % 12.97 C
3592 05-07-2009 22:49:59 23.4 C 52 % 12.99 C
3593 05-07-2009 23:01:59 23.4 C 53 % 13.28 C
3594 05-07-2009 23:13:59 23 C 55 % 13.48 C
3595 05-07-2009 23:25:59 22.2 C 66 % 15.55 C
3596 05-07-2009 23:37:59 20 C 78 % 16.05 C
3597 05-07-2009 23:49:59 19.8 C 83 % 16.83 C
3598 06-07-2009 00:02:00 19.3 C 87 % 17.08 C
3599 06-07-2009 00:14:00 18.8 C 89 % 16.95 C
3600 06-07-2009 00:26:00 18.5 C 90 % 16.83 C
Sensor: Nr:Datum:Temp:Feuchte:Taupunkt:
Aussen-T/F 3601 06-07-2009 00:38:00 18.4 C 90 % 16.73 C
3602 06-07-2009 00:49:00 18.7 C 91 % 17.2 C
3603 06-07-2009 01:01:00 18.5 C 91 % 17 C
3604 06-07-2009 01:13:00 18.6 C 92 % 17.27 C
3605 06-07-2009 01:25:00 18.8 C 92 % 17.47 C
3606 06-07-2009 01:37:00 18.8 C 92 % 17.47 C
3607 06-07-2009 01:49:00 18.8 C 92 % 17.47 C
3608 06-07-2009 02:01:00 18.6 C 92 % 17.27 C
3609 06-07-2009 02:13:00 18.3 C 91 % 16.81 C
3610 06-07-2009 02:25:00 18.3 C 91 % 16.81 C
3611 06-07-2009 02:37:00 18.4 C 90 % 16.73 C
3612 06-07-2009 02:49:00 18.5 C 90 % 16.83 C
3613 06-07-2009 03:01:00 18.6 C 89 % 16.75 C
3614 06-07-2009 03:13:00 18.5 C 87 % 16.3 C
3615 06-07-2009 03:25:00 18.3 C 87 % 16.1 C
3616 06-07-2009 03:37:00 18 C 88 % 15.98 C
3617 06-07-2009 03:49:00 17.8 C 90 % 16.14 C
3618 06-07-2009 04:01:01 17.7 C 90 % 16.04 C
3619 06-07-2009 04:13:01 17.6 C 90 % 15.94 C
3620 06-07-2009 04:25:01 17.7 C 90 % 16.04 C
3621 06-07-2009 04:37:01 17.6 C 90 % 15.94 C
3622 06-07-2009 04:49:01 17.6 C 90 % 15.94 C
3623 06-07-2009 05:01:01 17.5 C 90 % 15.84 C
3624 06-07-2009 05:13:01 17.5 C 90 % 15.84 C
3625 06-07-2009 05:25:01 17.5 C 89 % 15.67 C
Sensor: Nr:Datum:Temp:Feuchte:Taupunkt:
Aussen-T/F 3626 06-07-2009 05:37:01 17.5 C 88 % 15.49 C
3627 06-07-2009 05:49:01 17.4 C 88 % 15.39 C
3628 06-07-2009 06:01:01 17.3 C 88 % 15.29 C
3629 06-07-2009 06:13:01 17.4 C 88 % 15.39 C
3630 06-07-2009 06:25:01 17.4 C 88 % 15.39 C
3631 06-07-2009 06:37:01 17.3 C 88 % 15.29 C
3632 06-07-2009 06:49:01 17.4 C 88 % 15.39 C
3633 06-07-2009 07:01:59 17.7 C 88 % 15.69 C
3634 06-07-2009 07:13:59 18 C 87 % 15.8 C
3635 06-07-2009 07:25:59 18.7 C 86 % 16.31 C
3636 06-07-2009 07:37:59 18.6 C 84 % 15.84 C
3637 06-07-2009 07:49:58 19 C 83 % 16.05 C
3638 06-07-2009 08:01:59 18.6 C 80 % 15.08 C
3639 06-07-2009 08:13:59 18.7 C 81 % 15.37 C
3640 06-07-2009 08:25:58 18.7 C 80 % 15.18 C
3641 06-07-2009 08:37:58 19 C 78 % 15.08 C
3642 06-07-2009 08:49:58 19.7 C 77 % 15.56 C
3643 06-07-2009 09:01:58 20.5 C 70 % 14.84 C
3644 06-07-2009 09:13:58 20.8 C 65 % 13.98 C
3645 06-07-2009 09:25:58 21.1 C 65 % 14.27 C
3646 06-07-2009 09:37:57 21.2 C 60 % 13.13 C
3647 06-07-2009 09:49:58 21.9 C 58 % 13.27 C
3648 06-07-2009 10:01:57 22.6 C 50 % 11.66 C
3649 06-07-2009 10:13:57 22.8 C 50 % 11.84 C
3650 06-07-2009 10:25:57 23 C 46 % 10.76 C
Sensor: Nr:Datum:Temp:Feuchte:Taupunkt:
Aussen-T/F 3651 06-07-2009 10:37:57 24.1 C 46 % 11.76 C
3652 06-07-2009 10:49:57 25.2 C 42 % 11.38 C
3653 06-07-2009 11:01:56 25.3 C 37 % 9.57 C
3654 06-07-2009 11:13:56 26 C 40 % 11.36 C
3655 06-07-2009 11:25:57 25.4 C 38 % 10.06 C
3656 06-07-2009 11:37:57 26.4 C 37 % 10.54 C
3657 06-07-2009 11:49:56 26.8 C 36 % 10.49 C
3658 06-07-2009 12:01:56 28.6 C 31 % 9.82 C
3659 06-07-2009 12:13:56 27.6 C 28 % 7.46 C
3660 06-07-2009 12:25:02 26.3 C 35 % 9.63 C
3661 06-07-2009 12:37:02 24.3 C 43 % 10.93 C
3662 06-07-2009 12:49:01 21.2 C 60 % 13.13 C
3663 06-07-2009 13:01:01 21 C 65 % 14.17 C
3664 06-07-2009 13:13:01 22.3 C 57 % 13.37 C
3665 06-07-2009 13:25:01 24.7 C 46 % 12.31 C
3666 06-07-2009 13:37:01 25.2 C 42 % 11.38 C
3667 06-07-2009 13:49:01 25.1 C 37 % 9.39 C
3668 06-07-2009 14:01:01 26.7 C 35 % 9.98 C
3669 06-07-2009 14:13:01 26.6 C 32 % 8.56 C
3670 06-07-2009 14:25:01 26.3 C 35 % 9.63 C
3671 06-07-2009 14:37:00 26.6 C 35 % 9.89 C
3672 06-07-2009 14:49:01 27.9 C 34 % 10.59 C
3673 06-07-2009 15:01:00 28.5 C 32 % 10.21 C
3674 06-07-2009 15:13:00 28.2 C 29 % 8.49 C
3675 06-07-2009 15:25:00 28.4 C 30 % 9.16 C
Sensor: Nr:Datum:Temp:Feuchte:Taupunkt:
Aussen-T/F 3676 06-07-2009 15:37:00 29 C 26 % 7.57 C
3677 06-07-2009 15:49:00 29 C 23 % 5.78 C
3678 06-07-2009 16:01:00 29.1 C 23 % 5.87 C
3679 06-07-2009 16:13:00 28.8 C 24 % 6.23 C
3680 06-07-2009 16:25:59 26.5 C 31 % 8.01 C
3681 06-07-2009 16:37:00 23.6 C 40 % 9.22 C
3682 06-07-2009 16:49:59 23.9 C 40 % 9.49 C
3683 06-07-2009 17:01:59 24.8 C 38 % 9.53 C
3684 06-07-2009 17:13:59 25.5 C 35 % 8.92 C
3685 06-07-2009 17:25:59 26.5 C 33 % 8.93 C
3686 06-07-2009 17:37:59 26.8 C 32 % 8.73 C
3687 06-07-2009 17:49:58 27.5 C 30 % 8.39 C
3688 06-07-2009 18:01:58 27.4 C 34 % 10.16 C
3689 06-07-2009 18:13:58 26.7 C 35 % 9.98 C
3690 06-07-2009 18:25:59 27.6 C 34 % 10.33 C
3691 06-07-2009 18:37:58 28.1 C 32 % 9.86 C
3692 06-07-2009 18:49:58 28 C 31 % 9.3 C
3693 06-07-2009 19:01:58 29.3 C 30 % 9.94 C
3694 06-07-2009 19:13:58 28.6 C 31 % 9.82 C
3695 06-07-2009 19:25:58 27.9 C 34 % 10.59 C
3696 06-07-2009 19:37:58 26.8 C 38 % 11.3 C
3697 06-07-2009 19:49:57 25.2 C 35 % 8.66 C
3698 06-07-2009 20:01:58 24.4 C 37 % 8.78 C
3699 06-07-2009 20:13:58 23.7 C 38 % 8.55 C
3700 06-07-2009 20:25:57 23.3 C 42 % 9.68 C
Sensor: Nr:Datum:Temp:Feuchte:Taupunkt:
Aussen-T/F 3701 06-07-2009 20:37:57 21.3 C 52 % 11.05 C
3702 06-07-2009 20:49:57 19.9 C 67 % 13.59 C
3703 06-07-2009 21:01:56 18.6 C 73 % 13.67 C
3704 06-07-2009 21:13:56 18.5 C 78 % 14.59 C
3705 06-07-2009 21:25:57 18.4 C 78 % 14.5 C
3706 06-07-2009 21:37:57 18.5 C 77 % 14.39 C
3707 06-07-2009 21:49:56 18.8 C 73 % 13.86 C
3708 06-07-2009 22:01:57 18.4 C 75 % 13.89 C
3709 06-07-2009 22:13:57 18.2 C 73 % 13.28 C
3710 06-07-2009 22:25:56 18 C 73 % 13.09 C
3711 06-07-2009 22:37:56 17.9 C 75 % 13.41 C
3712 06-07-2009 22:49:56 17.5 C 77 % 13.43 C
3713 06-07-2009 23:01:56 17.4 C 77 % 13.33 C
3714 06-07-2009 23:13:56 17.5 C 77 % 13.43 C
3715 06-07-2009 23:26:56 17.9 C 74 % 13.2 C
3716 06-07-2009 23:38:56 18 C 73 % 13.09 C
3717 06-07-2009 23:50:56 17.8 C 77 % 13.72 C
3718 07-07-2009 00:02:56 17.5 C 80 % 14.01 C
3719 07-07-2009 00:14:56 17.5 C 80 % 14.01 C
3720 07-07-2009 00:26:56 17.5 C 80 % 14.01 C
3721 07-07-2009 00:38:56 17.5 C 79 % 13.82 C
3722 07-07-2009 00:50:56 17.5 C 79 % 13.82 C
3723 07-07-2009 01:02:56 17.6 C 79 % 13.92 C
3724 07-07-2009 01:14:56 17.6 C 78 % 13.72 C
3725 07-07-2009 01:26:56 17.6 C 78 % 13.72 C
Sensor: Nr:Datum:Temp:Feuchte:Taupunkt:
Aussen-T/F 3726 07-07-2009 01:38:57 17.7 C 77 % 13.62 C
3727 07-07-2009 01:50:57 17.5 C 77 % 13.43 C
3728 07-07-2009 02:02:57 17.3 C 77 % 13.23 C
3729 07-07-2009 02:14:57 17.2 C 78 % 13.33 C
3730 07-07-2009 02:26:57 16.8 C 79 % 13.14 C
3731 07-07-2009 02:38:57 16.8 C 81 % 13.52 C
3732 07-07-2009 02:50:57 16.8 C 82 % 13.71 C
3733 07-07-2009 03:02:57 16.8 C 81 % 13.52 C
3734 07-07-2009 03:14:57 16.8 C 81 % 13.52 C
3735 07-07-2009 03:26:57 16.8 C 81 % 13.52 C
3736 07-07-2009 03:38:57 16.8 C 82 % 13.71 C
3737 07-07-2009 03:50:57 16.7 C 82 % 13.61 C
3738 07-07-2009 04:02:57 16.8 C 82 % 13.71 C
3739 07-07-2009 04:14:57 16.8 C 82 % 13.71 C
3740 07-07-2009 04:26:57 16.7 C 82 % 13.61 C
3741 07-07-2009 04:38:57 16.6 C 81 % 13.33 C
3742 07-07-2009 04:50:57 16.2 C 82 % 13.13 C
3743 07-07-2009 05:02:57 16 C 82 % 12.93 C
3744 07-07-2009 05:14:57 16 C 83 % 13.12 C
3745 07-07-2009 05:26:58 16.1 C 85 % 13.58 C
3746 07-07-2009 05:38:58 16.1 C 84 % 13.4 C
3747 07-07-2009 05:50:58 16 C 84 % 13.3 C
3748 07-07-2009 06:02:58 16 C 84 % 13.3 C
3749 07-07-2009 06:14:58 15.9 C 84 % 13.2 C
3750 07-07-2009 06:26:58 16 C 83 % 13.12 C
Sensor: Nr:Datum:Temp:Feuchte:Taupunkt:
Aussen-T/F 3751 07-07-2009 06:38:58 16.2 C 82 % 13.13 C
3752 07-07-2009 06:50:56 16.4 C 81 % 13.13 C
3753 07-07-2009 07:02:57 16.4 C 81 % 13.13 C
3754 07-07-2009 07:14:56 16.6 C 81 % 13.33 C
3755 07-07-2009 07:26:56 16.2 C 82 % 13.13 C
3756 07-07-2009 07:38:56 16 C 84 % 13.3 C
3757 07-07-2009 07:50:56 16 C 84 % 13.3 C
3758 07-07-2009 08:02:56 16.4 C 84 % 13.69 C
3759 07-07-2009 08:14:56 17 C 81 % 13.72 C
3760 07-07-2009 08:26:56 17.5 C 77 % 13.43 C
3761 07-07-2009 08:38:55 17.7 C 77 % 13.62 C
3762 07-07-2009 08:50:55 17.7 C 73 % 12.8 C
3763 07-07-2009 09:02:55 17.9 C 72 % 12.78 C
3764 07-07-2009 09:14:55 17.3 C 73 % 12.42 C
3765 07-07-2009 09:26:55 17.4 C 74 % 12.72 C
3766 07-07-2009 09:38:55 18 C 70 % 12.45 C
3767 07-07-2009 09:50:55 18.4 C 67 % 12.17 C
3768 07-07-2009 10:02:55 18.2 C 65 % 11.52 C
3769 07-07-2009 10:14:54 17.9 C 68 % 11.91 C
3770 07-07-2009 10:26:54 18.2 C 65 % 11.52 C
3771 07-07-2009 10:38:54 18 C 63 % 10.86 C
3772 07-07-2009 10:50:54 18.6 C 62 % 11.18 C
3773 07-07-2009 11:02:54 19.1 C 60 % 11.16 C
3774 07-07-2009 11:14:53 19.7 C 57 % 10.95 C
3775 07-07-2009 11:26:53 20.1 C 54 % 10.51 C
Sensor: Nr:Datum:Temp:Feuchte:Taupunkt:
Aussen-T/F 3776 07-07-2009 11:38:54 20.7 C 50 % 9.91 C
3777 07-07-2009 11:50:53 20.2 C 52 % 10.04 C
3778 07-07-2009 12:02:53 20.5 C 48 % 9.12 C
3779 07-07-2009 12:14:54 20 C 50 % 9.27 C
3780 07-07-2009 12:26:54 18.8 C 62 % 11.37 C
3781 07-07-2009 12:38:53 19.1 C 63 % 11.9 C
3782 07-07-2009 12:50:53 19.9 C 56 % 10.87 C
3783 07-07-2009 13:02:52 20.5 C 51 % 10.02 C
3784 07-07-2009 13:14:53 22.4 C 42 % 8.87 C
3785 07-07-2009 13:26:53 23 C 37 % 7.54 C
3786 07-07-2009 13:38:53 22.8 C 40 % 8.5 C
3787 07-07-2009 13:50:52 23.5 C 35 % 7.17 C
3788 07-07-2009 14:02:53 22.5 C 37 % 7.1 C
3789 07-07-2009 14:14:52 23.2 C 32 % 5.61 C
3790 07-07-2009 14:26:52 23.3 C 34 % 6.57 C
3791 07-07-2009 14:38:52 23.3 C 35 % 6.99 C
3792 07-07-2009 14:50:52 23.5 C 34 % 6.74 C
3793 07-07-2009 15:02:52 24 C 32 % 6.3 C
3794 07-07-2009 15:14:51 23.9 C 32 % 6.21 C
3795 07-07-2009 15:26:51 23.3 C 30 % 4.77 C
3796 07-07-2009 15:38:51 23.1 C 33 % 5.96 C
3797 07-07-2009 15:50:51 23.5 C 32 % 5.87 C
3798 07-07-2009 16:02:51 23.3 C 31 % 5.24 C
3799 07-07-2009 16:14:51 21.7 C 33 % 4.74 C
3800 07-07-2009 16:26:51 21.5 C 35 % 5.41 C
Sensor: Nr:Datum:Temp:Feuchte:Taupunkt:
Aussen-T/F 3801 07-07-2009 16:38:51 22 C 35 % 5.85 C
3802 07-07-2009 16:50:51 23.5 C 31 % 5.41 C
3803 07-07-2009 17:02:50 24.3 C 28 % 4.64 C
3804 07-07-2009 17:14:50 24.4 C 30 % 5.72 C
3805 07-07-2009 17:26:50 24.3 C 30 % 5.63 C
3806 07-07-2009 17:38:51 24.9 C 30 % 6.15 C
3807 07-07-2009 17:50:50 25.2 C 30 % 6.41 C
3808 07-07-2009 18:02:50 23 C 34 % 6.31 C
3809 07-07-2009 18:14:50 22.2 C 35 % 6.02 C
3810 07-07-2009 18:26:50 23.8 C 34 % 7.01 C
3811 07-07-2009 18:38:50 23.8 C 32 % 6.13 C
3812 07-07-2009 18:50:49 23.2 C 34 % 6.48 C
3813 07-07-2009 19:02:50 24.4 C 31 % 6.19 C
3814 07-07-2009 19:14:49 24.1 C 31 % 5.93 C
3815 07-07-2009 19:26:49 23.7 C 32 % 6.04 C
3816 07-07-2009 19:38:49 22.7 C 35 % 6.46 C
3817 07-07-2009 19:50:48 21.6 C 39 % 7.06 C
3818 07-07-2009 20:02:49 18.1 C 47 % 6.62 C
3819 07-07-2009 20:14:49 15.6 C 78 % 11.78 C
3820 07-07-2009 20:26:49 15.4 C 81 % 12.16 C
3821 07-07-2009 20:38:48 15.6 C 80 % 12.16 C
3822 07-07-2009 20:50:49 16.2 C 77 % 12.17 C
3823 07-07-2009 21:02:48 16.5 C 77 % 12.46 C
3824 07-07-2009 21:14:48 16.4 C 74 % 11.76 C
3825 07-07-2009 21:26:48 16.1 C 74 % 11.47 C
Sensor: Nr:Datum:Temp:Feuchte:Taupunkt:
Aussen-T/F 3826 07-07-2009 21:38:48 15.8 C 73 % 10.97 C
3827 07-07-2009 21:50:48 15.5 C 74 % 10.89 C
3828 07-07-2009 22:02:47 15 C 74 % 10.41 C
3829 07-07-2009 22:14:47 14.8 C 75 % 10.42 C
3830 07-07-2009 22:26:47 14.7 C 75 % 10.32 C
3831 07-07-2009 22:38:48 14.4 C 76 % 10.23 C
3832 07-07-2009 22:50:47 14.1 C 76 % 9.94 C
3833 07-07-2009 23:03:49 14 C 77 % 10.04 C
3834 07-07-2009 23:15:49 14 C 78 % 10.23 C
3835 07-07-2009 23:27:49 14.1 C 78 % 10.33 C
3836 07-07-2009 23:39:49 14.1 C 78 % 10.33 C
3837 07-07-2009 23:51:49 14.1 C 78 % 10.33 C
3838 08-07-2009 00:03:49 14.3 C 77 % 10.33 C
3839 08-07-2009 00:15:49 14.4 C 76 % 10.23 C
3840 08-07-2009 00:27:49 14.4 C 75 % 10.03 C
3841 08-07-2009 00:39:49 14.5 C 75 % 10.13 C
3842 08-07-2009 00:51:49 14.7 C 74 % 10.12 C
3843 08-07-2009 01:03:50 14.7 C 76 % 10.52 C
3844 08-07-2009 01:15:50 14.5 C 77 % 10.52 C
3845 08-07-2009 01:27:50 14.8 C 76 % 10.61 C
3846 08-07-2009 01:39:50 14.8 C 75 % 10.42 C
3847 08-07-2009 01:51:50 14.9 C 74 % 10.31 C
3848 08-07-2009 02:03:50 15 C 72 % 10 C
3849 08-07-2009 02:15:50 15 C 71 % 9.79 C
3850 08-07-2009 02:27:50 15.1 C 71 % 9.89 C
Sensor: Nr:Datum:Temp:Feuchte:Taupunkt:
Aussen-T/F 3851 08-07-2009 02:39:50 15.2 C 71 % 9.98 C
3852 08-07-2009 02:51:50 15.2 C 71 % 9.98 C
3853 08-07-2009 03:03:50 15.1 C 72 % 10.09 C
3854 08-07-2009 03:15:50 14.4 C 79 % 10.81 C
3855 08-07-2009 03:27:50 14.5 C 81 % 11.28 C
3856 08-07-2009 03:39:50 14.5 C 81 % 11.28 C
3857 08-07-2009 03:51:50 14.5 C 81 % 11.28 C
3858 08-07-2009 04:03:50 14.2 C 82 % 11.17 C
3859 08-07-2009 04:15:50 14 C 84 % 11.34 C
3860 08-07-2009 04:27:50 13.9 C 85 % 11.42 C
3861 08-07-2009 04:39:50 14 C 85 % 11.52 C
3862 08-07-2009 04:51:51 13.7 C 87 % 11.58 C
3863 08-07-2009 05:03:51 13.6 C 88 % 11.65 C
3864 08-07-2009 05:15:51 13.7 C 88 % 11.75 C
3865 08-07-2009 05:27:51 13.9 C 87 % 11.77 C
3866 08-07-2009 05:39:51 14 C 84 % 11.34 C
3867 08-07-2009 05:51:51 14 C 84 % 11.34 C
3868 08-07-2009 06:03:51 13.8 C 85 % 11.32 C
3869 08-07-2009 06:15:51 13.7 C 87 % 11.58 C
3870 08-07-2009 06:27:51 13.6 C 88 % 11.65 C
3871 08-07-2009 06:39:51 13.7 C 87 % 11.58 C
3872 08-07-2009 06:51:51 14 C 87 % 11.87 C
3873 08-07-2009 07:03:49 14.2 C 86 % 11.89 C
3874 08-07-2009 07:15:48 14.4 C 84 % 11.73 C
3875 08-07-2009 07:27:48 14.6 C 82 % 11.56 C
Sensor: Nr:Datum:Temp:Feuchte:Taupunkt:
Aussen-T/F 3876 08-07-2009 07:39:49 14.7 C 81 % 11.48 C
3877 08-07-2009 07:51:49 14.9 C 80 % 11.48 C
3878 08-07-2009 08:03:49 15.2 C 80 % 11.78 C
3879 08-07-2009 08:15:48 15.2 C 79 % 11.59 C
3880 08-07-2009 08:27:48 15.2 C 79 % 11.59 C
3881 08-07-2009 08:39:48 14.9 C 82 % 11.86 C
3882 08-07-2009 08:51:48 15 C 81 % 11.77 C
3883 08-07-2009 09:03:48 15 C 82 % 11.95 C
3884 08-07-2009 09:15:47 16 C 78 % 12.17 C
<